<?xml version="1.0" encoding="UTF-8" standalone="no" ?>
<gpx xmlns="http://www.topografix.com/GPX/1/1" xmlns:xsi="http://www.w3.org/2001/XMLSchema-instance" xsi:schemaLocation="http://www.topografix.com/GPX/1/1 http://www.topografix.com/GPX/1/1/gpx.xsd" version="1.1" creator="VisuGPX - https://www.visugpx.com">
  <metadata>
    <name>-1-Lanne-Nord</name>
    <desc><![CDATA[SEMAINE LSVC 2024]]></desc>
  </metadata>
  <wpt lat="43.2087" lon="-0.90568">
    <ele>156.5</ele>
    <name><![CDATA[Garindein]]></name>
    <type><![CDATA[GENERIC]]></type>
  </wpt>
  <wpt lat="43.16194" lon="-0.90123">
    <ele>180</ele>
    <name><![CDATA[Menditte]]></name>
    <type><![CDATA[GENERIC]]></type>
  </wpt>
  <wpt lat="43.2419" lon="-0.8811">
    <ele>134</ele>
    <name><![CDATA[Viodos]]></name>
    <type><![CDATA[GENERIC]]></type>
  </wpt>
  <wpt lat="43.18854" lon="-0.77198">
    <ele>209.8</ele>
    <name><![CDATA[Barcus]]></name>
    <type><![CDATA[GENERIC]]></type>
  </wpt>
  <trk>
    <name><![CDATA[-1-Lanne-Nord]]></name>
    <extensions>
      <line xmlns="http://www.topografix.com/GPX/gpx_style/0/2">
        <color>0000FF</color>
        <width>4</width>
      </line>
    </extensions>
    <trkseg>
      <trkpt lat="43.09712" lon="-0.77879">
        <ele>337.28</ele>
        <time>2024-05-30T19:20:09.000Z</time>
      </trkpt>
      <trkpt lat="43.09728" lon="-0.77867">
        <ele>337.12</ele>
        <time>2024-05-30T19:20:09.003Z</time>
      </trkpt>
      <trkpt lat="43.09746" lon="-0.77859">
        <ele>336.97</ele>
        <time>2024-05-30T19:20:09.010Z</time>
      </trkpt>
      <trkpt lat="43.09807" lon="-0.7786">
        <ele>336.72</ele>
        <time>2024-05-30T19:20:09.028Z</time>
      </trkpt>
      <trkpt lat="43.09821" lon="-0.77857">
        <ele>336.22</ele>
        <time>2024-05-30T19:20:09.049Z</time>
      </trkpt>
      <trkpt lat="43.09835" lon="-0.77849">
        <ele>335.85</ele>
        <time>2024-05-30T19:20:09.073Z</time>
      </trkpt>
      <trkpt lat="43.09929" lon="-0.77777">
        <ele>335.53</ele>
        <time>2024-05-30T19:20:09.117Z</time>
      </trkpt>
      <trkpt lat="43.09979" lon="-0.77746">
        <ele>335.06</ele>
        <time>2024-05-30T19:20:09.171Z</time>
      </trkpt>
      <trkpt lat="43.10012" lon="-0.77728">
        <ele>334.5</ele>
        <time>2024-05-30T19:20:09.232Z</time>
      </trkpt>
      <trkpt lat="43.10049" lon="-0.77722">
        <ele>333.86</ele>
        <time>2024-05-30T19:20:09.300Z</time>
      </trkpt>
      <trkpt lat="43.10061" lon="-0.77718">
        <ele>333.31</ele>
        <time>2024-05-30T19:20:09.370Z</time>
      </trkpt>
      <trkpt lat="43.10072" lon="-0.7771">
        <ele>332.78</ele>
        <time>2024-05-30T19:20:09.442Z</time>
      </trkpt>
      <trkpt lat="43.10084" lon="-0.77691">
        <ele>332.16</ele>
        <time>2024-05-30T19:20:09.518Z</time>
      </trkpt>
      <trkpt lat="43.10092" lon="-0.77669">
        <ele>331.64</ele>
        <time>2024-05-30T19:20:09.597Z</time>
      </trkpt>
      <trkpt lat="43.10097" lon="-0.77604">
        <ele>331.25</ele>
        <time>2024-05-30T19:20:09.685Z</time>
      </trkpt>
      <trkpt lat="43.10103" lon="-0.77574">
        <ele>330.89</ele>
        <time>2024-05-30T19:20:09.777Z</time>
      </trkpt>
      <trkpt lat="43.10134" lon="-0.77485">
        <ele>330.42</ele>
        <time>2024-05-30T19:20:09.882Z</time>
      </trkpt>
      <trkpt lat="43.10141" lon="-0.77471">
        <ele>330.04</ele>
        <time>2024-05-30T19:20:09.990Z</time>
      </trkpt>
      <trkpt lat="43.10184" lon="-0.77415">
        <ele>330.04</ele>
        <time>2024-05-30T19:20:10.109Z</time>
      </trkpt>
      <trkpt lat="43.10196" lon="-0.77406">
        <ele>329.88</ele>
        <time>2024-05-30T19:20:10.230Z</time>
      </trkpt>
      <trkpt lat="43.10313" lon="-0.77378">
        <ele>328.96</ele>
        <time>2024-05-30T19:20:10.374Z</time>
      </trkpt>
      <trkpt lat="43.10375" lon="-0.77356">
        <ele>328.63</ele>
        <time>2024-05-30T19:20:10.529Z</time>
      </trkpt>
      <trkpt lat="43.10404" lon="-0.77349">
        <ele>327.82</ele>
        <time>2024-05-30T19:20:10.690Z</time>
      </trkpt>
      <trkpt lat="43.10436" lon="-0.77335">
        <ele>326.86</ele>
        <time>2024-05-30T19:20:10.857Z</time>
      </trkpt>
      <trkpt lat="43.10442" lon="-0.77334">
        <ele>326.08</ele>
        <time>2024-05-30T19:20:11.025Z</time>
      </trkpt>
      <trkpt lat="43.10448" lon="-0.77334">
        <ele>325.34</ele>
        <time>2024-05-30T19:20:11.194Z</time>
      </trkpt>
      <trkpt lat="43.105" lon="-0.77354">
        <ele>324.74</ele>
        <time>2024-05-30T19:20:11.373Z</time>
      </trkpt>
      <trkpt lat="43.10522" lon="-0.7736">
        <ele>324.27</ele>
        <time>2024-05-30T19:20:11.557Z</time>
      </trkpt>
      <trkpt lat="43.10545" lon="-0.77357">
        <ele>323.74</ele>
        <time>2024-05-30T19:20:11.745Z</time>
      </trkpt>
      <trkpt lat="43.10559" lon="-0.77352">
        <ele>323.23</ele>
        <time>2024-05-30T19:20:11.936Z</time>
      </trkpt>
      <trkpt lat="43.10579" lon="-0.77339">
        <ele>322.72</ele>
        <time>2024-05-30T19:20:12.131Z</time>
      </trkpt>
      <trkpt lat="43.10614" lon="-0.77311">
        <ele>322.26</ele>
        <time>2024-05-30T19:20:12.333Z</time>
      </trkpt>
      <trkpt lat="43.10682" lon="-0.77277">
        <ele>321.74</ele>
        <time>2024-05-30T19:20:12.549Z</time>
      </trkpt>
      <trkpt lat="43.10702" lon="-0.7727">
        <ele>321.36</ele>
        <time>2024-05-30T19:20:12.769Z</time>
      </trkpt>
      <trkpt lat="43.10842" lon="-0.77252">
        <ele>320.9</ele>
        <time>2024-05-30T19:20:13.015Z</time>
      </trkpt>
      <trkpt lat="43.10905" lon="-0.77263">
        <ele>320.31</ele>
        <time>2024-05-30T19:20:13.273Z</time>
      </trkpt>
      <trkpt lat="43.10927" lon="-0.77263">
        <ele>320.13</ele>
        <time>2024-05-30T19:20:13.535Z</time>
      </trkpt>
      <trkpt lat="43.10945" lon="-0.7726">
        <ele>320.03</ele>
        <time>2024-05-30T19:20:13.800Z</time>
      </trkpt>
      <trkpt lat="43.10965" lon="-0.77247">
        <ele>320.05</ele>
        <time>2024-05-30T19:20:14.069Z</time>
      </trkpt>
      <trkpt lat="43.10988" lon="-0.77229">
        <ele>320.08</ele>
        <time>2024-05-30T19:20:14.343Z</time>
      </trkpt>
      <trkpt lat="43.11028" lon="-0.7722">
        <ele>320.13</ele>
        <time>2024-05-30T19:20:14.625Z</time>
      </trkpt>
      <trkpt lat="43.11028" lon="-0.77212">
        <ele>320.27</ele>
        <time>2024-05-30T19:20:14.908Z</time>
      </trkpt>
      <trkpt lat="43.11025" lon="-0.77095">
        <ele>320.58</ele>
        <time>2024-05-30T19:20:15.207Z</time>
      </trkpt>
      <trkpt lat="43.11026" lon="-0.77084">
        <ele>320.9</ele>
        <time>2024-05-30T19:20:15.507Z</time>
      </trkpt>
      <trkpt lat="43.11036" lon="-0.77063">
        <ele>321.28</ele>
        <time>2024-05-30T19:20:15.811Z</time>
      </trkpt>
      <trkpt lat="43.11042" lon="-0.77055">
        <ele>321.63</ele>
        <time>2024-05-30T19:20:16.116Z</time>
      </trkpt>
      <trkpt lat="43.11052" lon="-0.77047">
        <ele>321.93</ele>
        <time>2024-05-30T19:20:16.423Z</time>
      </trkpt>
      <trkpt lat="43.11113" lon="-0.77021">
        <ele>322.1</ele>
        <time>2024-05-30T19:20:16.742Z</time>
      </trkpt>
      <trkpt lat="43.11132" lon="-0.77006">
        <ele>322.37</ele>
        <time>2024-05-30T19:20:17.065Z</time>
      </trkpt>
      <trkpt lat="43.11148" lon="-0.76984">
        <ele>322.59</ele>
        <time>2024-05-30T19:20:17.393Z</time>
      </trkpt>
      <trkpt lat="43.11161" lon="-0.76958">
        <ele>322.75</ele>
        <time>2024-05-30T19:20:17.725Z</time>
      </trkpt>
      <trkpt lat="43.11175" lon="-0.76919">
        <ele>322.73</ele>
        <time>2024-05-30T19:20:18.063Z</time>
      </trkpt>
      <trkpt lat="43.11181" lon="-0.76901">
        <ele>322.65</ele>
        <time>2024-05-30T19:20:18.403Z</time>
      </trkpt>
      <trkpt lat="43.11216" lon="-0.76731">
        <ele>322.42</ele>
        <time>2024-05-30T19:20:18.767Z</time>
      </trkpt>
      <trkpt lat="43.11297" lon="-0.76442">
        <ele>322.12</ele>
        <time>2024-05-30T19:20:19.174Z</time>
      </trkpt>
      <trkpt lat="43.113" lon="-0.76436">
        <ele>321.68</ele>
        <time>2024-05-30T19:20:19.582Z</time>
      </trkpt>
      <trkpt lat="43.11309" lon="-0.76419">
        <ele>321.11</ele>
        <time>2024-05-30T19:20:19.992Z</time>
      </trkpt>
      <trkpt lat="43.11316" lon="-0.76413">
        <ele>320.42</ele>
        <time>2024-05-30T19:20:20.404Z</time>
      </trkpt>
      <trkpt lat="43.11317" lon="-0.76406">
        <ele>319.63</ele>
        <time>2024-05-30T19:20:20.817Z</time>
      </trkpt>
      <trkpt lat="43.11325" lon="-0.76404">
        <ele>318.72</ele>
        <time>2024-05-30T19:20:21.232Z</time>
      </trkpt>
      <trkpt lat="43.11338" lon="-0.76394">
        <ele>317.7</ele>
        <time>2024-05-30T19:20:21.649Z</time>
      </trkpt>
      <trkpt lat="43.11378" lon="-0.76359">
        <ele>316.42</ele>
        <time>2024-05-30T19:20:22.075Z</time>
      </trkpt>
      <trkpt lat="43.11408" lon="-0.76329">
        <ele>315.03</ele>
        <time>2024-05-30T19:20:22.508Z</time>
      </trkpt>
      <trkpt lat="43.11418" lon="-0.76314">
        <ele>313.75</ele>
        <time>2024-05-30T19:20:22.944Z</time>
      </trkpt>
      <trkpt lat="43.11426" lon="-0.76297">
        <ele>312.47</ele>
        <time>2024-05-30T19:20:23.383Z</time>
      </trkpt>
      <trkpt lat="43.11475" lon="-0.76132">
        <ele>311.07</ele>
        <time>2024-05-30T19:20:23.846Z</time>
      </trkpt>
      <trkpt lat="43.11493" lon="-0.76173">
        <ele>309.64</ele>
        <time>2024-05-30T19:20:24.315Z</time>
      </trkpt>
      <trkpt lat="43.11519" lon="-0.76222">
        <ele>308.23</ele>
        <time>2024-05-30T19:20:24.793Z</time>
      </trkpt>
      <trkpt lat="43.11528" lon="-0.76235">
        <ele>306.93</ele>
        <time>2024-05-30T19:20:25.273Z</time>
      </trkpt>
      <trkpt lat="43.11542" lon="-0.76245">
        <ele>305.7</ele>
        <time>2024-05-30T19:20:25.756Z</time>
      </trkpt>
      <trkpt lat="43.11562" lon="-0.76254">
        <ele>304.44</ele>
        <time>2024-05-30T19:20:26.243Z</time>
      </trkpt>
      <trkpt lat="43.1158" lon="-0.76259">
        <ele>303.24</ele>
        <time>2024-05-30T19:20:26.733Z</time>
      </trkpt>
      <trkpt lat="43.1166" lon="-0.7626">
        <ele>302.16</ele>
        <time>2024-05-30T19:20:27.238Z</time>
      </trkpt>
      <trkpt lat="43.11703" lon="-0.7627">
        <ele>301.53</ele>
        <time>2024-05-30T19:20:27.751Z</time>
      </trkpt>
      <trkpt lat="43.11732" lon="-0.76274">
        <ele>300.85</ele>
        <time>2024-05-30T19:20:28.270Z</time>
      </trkpt>
      <trkpt lat="43.11761" lon="-0.76272">
        <ele>300.28</ele>
        <time>2024-05-30T19:20:28.794Z</time>
      </trkpt>
      <trkpt lat="43.1179" lon="-0.76257">
        <ele>300.01</ele>
        <time>2024-05-30T19:20:29.324Z</time>
      </trkpt>
      <trkpt lat="43.11801" lon="-0.76257">
        <ele>299.93</ele>
        <time>2024-05-30T19:20:29.856Z</time>
      </trkpt>
      <trkpt lat="43.11813" lon="-0.76263">
        <ele>300.05</ele>
        <time>2024-05-30T19:20:30.390Z</time>
      </trkpt>
      <trkpt lat="43.11823" lon="-0.76272">
        <ele>300.31</ele>
        <time>2024-05-30T19:20:30.927Z</time>
      </trkpt>
      <trkpt lat="43.11838" lon="-0.76292">
        <ele>300.89</ele>
        <time>2024-05-30T19:20:31.467Z</time>
      </trkpt>
      <trkpt lat="43.11872" lon="-0.76347">
        <ele>301.65</ele>
        <time>2024-05-30T19:20:32.017Z</time>
      </trkpt>
      <trkpt lat="43.11943" lon="-0.76435">
        <ele>302.45</ele>
        <time>2024-05-30T19:20:32.585Z</time>
      </trkpt>
      <trkpt lat="43.11955" lon="-0.76443">
        <ele>303.49</ele>
        <time>2024-05-30T19:20:33.156Z</time>
      </trkpt>
      <trkpt lat="43.11995" lon="-0.76452">
        <ele>304.61</ele>
        <time>2024-05-30T19:20:33.734Z</time>
      </trkpt>
      <trkpt lat="43.12022" lon="-0.7647">
        <ele>305.97</ele>
        <time>2024-05-30T19:20:34.318Z</time>
      </trkpt>
      <trkpt lat="43.12057" lon="-0.76474">
        <ele>307.69</ele>
        <time>2024-05-30T19:20:34.908Z</time>
      </trkpt>
      <trkpt lat="43.12104" lon="-0.76468">
        <ele>309.51</ele>
        <time>2024-05-30T19:20:35.507Z</time>
      </trkpt>
      <trkpt lat="43.12125" lon="-0.76471">
        <ele>311.23</ele>
        <time>2024-05-30T19:20:36.110Z</time>
      </trkpt>
      <trkpt lat="43.12149" lon="-0.76481">
        <ele>313.02</ele>
        <time>2024-05-30T19:20:36.718Z</time>
      </trkpt>
      <trkpt lat="43.12182" lon="-0.76507">
        <ele>315.06</ele>
        <time>2024-05-30T19:20:37.333Z</time>
      </trkpt>
      <trkpt lat="43.12206" lon="-0.76533">
        <ele>317.34</ele>
        <time>2024-05-30T19:20:37.953Z</time>
      </trkpt>
      <trkpt lat="43.12258" lon="-0.76621">
        <ele>320.59</ele>
        <time>2024-05-30T19:20:38.589Z</time>
      </trkpt>
      <trkpt lat="43.12262" lon="-0.76625">
        <ele>323.04</ele>
        <time>2024-05-30T19:20:39.226Z</time>
      </trkpt>
      <trkpt lat="43.12266" lon="-0.76623">
        <ele>325.56</ele>
        <time>2024-05-30T19:20:39.864Z</time>
      </trkpt>
      <trkpt lat="43.12267" lon="-0.76615">
        <ele>328.11</ele>
        <time>2024-05-30T19:20:40.503Z</time>
      </trkpt>
      <trkpt lat="43.12261" lon="-0.76577">
        <ele>330.43</ele>
        <time>2024-05-30T19:20:41.147Z</time>
      </trkpt>
      <trkpt lat="43.12261" lon="-0.76565">
        <ele>333.05</ele>
        <time>2024-05-30T19:20:41.793Z</time>
      </trkpt>
      <trkpt lat="43.12269" lon="-0.76563">
        <ele>335.9</ele>
        <time>2024-05-30T19:20:42.440Z</time>
      </trkpt>
      <trkpt lat="43.12302" lon="-0.76587">
        <ele>339.23</ele>
        <time>2024-05-30T19:20:43.094Z</time>
      </trkpt>
      <trkpt lat="43.12364" lon="-0.76603">
        <ele>342.55</ele>
        <time>2024-05-30T19:20:43.760Z</time>
      </trkpt>
      <trkpt lat="43.12387" lon="-0.76601">
        <ele>345.63</ele>
        <time>2024-05-30T19:20:44.430Z</time>
      </trkpt>
      <trkpt lat="43.12452" lon="-0.76573">
        <ele>348.9</ele>
        <time>2024-05-30T19:20:45.113Z</time>
      </trkpt>
      <trkpt lat="43.12464" lon="-0.76571">
        <ele>351.95</ele>
        <time>2024-05-30T19:20:45.798Z</time>
      </trkpt>
      <trkpt lat="43.12481" lon="-0.76583">
        <ele>354.99</ele>
        <time>2024-05-30T19:20:46.487Z</time>
      </trkpt>
      <trkpt lat="43.12523" lon="-0.76638">
        <ele>358.04</ele>
        <time>2024-05-30T19:20:47.186Z</time>
      </trkpt>
      <trkpt lat="43.1255" lon="-0.76667">
        <ele>360.93</ele>
        <time>2024-05-30T19:20:47.892Z</time>
      </trkpt>
      <trkpt lat="43.12574" lon="-0.7671">
        <ele>363.77</ele>
        <time>2024-05-30T19:20:48.605Z</time>
      </trkpt>
      <trkpt lat="43.12662" lon="-0.76831">
        <ele>367.54</ele>
        <time>2024-05-30T19:20:49.341Z</time>
      </trkpt>
      <trkpt lat="43.12679" lon="-0.76836">
        <ele>370.2</ele>
        <time>2024-05-30T19:20:50.081Z</time>
      </trkpt>
      <trkpt lat="43.12685" lon="-0.76835">
        <ele>372.47</ele>
        <time>2024-05-30T19:20:50.822Z</time>
      </trkpt>
      <trkpt lat="43.12695" lon="-0.7683">
        <ele>374.49</ele>
        <time>2024-05-30T19:20:51.565Z</time>
      </trkpt>
      <trkpt lat="43.12717" lon="-0.76807">
        <ele>376.13</ele>
        <time>2024-05-30T19:20:52.313Z</time>
      </trkpt>
      <trkpt lat="43.1273" lon="-0.76809">
        <ele>377.58</ele>
        <time>2024-05-30T19:20:53.063Z</time>
      </trkpt>
      <trkpt lat="43.12756" lon="-0.76829">
        <ele>378.91</ele>
        <time>2024-05-30T19:20:53.819Z</time>
      </trkpt>
      <trkpt lat="43.12811" lon="-0.76844">
        <ele>379.99</ele>
        <time>2024-05-30T19:20:54.585Z</time>
      </trkpt>
      <trkpt lat="43.12821" lon="-0.7685">
        <ele>380.49</ele>
        <time>2024-05-30T19:20:55.353Z</time>
      </trkpt>
      <trkpt lat="43.12831" lon="-0.76861">
        <ele>380.72</ele>
        <time>2024-05-30T19:20:56.124Z</time>
      </trkpt>
      <trkpt lat="43.12858" lon="-0.76901">
        <ele>380.67</ele>
        <time>2024-05-30T19:20:56.902Z</time>
      </trkpt>
      <trkpt lat="43.12882" lon="-0.76922">
        <ele>380.09</ele>
        <time>2024-05-30T19:20:57.685Z</time>
      </trkpt>
      <trkpt lat="43.12961" lon="-0.77011">
        <ele>378.61</ele>
        <time>2024-05-30T19:20:58.487Z</time>
      </trkpt>
      <trkpt lat="43.13006" lon="-0.77045">
        <ele>376.56</ele>
        <time>2024-05-30T19:20:59.299Z</time>
      </trkpt>
      <trkpt lat="43.13036" lon="-0.77056">
        <ele>374.5</ele>
        <time>2024-05-30T19:21:00.117Z</time>
      </trkpt>
      <trkpt lat="43.131" lon="-0.77061">
        <ele>372.25</ele>
        <time>2024-05-30T19:21:00.947Z</time>
      </trkpt>
      <trkpt lat="43.13173" lon="-0.77091">
        <ele>369.84</ele>
        <time>2024-05-30T19:21:01.791Z</time>
      </trkpt>
      <trkpt lat="43.132" lon="-0.77108">
        <ele>367.43</ele>
        <time>2024-05-30T19:21:02.640Z</time>
      </trkpt>
      <trkpt lat="43.13222" lon="-0.77135">
        <ele>365.1</ele>
        <time>2024-05-30T19:21:03.495Z</time>
      </trkpt>
      <trkpt lat="43.13229" lon="-0.7715">
        <ele>362.72</ele>
        <time>2024-05-30T19:21:04.352Z</time>
      </trkpt>
      <trkpt lat="43.13243" lon="-0.77153">
        <ele>360.2</ele>
        <time>2024-05-30T19:21:05.212Z</time>
      </trkpt>
      <trkpt lat="43.13267" lon="-0.77153">
        <ele>357.52</ele>
        <time>2024-05-30T19:21:06.076Z</time>
      </trkpt>
      <trkpt lat="43.13302" lon="-0.77143">
        <ele>354.9</ele>
        <time>2024-05-30T19:21:06.947Z</time>
      </trkpt>
      <trkpt lat="43.13336" lon="-0.77142">
        <ele>352.4</ele>
        <time>2024-05-30T19:21:07.824Z</time>
      </trkpt>
      <trkpt lat="43.13346" lon="-0.77148">
        <ele>349.93</ele>
        <time>2024-05-30T19:21:08.703Z</time>
      </trkpt>
      <trkpt lat="43.13353" lon="-0.77165">
        <ele>347.41</ele>
        <time>2024-05-30T19:21:09.585Z</time>
      </trkpt>
      <trkpt lat="43.13364" lon="-0.77183">
        <ele>344.82</ele>
        <time>2024-05-30T19:21:10.470Z</time>
      </trkpt>
      <trkpt lat="43.13386" lon="-0.77194">
        <ele>342.26</ele>
        <time>2024-05-30T19:21:11.360Z</time>
      </trkpt>
      <trkpt lat="43.1344" lon="-0.77212">
        <ele>339.8</ele>
        <time>2024-05-30T19:21:12.260Z</time>
      </trkpt>
      <trkpt lat="43.13495" lon="-0.77271">
        <ele>337.45</ele>
        <time>2024-05-30T19:21:13.173Z</time>
      </trkpt>
      <trkpt lat="43.13524" lon="-0.77317">
        <ele>335.16</ele>
        <time>2024-05-30T19:21:14.094Z</time>
      </trkpt>
      <trkpt lat="43.13525" lon="-0.77333">
        <ele>332.89</ele>
        <time>2024-05-30T19:21:15.017Z</time>
      </trkpt>
      <trkpt lat="43.13511" lon="-0.77341">
        <ele>330.68</ele>
        <time>2024-05-30T19:21:15.943Z</time>
      </trkpt>
      <trkpt lat="43.13472" lon="-0.77351">
        <ele>328.39</ele>
        <time>2024-05-30T19:21:16.877Z</time>
      </trkpt>
      <trkpt lat="43.13458" lon="-0.77352">
        <ele>326.24</ele>
        <time>2024-05-30T19:21:17.813Z</time>
      </trkpt>
      <trkpt lat="43.13436" lon="-0.77335">
        <ele>324.13</ele>
        <time>2024-05-30T19:21:18.754Z</time>
      </trkpt>
      <trkpt lat="43.13409" lon="-0.773">
        <ele>322.31</ele>
        <time>2024-05-30T19:21:19.702Z</time>
      </trkpt>
      <trkpt lat="43.13373" lon="-0.77278">
        <ele>320.21</ele>
        <time>2024-05-30T19:21:20.657Z</time>
      </trkpt>
      <trkpt lat="43.13342" lon="-0.77275">
        <ele>317.97</ele>
        <time>2024-05-30T19:21:21.618Z</time>
      </trkpt>
      <trkpt lat="43.13316" lon="-0.77268">
        <ele>315.79</ele>
        <time>2024-05-30T19:21:22.584Z</time>
      </trkpt>
      <trkpt lat="43.13309" lon="-0.77273">
        <ele>313.35</ele>
        <time>2024-05-30T19:21:23.551Z</time>
      </trkpt>
      <trkpt lat="43.13305" lon="-0.77294">
        <ele>310.67</ele>
        <time>2024-05-30T19:21:24.521Z</time>
      </trkpt>
      <trkpt lat="43.13312" lon="-0.77332">
        <ele>307.66</ele>
        <time>2024-05-30T19:21:25.497Z</time>
      </trkpt>
      <trkpt lat="43.13282" lon="-0.77407">
        <ele>304.61</ele>
        <time>2024-05-30T19:21:26.484Z</time>
      </trkpt>
      <trkpt lat="43.13235" lon="-0.77471">
        <ele>301.6</ele>
        <time>2024-05-30T19:21:27.484Z</time>
      </trkpt>
      <trkpt lat="43.13224" lon="-0.77522">
        <ele>298.26</ele>
        <time>2024-05-30T19:21:28.491Z</time>
      </trkpt>
      <trkpt lat="43.13219" lon="-0.77573">
        <ele>294.82</ele>
        <time>2024-05-30T19:21:29.505Z</time>
      </trkpt>
      <trkpt lat="43.13216" lon="-0.77702">
        <ele>291.25</ele>
        <time>2024-05-30T19:21:30.537Z</time>
      </trkpt>
      <trkpt lat="43.13219" lon="-0.7774">
        <ele>288.06</ele>
        <time>2024-05-30T19:21:31.574Z</time>
      </trkpt>
      <trkpt lat="43.13232" lon="-0.77776">
        <ele>284.81</ele>
        <time>2024-05-30T19:21:32.616Z</time>
      </trkpt>
      <trkpt lat="43.13242" lon="-0.77791">
        <ele>281.62</ele>
        <time>2024-05-30T19:21:33.661Z</time>
      </trkpt>
      <trkpt lat="43.13266" lon="-0.77811">
        <ele>278.23</ele>
        <time>2024-05-30T19:21:34.711Z</time>
      </trkpt>
      <trkpt lat="43.13313" lon="-0.77829">
        <ele>274.45</ele>
        <time>2024-05-30T19:21:35.770Z</time>
      </trkpt>
      <trkpt lat="43.13352" lon="-0.77839">
        <ele>270.85</ele>
        <time>2024-05-30T19:21:36.837Z</time>
      </trkpt>
      <trkpt lat="43.13375" lon="-0.77871">
        <ele>267.44</ele>
        <time>2024-05-30T19:21:37.910Z</time>
      </trkpt>
      <trkpt lat="43.13387" lon="-0.77908">
        <ele>264.22</ele>
        <time>2024-05-30T19:21:38.988Z</time>
      </trkpt>
      <trkpt lat="43.13406" lon="-0.77942">
        <ele>260.88</ele>
        <time>2024-05-30T19:21:40.072Z</time>
      </trkpt>
      <trkpt lat="43.13416" lon="-0.78006">
        <ele>258.06</ele>
        <time>2024-05-30T19:21:41.165Z</time>
      </trkpt>
      <trkpt lat="43.1342" lon="-0.78047">
        <ele>255.71</ele>
        <time>2024-05-30T19:21:42.264Z</time>
      </trkpt>
      <trkpt lat="43.13419" lon="-0.78077">
        <ele>253.56</ele>
        <time>2024-05-30T19:21:43.367Z</time>
      </trkpt>
      <trkpt lat="43.13408" lon="-0.78115">
        <ele>251.69</ele>
        <time>2024-05-30T19:21:44.475Z</time>
      </trkpt>
      <trkpt lat="43.13387" lon="-0.7815">
        <ele>249.95</ele>
        <time>2024-05-30T19:21:45.590Z</time>
      </trkpt>
      <trkpt lat="43.13373" lon="-0.78179">
        <ele>248.4</ele>
        <time>2024-05-30T19:21:46.709Z</time>
      </trkpt>
      <trkpt lat="43.13364" lon="-0.78252">
        <ele>246.59</ele>
        <time>2024-05-30T19:21:47.838Z</time>
      </trkpt>
      <trkpt lat="43.1337" lon="-0.78264">
        <ele>245.3</ele>
        <time>2024-05-30T19:21:48.969Z</time>
      </trkpt>
      <trkpt lat="43.13401" lon="-0.78304">
        <ele>244.1</ele>
        <time>2024-05-30T19:21:50.108Z</time>
      </trkpt>
      <trkpt lat="43.13424" lon="-0.7832">
        <ele>243.31</ele>
        <time>2024-05-30T19:21:51.252Z</time>
      </trkpt>
      <trkpt lat="43.13442" lon="-0.78323">
        <ele>242.74</ele>
        <time>2024-05-30T19:21:52.399Z</time>
      </trkpt>
      <trkpt lat="43.13457" lon="-0.7833">
        <ele>242.39</ele>
        <time>2024-05-30T19:21:53.549Z</time>
      </trkpt>
      <trkpt lat="43.13481" lon="-0.78353">
        <ele>242.11</ele>
        <time>2024-05-30T19:21:54.705Z</time>
      </trkpt>
      <trkpt lat="43.13506" lon="-0.7837">
        <ele>242.08</ele>
        <time>2024-05-30T19:21:55.866Z</time>
      </trkpt>
      <trkpt lat="43.13543" lon="-0.78406">
        <ele>242.23</ele>
        <time>2024-05-30T19:21:57.035Z</time>
      </trkpt>
      <trkpt lat="43.13574" lon="-0.78439">
        <ele>242.55</ele>
        <time>2024-05-30T19:21:58.212Z</time>
      </trkpt>
      <trkpt lat="43.13598" lon="-0.78468">
        <ele>242.92</ele>
        <time>2024-05-30T19:21:59.395Z</time>
      </trkpt>
      <trkpt lat="43.13655" lon="-0.78277">
        <ele>243.19</ele>
        <time>2024-05-30T19:22:00.606Z</time>
      </trkpt>
      <trkpt lat="43.13674" lon="-0.78243">
        <ele>243.53</ele>
        <time>2024-05-30T19:22:01.823Z</time>
      </trkpt>
      <trkpt lat="43.13679" lon="-0.78242">
        <ele>243.93</ele>
        <time>2024-05-30T19:22:03.041Z</time>
      </trkpt>
      <trkpt lat="43.13748" lon="-0.78222">
        <ele>244.36</ele>
        <time>2024-05-30T19:22:04.272Z</time>
      </trkpt>
      <trkpt lat="43.13792" lon="-0.78191">
        <ele>244.8</ele>
        <time>2024-05-30T19:22:05.512Z</time>
      </trkpt>
      <trkpt lat="43.13882" lon="-0.78154">
        <ele>245.26</ele>
        <time>2024-05-30T19:22:06.769Z</time>
      </trkpt>
      <trkpt lat="43.13925" lon="-0.78099">
        <ele>245.49</ele>
        <time>2024-05-30T19:22:08.037Z</time>
      </trkpt>
      <trkpt lat="43.13987" lon="-0.78068">
        <ele>245.78</ele>
        <time>2024-05-30T19:22:09.318Z</time>
      </trkpt>
      <trkpt lat="43.1406" lon="-0.78055">
        <ele>245.78</ele>
        <time>2024-05-30T19:22:10.612Z</time>
      </trkpt>
      <trkpt lat="43.14071" lon="-0.78047">
        <ele>245.83</ele>
        <time>2024-05-30T19:22:11.909Z</time>
      </trkpt>
      <trkpt lat="43.14091" lon="-0.78014">
        <ele>245.76</ele>
        <time>2024-05-30T19:22:13.212Z</time>
      </trkpt>
      <trkpt lat="43.14125" lon="-0.77974">
        <ele>245.64</ele>
        <time>2024-05-30T19:22:14.523Z</time>
      </trkpt>
      <trkpt lat="43.14157" lon="-0.77942">
        <ele>245.47</ele>
        <time>2024-05-30T19:22:15.841Z</time>
      </trkpt>
      <trkpt lat="43.14189" lon="-0.77922">
        <ele>245.27</ele>
        <time>2024-05-30T19:22:17.166Z</time>
      </trkpt>
      <trkpt lat="43.1422" lon="-0.77911">
        <ele>244.97</ele>
        <time>2024-05-30T19:22:18.497Z</time>
      </trkpt>
      <trkpt lat="43.14267" lon="-0.77904">
        <ele>244.45</ele>
        <time>2024-05-30T19:22:19.837Z</time>
      </trkpt>
      <trkpt lat="43.14301" lon="-0.77906">
        <ele>243.87</ele>
        <time>2024-05-30T19:22:21.183Z</time>
      </trkpt>
      <trkpt lat="43.14367" lon="-0.77927">
        <ele>243.15</ele>
        <time>2024-05-30T19:22:22.541Z</time>
      </trkpt>
      <trkpt lat="43.14387" lon="-0.77927">
        <ele>242.64</ele>
        <time>2024-05-30T19:22:23.903Z</time>
      </trkpt>
      <trkpt lat="43.14401" lon="-0.77912">
        <ele>242.1</ele>
        <time>2024-05-30T19:22:25.269Z</time>
      </trkpt>
      <trkpt lat="43.14421" lon="-0.77882">
        <ele>241.47</ele>
        <time>2024-05-30T19:22:26.640Z</time>
      </trkpt>
      <trkpt lat="43.14442" lon="-0.77836">
        <ele>240.93</ele>
        <time>2024-05-30T19:22:28.018Z</time>
      </trkpt>
      <trkpt lat="43.14466" lon="-0.77768">
        <ele>240.59</ele>
        <time>2024-05-30T19:22:29.407Z</time>
      </trkpt>
      <trkpt lat="43.1449" lon="-0.77719">
        <ele>240.29</ele>
        <time>2024-05-30T19:22:30.804Z</time>
      </trkpt>
      <trkpt lat="43.14505" lon="-0.77695">
        <ele>239.79</ele>
        <time>2024-05-30T19:22:32.205Z</time>
      </trkpt>
      <trkpt lat="43.14519" lon="-0.77684">
        <ele>239.33</ele>
        <time>2024-05-30T19:22:33.609Z</time>
      </trkpt>
      <trkpt lat="43.14524" lon="-0.77685">
        <ele>239</ele>
        <time>2024-05-30T19:22:35.014Z</time>
      </trkpt>
      <trkpt lat="43.14575" lon="-0.77688">
        <ele>238.66</ele>
        <time>2024-05-30T19:22:36.428Z</time>
      </trkpt>
      <trkpt lat="43.14629" lon="-0.77685">
        <ele>238.86</ele>
        <time>2024-05-30T19:22:37.853Z</time>
      </trkpt>
      <trkpt lat="43.14681" lon="-0.77679">
        <ele>238.6</ele>
        <time>2024-05-30T19:22:39.287Z</time>
      </trkpt>
      <trkpt lat="43.147" lon="-0.77672">
        <ele>238.39</ele>
        <time>2024-05-30T19:22:40.725Z</time>
      </trkpt>
      <trkpt lat="43.14756" lon="-0.77644">
        <ele>238.08</ele>
        <time>2024-05-30T19:22:42.174Z</time>
      </trkpt>
      <trkpt lat="43.1482" lon="-0.77631">
        <ele>237.61</ele>
        <time>2024-05-30T19:22:43.635Z</time>
      </trkpt>
      <trkpt lat="43.14954" lon="-0.77627">
        <ele>237.14</ele>
        <time>2024-05-30T19:22:45.121Z</time>
      </trkpt>
      <trkpt lat="43.14971" lon="-0.77622">
        <ele>236.63</ele>
        <time>2024-05-30T19:22:46.610Z</time>
      </trkpt>
      <trkpt lat="43.15013" lon="-0.77589">
        <ele>236.13</ele>
        <time>2024-05-30T19:22:48.108Z</time>
      </trkpt>
      <trkpt lat="43.15043" lon="-0.77554">
        <ele>235.6</ele>
        <time>2024-05-30T19:22:49.614Z</time>
      </trkpt>
      <trkpt lat="43.15075" lon="-0.77532">
        <ele>234.92</ele>
        <time>2024-05-30T19:22:51.126Z</time>
      </trkpt>
      <trkpt lat="43.15107" lon="-0.77499">
        <ele>234.17</ele>
        <time>2024-05-30T19:22:52.646Z</time>
      </trkpt>
      <trkpt lat="43.15166" lon="-0.77452">
        <ele>234.02</ele>
        <time>2024-05-30T19:22:54.178Z</time>
      </trkpt>
      <trkpt lat="43.1523" lon="-0.77412">
        <ele>233.16</ele>
        <time>2024-05-30T19:22:55.723Z</time>
      </trkpt>
      <trkpt lat="43.15316" lon="-0.77339">
        <ele>231.81</ele>
        <time>2024-05-30T19:22:57.287Z</time>
      </trkpt>
      <trkpt lat="43.15354" lon="-0.77288">
        <ele>231.02</ele>
        <time>2024-05-30T19:22:58.861Z</time>
      </trkpt>
      <trkpt lat="43.15397" lon="-0.77255">
        <ele>230.36</ele>
        <time>2024-05-30T19:23:00.444Z</time>
      </trkpt>
      <trkpt lat="43.15447" lon="-0.77206">
        <ele>229.6</ele>
        <time>2024-05-30T19:23:02.039Z</time>
      </trkpt>
      <trkpt lat="43.15501" lon="-0.77164">
        <ele>228.86</ele>
        <time>2024-05-30T19:23:03.645Z</time>
      </trkpt>
      <trkpt lat="43.15521" lon="-0.77152">
        <ele>228.33</ele>
        <time>2024-05-30T19:23:05.255Z</time>
      </trkpt>
      <trkpt lat="43.15564" lon="-0.77142">
        <ele>227.88</ele>
        <time>2024-05-30T19:23:06.874Z</time>
      </trkpt>
      <trkpt lat="43.15628" lon="-0.771">
        <ele>227.4</ele>
        <time>2024-05-30T19:23:08.506Z</time>
      </trkpt>
      <trkpt lat="43.15648" lon="-0.77091">
        <ele>227.07</ele>
        <time>2024-05-30T19:23:10.142Z</time>
      </trkpt>
      <trkpt lat="43.15654" lon="-0.77092">
        <ele>226.87</ele>
        <time>2024-05-30T19:23:11.779Z</time>
      </trkpt>
      <trkpt lat="43.1567" lon="-0.77096">
        <ele>226.75</ele>
        <time>2024-05-30T19:23:13.419Z</time>
      </trkpt>
      <trkpt lat="43.15758" lon="-0.77129">
        <ele>226.78</ele>
        <time>2024-05-30T19:23:15.076Z</time>
      </trkpt>
      <trkpt lat="43.15781" lon="-0.77132">
        <ele>226.86</ele>
        <time>2024-05-30T19:23:16.737Z</time>
      </trkpt>
      <trkpt lat="43.15848" lon="-0.77118">
        <ele>226.81</ele>
        <time>2024-05-30T19:23:18.411Z</time>
      </trkpt>
      <trkpt lat="43.15864" lon="-0.77118">
        <ele>226.83</ele>
        <time>2024-05-30T19:23:20.088Z</time>
      </trkpt>
      <trkpt lat="43.15983" lon="-0.77181">
        <ele>227.19</ele>
        <time>2024-05-30T19:23:21.788Z</time>
      </trkpt>
      <trkpt lat="43.16017" lon="-0.77205">
        <ele>227.46</ele>
        <time>2024-05-30T19:23:23.496Z</time>
      </trkpt>
      <trkpt lat="43.16139" lon="-0.77258">
        <ele>227.93</ele>
        <time>2024-05-30T19:23:25.227Z</time>
      </trkpt>
      <trkpt lat="43.16148" lon="-0.7727">
        <ele>228.01</ele>
        <time>2024-05-30T19:23:26.961Z</time>
      </trkpt>
      <trkpt lat="43.16246" lon="-0.77507">
        <ele>228.43</ele>
        <time>2024-05-30T19:23:28.732Z</time>
      </trkpt>
      <trkpt lat="43.16447" lon="-0.77603">
        <ele>228.32</ele>
        <time>2024-05-30T19:23:30.542Z</time>
      </trkpt>
      <trkpt lat="43.16478" lon="-0.77612">
        <ele>228.35</ele>
        <time>2024-05-30T19:23:32.358Z</time>
      </trkpt>
      <trkpt lat="43.16516" lon="-0.77606">
        <ele>228.34</ele>
        <time>2024-05-30T19:23:34.181Z</time>
      </trkpt>
      <trkpt lat="43.16532" lon="-0.77597">
        <ele>228.08</ele>
        <time>2024-05-30T19:23:36.008Z</time>
      </trkpt>
      <trkpt lat="43.16668" lon="-0.7748">
        <ele>227.25</ele>
        <time>2024-05-30T19:23:37.865Z</time>
      </trkpt>
      <trkpt lat="43.16702" lon="-0.77446">
        <ele>226.88</ele>
        <time>2024-05-30T19:23:39.729Z</time>
      </trkpt>
      <trkpt lat="43.16745" lon="-0.77384">
        <ele>226.24</ele>
        <time>2024-05-30T19:23:41.605Z</time>
      </trkpt>
      <trkpt lat="43.16777" lon="-0.77365">
        <ele>225.95</ele>
        <time>2024-05-30T19:23:43.487Z</time>
      </trkpt>
      <trkpt lat="43.16787" lon="-0.77356">
        <ele>225.57</ele>
        <time>2024-05-30T19:23:45.372Z</time>
      </trkpt>
      <trkpt lat="43.16872" lon="-0.77245">
        <ele>225.15</ele>
        <time>2024-05-30T19:23:47.279Z</time>
      </trkpt>
      <trkpt lat="43.16966" lon="-0.77156">
        <ele>224.52</ele>
        <time>2024-05-30T19:23:49.207Z</time>
      </trkpt>
      <trkpt lat="43.1698" lon="-0.77151">
        <ele>224.01</ele>
        <time>2024-05-30T19:23:51.138Z</time>
      </trkpt>
      <trkpt lat="43.17019" lon="-0.7715">
        <ele>223.39</ele>
        <time>2024-05-30T19:23:53.076Z</time>
      </trkpt>
      <trkpt lat="43.1704" lon="-0.77152">
        <ele>222.8</ele>
        <time>2024-05-30T19:23:55.018Z</time>
      </trkpt>
      <trkpt lat="43.17049" lon="-0.77163">
        <ele>222.3</ele>
        <time>2024-05-30T19:23:56.962Z</time>
      </trkpt>
      <trkpt lat="43.17051" lon="-0.77173">
        <ele>221.84</ele>
        <time>2024-05-30T19:23:58.907Z</time>
      </trkpt>
      <trkpt lat="43.17053" lon="-0.77258">
        <ele>221.89</ele>
        <time>2024-05-30T19:24:00.864Z</time>
      </trkpt>
      <trkpt lat="43.17065" lon="-0.77287">
        <ele>221.7</ele>
        <time>2024-05-30T19:24:02.825Z</time>
      </trkpt>
      <trkpt lat="43.17077" lon="-0.77287">
        <ele>221.13</ele>
        <time>2024-05-30T19:24:04.789Z</time>
      </trkpt>
      <trkpt lat="43.17098" lon="-0.77272">
        <ele>220.39</ele>
        <time>2024-05-30T19:24:06.757Z</time>
      </trkpt>
      <trkpt lat="43.17133" lon="-0.77272">
        <ele>219.89</ele>
        <time>2024-05-30T19:24:08.732Z</time>
      </trkpt>
      <trkpt lat="43.17137" lon="-0.77275">
        <ele>219.39</ele>
        <time>2024-05-30T19:24:10.707Z</time>
      </trkpt>
      <trkpt lat="43.17234" lon="-0.77341">
        <ele>218.56</ele>
        <time>2024-05-30T19:24:12.703Z</time>
      </trkpt>
      <trkpt lat="43.17333" lon="-0.77373">
        <ele>217.43</ele>
        <time>2024-05-30T19:24:14.718Z</time>
      </trkpt>
      <trkpt lat="43.17378" lon="-0.77385">
        <ele>217.14</ele>
        <time>2024-05-30T19:24:16.741Z</time>
      </trkpt>
      <trkpt lat="43.17404" lon="-0.77383">
        <ele>216.79</ele>
        <time>2024-05-30T19:24:18.769Z</time>
      </trkpt>
      <trkpt lat="43.17424" lon="-0.7739">
        <ele>216.59</ele>
        <time>2024-05-30T19:24:20.801Z</time>
      </trkpt>
      <trkpt lat="43.17493" lon="-0.77453">
        <ele>216.85</ele>
        <time>2024-05-30T19:24:22.848Z</time>
      </trkpt>
      <trkpt lat="43.17546" lon="-0.77482">
        <ele>216.53</ele>
        <time>2024-05-30T19:24:24.906Z</time>
      </trkpt>
      <trkpt lat="43.176" lon="-0.7749">
        <ele>216.49</ele>
        <time>2024-05-30T19:24:26.974Z</time>
      </trkpt>
      <trkpt lat="43.17648" lon="-0.77465">
        <ele>216.85</ele>
        <time>2024-05-30T19:24:29.052Z</time>
      </trkpt>
      <trkpt lat="43.17657" lon="-0.77465">
        <ele>217.34</ele>
        <time>2024-05-30T19:24:31.131Z</time>
      </trkpt>
      <trkpt lat="43.17749" lon="-0.77484">
        <ele>218.18</ele>
        <time>2024-05-30T19:24:33.227Z</time>
      </trkpt>
      <trkpt lat="43.1781" lon="-0.77518">
        <ele>219.12</ele>
        <time>2024-05-30T19:24:35.336Z</time>
      </trkpt>
      <trkpt lat="43.17822" lon="-0.77526">
        <ele>220.14</ele>
        <time>2024-05-30T19:24:37.447Z</time>
      </trkpt>
      <trkpt lat="43.17835" lon="-0.77542">
        <ele>221.3</ele>
        <time>2024-05-30T19:24:39.561Z</time>
      </trkpt>
      <trkpt lat="43.17872" lon="-0.77594">
        <ele>222.74</ele>
        <time>2024-05-30T19:24:41.685Z</time>
      </trkpt>
      <trkpt lat="43.1789" lon="-0.77608">
        <ele>224.08</ele>
        <time>2024-05-30T19:24:43.813Z</time>
      </trkpt>
      <trkpt lat="43.17925" lon="-0.77629">
        <ele>225.51</ele>
        <time>2024-05-30T19:24:45.948Z</time>
      </trkpt>
      <trkpt lat="43.1798" lon="-0.77642">
        <ele>227.35</ele>
        <time>2024-05-30T19:24:48.094Z</time>
      </trkpt>
      <trkpt lat="43.18015" lon="-0.77641">
        <ele>228.98</ele>
        <time>2024-05-30T19:24:50.246Z</time>
      </trkpt>
      <trkpt lat="43.18061" lon="-0.77628">
        <ele>230.43</ele>
        <time>2024-05-30T19:24:52.407Z</time>
      </trkpt>
      <trkpt lat="43.18113" lon="-0.77641">
        <ele>231.94</ele>
        <time>2024-05-30T19:24:54.578Z</time>
      </trkpt>
      <trkpt lat="43.18146" lon="-0.77656">
        <ele>233.43</ele>
        <time>2024-05-30T19:24:56.755Z</time>
      </trkpt>
      <trkpt lat="43.18229" lon="-0.77708">
        <ele>234.72</ele>
        <time>2024-05-30T19:24:58.949Z</time>
      </trkpt>
      <trkpt lat="43.18241" lon="-0.77723">
        <ele>235.87</ele>
        <time>2024-05-30T19:25:01.146Z</time>
      </trkpt>
      <trkpt lat="43.18306" lon="-0.77793">
        <ele>236.96</ele>
        <time>2024-05-30T19:25:03.359Z</time>
      </trkpt>
      <trkpt lat="43.18376" lon="-0.77797">
        <ele>237.59</ele>
        <time>2024-05-30T19:25:05.585Z</time>
      </trkpt>
      <trkpt lat="43.18394" lon="-0.77795">
        <ele>238.29</ele>
        <time>2024-05-30T19:25:07.814Z</time>
      </trkpt>
      <trkpt lat="43.18411" lon="-0.77789">
        <ele>238.85</ele>
        <time>2024-05-30T19:25:10.046Z</time>
      </trkpt>
      <trkpt lat="43.18431" lon="-0.77778">
        <ele>239.3</ele>
        <time>2024-05-30T19:25:12.282Z</time>
      </trkpt>
      <trkpt lat="43.18449" lon="-0.77759">
        <ele>239.53</ele>
        <time>2024-05-30T19:25:14.523Z</time>
      </trkpt>
      <trkpt lat="43.18468" lon="-0.77733">
        <ele>239.62</ele>
        <time>2024-05-30T19:25:16.769Z</time>
      </trkpt>
      <trkpt lat="43.18503" lon="-0.77698">
        <ele>239.54</ele>
        <time>2024-05-30T19:25:19.023Z</time>
      </trkpt>
      <trkpt lat="43.18509" lon="-0.77682">
        <ele>239.17</ele>
        <time>2024-05-30T19:25:21.279Z</time>
      </trkpt>
      <trkpt lat="43.18531" lon="-0.77602">
        <ele>238.75</ele>
        <time>2024-05-30T19:25:23.547Z</time>
      </trkpt>
      <trkpt lat="43.18542" lon="-0.77566">
        <ele>237.97</ele>
        <time>2024-05-30T19:25:25.820Z</time>
      </trkpt>
      <trkpt lat="43.18554" lon="-0.77546">
        <ele>236.96</ele>
        <time>2024-05-30T19:25:28.097Z</time>
      </trkpt>
      <trkpt lat="43.18563" lon="-0.77513">
        <ele>235.8</ele>
        <time>2024-05-30T19:25:30.378Z</time>
      </trkpt>
      <trkpt lat="43.18607" lon="-0.77253">
        <ele>233.76</ele>
        <time>2024-05-30T19:25:32.696Z</time>
      </trkpt>
      <trkpt lat="43.18612" lon="-0.77237">
        <ele>232.39</ele>
        <time>2024-05-30T19:25:35.016Z</time>
      </trkpt>
      <trkpt lat="43.18618" lon="-0.77228">
        <ele>230.98</ele>
        <time>2024-05-30T19:25:37.338Z</time>
      </trkpt>
      <trkpt lat="43.18622" lon="-0.77225">
        <ele>229.54</ele>
        <time>2024-05-30T19:25:39.661Z</time>
      </trkpt>
      <trkpt lat="43.18645" lon="-0.77209">
        <ele>227.98</ele>
        <time>2024-05-30T19:25:41.988Z</time>
      </trkpt>
      <trkpt lat="43.1868" lon="-0.77194">
        <ele>226.39</ele>
        <time>2024-05-30T19:25:44.322Z</time>
      </trkpt>
      <trkpt lat="43.18691" lon="-0.77193">
        <ele>224.95</ele>
        <time>2024-05-30T19:25:46.658Z</time>
      </trkpt>
      <trkpt lat="43.18719" lon="-0.77197">
        <ele>223.41</ele>
        <time>2024-05-30T19:25:48.999Z</time>
      </trkpt>
      <trkpt lat="43.18824" lon="-0.77213">
        <ele>221.73</ele>
        <time>2024-05-30T19:25:51.360Z</time>
      </trkpt>
      <trkpt lat="43.18837" lon="-0.77211">
        <ele>220.49</ele>
        <time>2024-05-30T19:25:53.724Z</time>
      </trkpt>
      <trkpt lat="43.18854" lon="-0.77198">
        <ele>219.35</ele>
        <time>2024-05-30T19:25:56.091Z</time>
      </trkpt>
      <trkpt lat="43.18894" lon="-0.77159">
        <ele>218.51</ele>
        <time>2024-05-30T19:25:58.467Z</time>
      </trkpt>
      <trkpt lat="43.18901" lon="-0.77145">
        <ele>217.74</ele>
        <time>2024-05-30T19:26:00.846Z</time>
      </trkpt>
      <trkpt lat="43.18905" lon="-0.77135">
        <ele>217.03</ele>
        <time>2024-05-30T19:26:03.226Z</time>
      </trkpt>
      <trkpt lat="43.18927" lon="-0.76971">
        <ele>216.92</ele>
        <time>2024-05-30T19:26:05.629Z</time>
      </trkpt>
      <trkpt lat="43.18929" lon="-0.76956">
        <ele>216.3</ele>
        <time>2024-05-30T19:26:08.034Z</time>
      </trkpt>
      <trkpt lat="43.18935" lon="-0.7694">
        <ele>215.72</ele>
        <time>2024-05-30T19:26:10.441Z</time>
      </trkpt>
      <trkpt lat="43.18938" lon="-0.76935">
        <ele>215.22</ele>
        <time>2024-05-30T19:26:12.849Z</time>
      </trkpt>
      <trkpt lat="43.18942" lon="-0.7693">
        <ele>214.76</ele>
        <time>2024-05-30T19:26:15.258Z</time>
      </trkpt>
      <trkpt lat="43.18965" lon="-0.76912">
        <ele>214.23</ele>
        <time>2024-05-30T19:26:17.672Z</time>
      </trkpt>
      <trkpt lat="43.1898" lon="-0.76903">
        <ele>213.77</ele>
        <time>2024-05-30T19:26:20.089Z</time>
      </trkpt>
      <trkpt lat="43.18999" lon="-0.76894">
        <ele>213.35</ele>
        <time>2024-05-30T19:26:22.510Z</time>
      </trkpt>
      <trkpt lat="43.19028" lon="-0.76888">
        <ele>213.07</ele>
        <time>2024-05-30T19:26:24.936Z</time>
      </trkpt>
      <trkpt lat="43.19041" lon="-0.76874">
        <ele>212.87</ele>
        <time>2024-05-30T19:26:27.366Z</time>
      </trkpt>
      <trkpt lat="43.19059" lon="-0.76828">
        <ele>212.73</ele>
        <time>2024-05-30T19:26:29.803Z</time>
      </trkpt>
      <trkpt lat="43.19069" lon="-0.76809">
        <ele>212.54</ele>
        <time>2024-05-30T19:26:32.243Z</time>
      </trkpt>
      <trkpt lat="43.19086" lon="-0.76784">
        <ele>212.36</ele>
        <time>2024-05-30T19:26:34.687Z</time>
      </trkpt>
      <trkpt lat="43.19113" lon="-0.76751">
        <ele>212.16</ele>
        <time>2024-05-30T19:26:37.138Z</time>
      </trkpt>
      <trkpt lat="43.19122" lon="-0.76732">
        <ele>211.88</ele>
        <time>2024-05-30T19:26:39.592Z</time>
      </trkpt>
      <trkpt lat="43.19129" lon="-0.76709">
        <ele>211.48</ele>
        <time>2024-05-30T19:26:42.050Z</time>
      </trkpt>
      <trkpt lat="43.19144" lon="-0.7671">
        <ele>211.45</ele>
        <time>2024-05-30T19:26:44.510Z</time>
      </trkpt>
      <trkpt lat="43.1917" lon="-0.76672">
        <ele>210.98</ele>
        <time>2024-05-30T19:26:46.978Z</time>
      </trkpt>
      <trkpt lat="43.19222" lon="-0.76619">
        <ele>210.45</ele>
        <time>2024-05-30T19:26:49.458Z</time>
      </trkpt>
      <trkpt lat="43.19235" lon="-0.76611">
        <ele>210.23</ele>
        <time>2024-05-30T19:26:51.940Z</time>
      </trkpt>
      <trkpt lat="43.19246" lon="-0.76606">
        <ele>210.05</ele>
        <time>2024-05-30T19:26:54.424Z</time>
      </trkpt>
      <trkpt lat="43.19263" lon="-0.76606">
        <ele>209.91</ele>
        <time>2024-05-30T19:26:56.912Z</time>
      </trkpt>
      <trkpt lat="43.19275" lon="-0.766">
        <ele>209.79</ele>
        <time>2024-05-30T19:26:59.402Z</time>
      </trkpt>
      <trkpt lat="43.19289" lon="-0.7658">
        <ele>209.71</ele>
        <time>2024-05-30T19:27:01.896Z</time>
      </trkpt>
      <trkpt lat="43.19293" lon="-0.76568">
        <ele>209.73</ele>
        <time>2024-05-30T19:27:04.392Z</time>
      </trkpt>
      <trkpt lat="43.19295" lon="-0.76555">
        <ele>209.8</ele>
        <time>2024-05-30T19:27:06.889Z</time>
      </trkpt>
      <trkpt lat="43.1929" lon="-0.76501">
        <ele>209.93</ele>
        <time>2024-05-30T19:27:09.394Z</time>
      </trkpt>
      <trkpt lat="43.19292" lon="-0.76488">
        <ele>210.09</ele>
        <time>2024-05-30T19:27:11.901Z</time>
      </trkpt>
      <trkpt lat="43.193" lon="-0.7646">
        <ele>210.33</ele>
        <time>2024-05-30T19:27:14.412Z</time>
      </trkpt>
      <trkpt lat="43.19311" lon="-0.76439">
        <ele>210.6</ele>
        <time>2024-05-30T19:27:16.926Z</time>
      </trkpt>
      <trkpt lat="43.19332" lon="-0.76409">
        <ele>210.88</ele>
        <time>2024-05-30T19:27:19.446Z</time>
      </trkpt>
      <trkpt lat="43.19352" lon="-0.76388">
        <ele>211.14</ele>
        <time>2024-05-30T19:27:21.970Z</time>
      </trkpt>
      <trkpt lat="43.19473" lon="-0.76273">
        <ele>211.85</ele>
        <time>2024-05-30T19:27:24.522Z</time>
      </trkpt>
      <trkpt lat="43.19533" lon="-0.76259">
        <ele>212.28</ele>
        <time>2024-05-30T19:27:27.085Z</time>
      </trkpt>
      <trkpt lat="43.19559" lon="-0.76259">
        <ele>212.5</ele>
        <time>2024-05-30T19:27:29.653Z</time>
      </trkpt>
      <trkpt lat="43.19563" lon="-0.76262">
        <ele>212.72</ele>
        <time>2024-05-30T19:27:32.222Z</time>
      </trkpt>
      <trkpt lat="43.19588" lon="-0.76278">
        <ele>212.85</ele>
        <time>2024-05-30T19:27:34.796Z</time>
      </trkpt>
      <trkpt lat="43.19625" lon="-0.76332">
        <ele>213</ele>
        <time>2024-05-30T19:27:37.380Z</time>
      </trkpt>
      <trkpt lat="43.19635" lon="-0.76342">
        <ele>213.12</ele>
        <time>2024-05-30T19:27:39.966Z</time>
      </trkpt>
      <trkpt lat="43.1966" lon="-0.76354">
        <ele>213.1</ele>
        <time>2024-05-30T19:27:42.557Z</time>
      </trkpt>
      <trkpt lat="43.19684" lon="-0.76355">
        <ele>213.01</ele>
        <time>2024-05-30T19:27:45.153Z</time>
      </trkpt>
      <trkpt lat="43.19701" lon="-0.76344">
        <ele>212.98</ele>
        <time>2024-05-30T19:27:47.752Z</time>
      </trkpt>
      <trkpt lat="43.19747" lon="-0.76272">
        <ele>212.96</ele>
        <time>2024-05-30T19:27:50.364Z</time>
      </trkpt>
      <trkpt lat="43.19795" lon="-0.76245">
        <ele>213.2</ele>
        <time>2024-05-30T19:27:52.986Z</time>
      </trkpt>
      <trkpt lat="43.1988" lon="-0.76172">
        <ele>213.87</ele>
        <time>2024-05-30T19:27:55.627Z</time>
      </trkpt>
      <trkpt lat="43.19911" lon="-0.76158">
        <ele>213.96</ele>
        <time>2024-05-30T19:27:58.274Z</time>
      </trkpt>
      <trkpt lat="43.19957" lon="-0.76146">
        <ele>214.06</ele>
        <time>2024-05-30T19:28:00.929Z</time>
      </trkpt>
      <trkpt lat="43.20034" lon="-0.76107">
        <ele>213.88</ele>
        <time>2024-05-30T19:28:03.600Z</time>
      </trkpt>
      <trkpt lat="43.20071" lon="-0.76063">
        <ele>214.39</ele>
        <time>2024-05-30T19:28:06.280Z</time>
      </trkpt>
      <trkpt lat="43.20099" lon="-0.76016">
        <ele>214.86</ele>
        <time>2024-05-30T19:28:08.968Z</time>
      </trkpt>
      <trkpt lat="43.20126" lon="-0.75946">
        <ele>215.29</ele>
        <time>2024-05-30T19:28:11.667Z</time>
      </trkpt>
      <trkpt lat="43.20134" lon="-0.75933">
        <ele>215.41</ele>
        <time>2024-05-30T19:28:14.368Z</time>
      </trkpt>
      <trkpt lat="43.20154" lon="-0.75904">
        <ele>215.48</ele>
        <time>2024-05-30T19:28:17.075Z</time>
      </trkpt>
      <trkpt lat="43.20185" lon="-0.75867">
        <ele>215.7</ele>
        <time>2024-05-30T19:28:19.789Z</time>
      </trkpt>
      <trkpt lat="43.20222" lon="-0.75807">
        <ele>215.58</ele>
        <time>2024-05-30T19:28:22.514Z</time>
      </trkpt>
      <trkpt lat="43.20229" lon="-0.75778">
        <ele>215.66</ele>
        <time>2024-05-30T19:28:25.243Z</time>
      </trkpt>
      <trkpt lat="43.20233" lon="-0.75729">
        <ele>215.73</ele>
        <time>2024-05-30T19:28:27.979Z</time>
      </trkpt>
      <trkpt lat="43.20243" lon="-0.75719">
        <ele>216.07</ele>
        <time>2024-05-30T19:28:30.717Z</time>
      </trkpt>
      <trkpt lat="43.20296" lon="-0.75709">
        <ele>216.5</ele>
        <time>2024-05-30T19:28:33.465Z</time>
      </trkpt>
      <trkpt lat="43.20345" lon="-0.75728">
        <ele>217.11</ele>
        <time>2024-05-30T19:28:36.223Z</time>
      </trkpt>
      <trkpt lat="43.20351" lon="-0.75726">
        <ele>217.93</ele>
        <time>2024-05-30T19:28:38.982Z</time>
      </trkpt>
      <trkpt lat="43.2041" lon="-0.75708">
        <ele>219.06</ele>
        <time>2024-05-30T19:28:41.752Z</time>
      </trkpt>
      <trkpt lat="43.20491" lon="-0.75677">
        <ele>220.61</ele>
        <time>2024-05-30T19:28:44.538Z</time>
      </trkpt>
      <trkpt lat="43.20497" lon="-0.75671">
        <ele>222.12</ele>
        <time>2024-05-30T19:28:47.325Z</time>
      </trkpt>
      <trkpt lat="43.20501" lon="-0.75661">
        <ele>223.84</ele>
        <time>2024-05-30T19:28:50.113Z</time>
      </trkpt>
      <trkpt lat="43.205" lon="-0.75647">
        <ele>225.75</ele>
        <time>2024-05-30T19:28:52.903Z</time>
      </trkpt>
      <trkpt lat="43.20474" lon="-0.75569">
        <ele>228.09</ele>
        <time>2024-05-30T19:28:55.705Z</time>
      </trkpt>
      <trkpt lat="43.20474" lon="-0.75559">
        <ele>230.4</ele>
        <time>2024-05-30T19:28:58.508Z</time>
      </trkpt>
      <trkpt lat="43.20476" lon="-0.7555">
        <ele>232.88</ele>
        <time>2024-05-30T19:29:01.313Z</time>
      </trkpt>
      <trkpt lat="43.20484" lon="-0.75542">
        <ele>235.5</ele>
        <time>2024-05-30T19:29:04.120Z</time>
      </trkpt>
      <trkpt lat="43.20491" lon="-0.75542">
        <ele>238.2</ele>
        <time>2024-05-30T19:29:06.928Z</time>
      </trkpt>
      <trkpt lat="43.20523" lon="-0.75552">
        <ele>241.08</ele>
        <time>2024-05-30T19:29:09.742Z</time>
      </trkpt>
      <trkpt lat="43.20599" lon="-0.75544">
        <ele>244.84</ele>
        <time>2024-05-30T19:29:12.570Z</time>
      </trkpt>
      <trkpt lat="43.20659" lon="-0.75596">
        <ele>248.27</ele>
        <time>2024-05-30T19:29:15.411Z</time>
      </trkpt>
      <trkpt lat="43.20727" lon="-0.75645">
        <ele>251.83</ele>
        <time>2024-05-30T19:29:18.267Z</time>
      </trkpt>
      <trkpt lat="43.2076" lon="-0.75659">
        <ele>255.08</ele>
        <time>2024-05-30T19:29:21.129Z</time>
      </trkpt>
      <trkpt lat="43.20767" lon="-0.75673">
        <ele>258.17</ele>
        <time>2024-05-30T19:29:23.993Z</time>
      </trkpt>
      <trkpt lat="43.2079" lon="-0.75726">
        <ele>261.13</ele>
        <time>2024-05-30T19:29:26.866Z</time>
      </trkpt>
      <trkpt lat="43.20799" lon="-0.75739">
        <ele>263.95</ele>
        <time>2024-05-30T19:29:29.741Z</time>
      </trkpt>
      <trkpt lat="43.20812" lon="-0.75748">
        <ele>266.68</ele>
        <time>2024-05-30T19:29:32.619Z</time>
      </trkpt>
      <trkpt lat="43.20835" lon="-0.7575">
        <ele>269.46</ele>
        <time>2024-05-30T19:29:35.501Z</time>
      </trkpt>
      <trkpt lat="43.2086" lon="-0.75732">
        <ele>271.96</ele>
        <time>2024-05-30T19:29:38.388Z</time>
      </trkpt>
      <trkpt lat="43.20868" lon="-0.75734">
        <ele>274.37</ele>
        <time>2024-05-30T19:29:41.277Z</time>
      </trkpt>
      <trkpt lat="43.20902" lon="-0.75755">
        <ele>277.37</ele>
        <time>2024-05-30T19:29:44.173Z</time>
      </trkpt>
      <trkpt lat="43.20927" lon="-0.75758">
        <ele>279.79</ele>
        <time>2024-05-30T19:29:47.074Z</time>
      </trkpt>
      <trkpt lat="43.20935" lon="-0.75752">
        <ele>281.71</ele>
        <time>2024-05-30T19:29:49.976Z</time>
      </trkpt>
      <trkpt lat="43.20946" lon="-0.75711">
        <ele>282.94</ele>
        <time>2024-05-30T19:29:52.884Z</time>
      </trkpt>
      <trkpt lat="43.20958" lon="-0.75699">
        <ele>284.54</ele>
        <time>2024-05-30T19:29:55.795Z</time>
      </trkpt>
      <trkpt lat="43.20966" lon="-0.75696">
        <ele>286.11</ele>
        <time>2024-05-30T19:29:58.708Z</time>
      </trkpt>
      <trkpt lat="43.20984" lon="-0.75696">
        <ele>287.55</ele>
        <time>2024-05-30T19:30:01.624Z</time>
      </trkpt>
      <trkpt lat="43.21022" lon="-0.75728">
        <ele>289.21</ele>
        <time>2024-05-30T19:30:04.548Z</time>
      </trkpt>
      <trkpt lat="43.21085" lon="-0.75674">
        <ele>290.03</ele>
        <time>2024-05-30T19:30:07.486Z</time>
      </trkpt>
      <trkpt lat="43.2111" lon="-0.75671">
        <ele>291.37</ele>
        <time>2024-05-30T19:30:10.429Z</time>
      </trkpt>
      <trkpt lat="43.21122" lon="-0.75678">
        <ele>292.44</ele>
        <time>2024-05-30T19:30:13.374Z</time>
      </trkpt>
      <trkpt lat="43.21132" lon="-0.75693">
        <ele>293.48</ele>
        <time>2024-05-30T19:30:16.322Z</time>
      </trkpt>
      <trkpt lat="43.21138" lon="-0.75708">
        <ele>294.45</ele>
        <time>2024-05-30T19:30:19.272Z</time>
      </trkpt>
      <trkpt lat="43.21144" lon="-0.7575">
        <ele>295.47</ele>
        <time>2024-05-30T19:30:22.228Z</time>
      </trkpt>
      <trkpt lat="43.21146" lon="-0.75834">
        <ele>296.38</ele>
        <time>2024-05-30T19:30:25.195Z</time>
      </trkpt>
      <trkpt lat="43.21157" lon="-0.75871">
        <ele>296.98</ele>
        <time>2024-05-30T19:30:28.168Z</time>
      </trkpt>
      <trkpt lat="43.21167" lon="-0.75897">
        <ele>297.61</ele>
        <time>2024-05-30T19:30:31.145Z</time>
      </trkpt>
      <trkpt lat="43.21169" lon="-0.75916">
        <ele>298.25</ele>
        <time>2024-05-30T19:30:34.125Z</time>
      </trkpt>
      <trkpt lat="43.21164" lon="-0.75937">
        <ele>298.97</ele>
        <time>2024-05-30T19:30:37.108Z</time>
      </trkpt>
      <trkpt lat="43.21153" lon="-0.75965">
        <ele>299.94</ele>
        <time>2024-05-30T19:30:40.095Z</time>
      </trkpt>
      <trkpt lat="43.2115" lon="-0.75993">
        <ele>300.68</ele>
        <time>2024-05-30T19:30:43.086Z</time>
      </trkpt>
      <trkpt lat="43.21158" lon="-0.76055">
        <ele>301.13</ele>
        <time>2024-05-30T19:30:46.085Z</time>
      </trkpt>
      <trkpt lat="43.21149" lon="-0.76122">
        <ele>302.17</ele>
        <time>2024-05-30T19:30:49.094Z</time>
      </trkpt>
      <trkpt lat="43.21153" lon="-0.76152">
        <ele>302.54</ele>
        <time>2024-05-30T19:30:52.107Z</time>
      </trkpt>
      <trkpt lat="43.21163" lon="-0.76157">
        <ele>302.65</ele>
        <time>2024-05-30T19:30:55.122Z</time>
      </trkpt>
      <trkpt lat="43.21193" lon="-0.7615">
        <ele>302.46</ele>
        <time>2024-05-30T19:30:58.142Z</time>
      </trkpt>
      <trkpt lat="43.21261" lon="-0.76129">
        <ele>301.7</ele>
        <time>2024-05-30T19:31:01.175Z</time>
      </trkpt>
      <trkpt lat="43.21305" lon="-0.76127">
        <ele>300.95</ele>
        <time>2024-05-30T19:31:04.216Z</time>
      </trkpt>
      <trkpt lat="43.21346" lon="-0.76132">
        <ele>300.07</ele>
        <time>2024-05-30T19:31:07.265Z</time>
      </trkpt>
      <trkpt lat="43.21362" lon="-0.76131">
        <ele>299.13</ele>
        <time>2024-05-30T19:31:10.317Z</time>
      </trkpt>
      <trkpt lat="43.21439" lon="-0.76088">
        <ele>297.68</ele>
        <time>2024-05-30T19:31:13.385Z</time>
      </trkpt>
      <trkpt lat="43.21471" lon="-0.76085">
        <ele>296.18</ele>
        <time>2024-05-30T19:31:16.459Z</time>
      </trkpt>
      <trkpt lat="43.21516" lon="-0.76099">
        <ele>294.59</ele>
        <time>2024-05-30T19:31:19.541Z</time>
      </trkpt>
      <trkpt lat="43.21569" lon="-0.7614">
        <ele>292.89</ele>
        <time>2024-05-30T19:31:22.634Z</time>
      </trkpt>
      <trkpt lat="43.21644" lon="-0.76157">
        <ele>290.87</ele>
        <time>2024-05-30T19:31:25.742Z</time>
      </trkpt>
      <trkpt lat="43.21686" lon="-0.76201">
        <ele>289.12</ele>
        <time>2024-05-30T19:31:28.859Z</time>
      </trkpt>
      <trkpt lat="43.21798" lon="-0.76259">
        <ele>287.5</ele>
        <time>2024-05-30T19:31:31.999Z</time>
      </trkpt>
      <trkpt lat="43.21824" lon="-0.76256">
        <ele>285.24</ele>
        <time>2024-05-30T19:31:35.144Z</time>
      </trkpt>
      <trkpt lat="43.21917" lon="-0.76176">
        <ele>283.06</ele>
        <time>2024-05-30T19:31:38.309Z</time>
      </trkpt>
      <trkpt lat="43.21941" lon="-0.7616">
        <ele>280.51</ele>
        <time>2024-05-30T19:31:41.479Z</time>
      </trkpt>
      <trkpt lat="43.21969" lon="-0.76159">
        <ele>277.71</ele>
        <time>2024-05-30T19:31:44.654Z</time>
      </trkpt>
      <trkpt lat="43.22047" lon="-0.76184">
        <ele>274.32</ele>
        <time>2024-05-30T19:31:47.844Z</time>
      </trkpt>
      <trkpt lat="43.22078" lon="-0.76197">
        <ele>270.79</ele>
        <time>2024-05-30T19:31:51.040Z</time>
      </trkpt>
      <trkpt lat="43.22115" lon="-0.76247">
        <ele>266.98</ele>
        <time>2024-05-30T19:31:54.246Z</time>
      </trkpt>
      <trkpt lat="43.22128" lon="-0.76331">
        <ele>263.05</ele>
        <time>2024-05-30T19:31:57.463Z</time>
      </trkpt>
      <trkpt lat="43.22139" lon="-0.76412">
        <ele>258.5</ele>
        <time>2024-05-30T19:32:00.692Z</time>
      </trkpt>
      <trkpt lat="43.22153" lon="-0.76443">
        <ele>254.28</ele>
        <time>2024-05-30T19:32:03.926Z</time>
      </trkpt>
      <trkpt lat="43.22213" lon="-0.76479">
        <ele>249.48</ele>
        <time>2024-05-30T19:32:07.172Z</time>
      </trkpt>
      <trkpt lat="43.22304" lon="-0.76505">
        <ele>244.81</ele>
        <time>2024-05-30T19:32:10.435Z</time>
      </trkpt>
      <trkpt lat="43.22333" lon="-0.76516">
        <ele>240.35</ele>
        <time>2024-05-30T19:32:13.704Z</time>
      </trkpt>
      <trkpt lat="43.22351" lon="-0.76541">
        <ele>236.05</ele>
        <time>2024-05-30T19:32:16.977Z</time>
      </trkpt>
      <trkpt lat="43.22383" lon="-0.76593">
        <ele>231.5</ele>
        <time>2024-05-30T19:32:20.260Z</time>
      </trkpt>
      <trkpt lat="43.22385" lon="-0.76629">
        <ele>227.49</ele>
        <time>2024-05-30T19:32:23.548Z</time>
      </trkpt>
      <trkpt lat="43.22372" lon="-0.76654">
        <ele>223.63</ele>
        <time>2024-05-30T19:32:26.840Z</time>
      </trkpt>
      <trkpt lat="43.22311" lon="-0.76702">
        <ele>219.42</ele>
        <time>2024-05-30T19:32:30.145Z</time>
      </trkpt>
      <trkpt lat="43.22301" lon="-0.76718">
        <ele>215.72</ele>
        <time>2024-05-30T19:32:33.453Z</time>
      </trkpt>
      <trkpt lat="43.22297" lon="-0.76739">
        <ele>212.18</ele>
        <time>2024-05-30T19:32:36.764Z</time>
      </trkpt>
      <trkpt lat="43.22318" lon="-0.76747">
        <ele>209.01</ele>
        <time>2024-05-30T19:32:40.079Z</time>
      </trkpt>
      <trkpt lat="43.22428" lon="-0.76736">
        <ele>205.68</ele>
        <time>2024-05-30T19:32:43.414Z</time>
      </trkpt>
      <trkpt lat="43.22455" lon="-0.7675">
        <ele>202.68</ele>
        <time>2024-05-30T19:32:46.755Z</time>
      </trkpt>
      <trkpt lat="43.22461" lon="-0.76775">
        <ele>200.06</ele>
        <time>2024-05-30T19:32:50.099Z</time>
      </trkpt>
      <trkpt lat="43.22467" lon="-0.7688">
        <ele>197.83</ele>
        <time>2024-05-30T19:32:53.458Z</time>
      </trkpt>
      <trkpt lat="43.22475" lon="-0.76904">
        <ele>195.74</ele>
        <time>2024-05-30T19:32:56.820Z</time>
      </trkpt>
      <trkpt lat="43.22583" lon="-0.76931">
        <ele>193.59</ele>
        <time>2024-05-30T19:33:00.203Z</time>
      </trkpt>
      <trkpt lat="43.22624" lon="-0.76946">
        <ele>191.78</ele>
        <time>2024-05-30T19:33:03.593Z</time>
      </trkpt>
      <trkpt lat="43.22629" lon="-0.76943">
        <ele>190.09</ele>
        <time>2024-05-30T19:33:06.985Z</time>
      </trkpt>
      <trkpt lat="43.22667" lon="-0.76924">
        <ele>188.54</ele>
        <time>2024-05-30T19:33:10.384Z</time>
      </trkpt>
      <trkpt lat="43.22692" lon="-0.76921">
        <ele>187.12</ele>
        <time>2024-05-30T19:33:13.788Z</time>
      </trkpt>
      <trkpt lat="43.22804" lon="-0.76959">
        <ele>185.81</ele>
        <time>2024-05-30T19:33:17.213Z</time>
      </trkpt>
      <trkpt lat="43.22816" lon="-0.76959">
        <ele>184.67</ele>
        <time>2024-05-30T19:33:20.640Z</time>
      </trkpt>
      <trkpt lat="43.22867" lon="-0.76944">
        <ele>183.87</ele>
        <time>2024-05-30T19:33:24.077Z</time>
      </trkpt>
      <trkpt lat="43.22958" lon="-0.76908">
        <ele>182.63</ele>
        <time>2024-05-30T19:33:27.532Z</time>
      </trkpt>
      <trkpt lat="43.22965" lon="-0.7689">
        <ele>181.7</ele>
        <time>2024-05-30T19:33:30.990Z</time>
      </trkpt>
      <trkpt lat="43.23018" lon="-0.76811">
        <ele>180.67</ele>
        <time>2024-05-30T19:33:34.462Z</time>
      </trkpt>
      <trkpt lat="43.23045" lon="-0.76739">
        <ele>179.83</ele>
        <time>2024-05-30T19:33:37.945Z</time>
      </trkpt>
      <trkpt lat="43.23099" lon="-0.76652">
        <ele>179.26</ele>
        <time>2024-05-30T19:33:41.444Z</time>
      </trkpt>
      <trkpt lat="43.23123" lon="-0.76603">
        <ele>179.29</ele>
        <time>2024-05-30T19:33:44.951Z</time>
      </trkpt>
      <trkpt lat="43.23149" lon="-0.76579">
        <ele>179.33</ele>
        <time>2024-05-30T19:33:48.463Z</time>
      </trkpt>
      <trkpt lat="43.23185" lon="-0.76569">
        <ele>179.27</ele>
        <time>2024-05-30T19:33:51.982Z</time>
      </trkpt>
      <trkpt lat="43.23216" lon="-0.76543">
        <ele>179.56</ele>
        <time>2024-05-30T19:33:55.508Z</time>
      </trkpt>
      <trkpt lat="43.23234" lon="-0.76532">
        <ele>179.97</ele>
        <time>2024-05-30T19:33:59.038Z</time>
      </trkpt>
      <trkpt lat="43.23304" lon="-0.76525">
        <ele>180.23</ele>
        <time>2024-05-30T19:34:02.581Z</time>
      </trkpt>
      <trkpt lat="43.23357" lon="-0.76517">
        <ele>180.46</ele>
        <time>2024-05-30T19:34:06.134Z</time>
      </trkpt>
      <trkpt lat="43.23373" lon="-0.76518">
        <ele>181.68</ele>
        <time>2024-05-30T19:34:09.690Z</time>
      </trkpt>
      <trkpt lat="43.23408" lon="-0.76531">
        <ele>183.41</ele>
        <time>2024-05-30T19:34:13.252Z</time>
      </trkpt>
      <trkpt lat="43.23426" lon="-0.76532">
        <ele>185.4</ele>
        <time>2024-05-30T19:34:16.818Z</time>
      </trkpt>
      <trkpt lat="43.23472" lon="-0.76501">
        <ele>187.67</ele>
        <time>2024-05-30T19:34:20.393Z</time>
      </trkpt>
      <trkpt lat="43.23497" lon="-0.76486">
        <ele>190.13</ele>
        <time>2024-05-30T19:34:23.973Z</time>
      </trkpt>
      <trkpt lat="43.23509" lon="-0.76484">
        <ele>192.88</ele>
        <time>2024-05-30T19:34:27.556Z</time>
      </trkpt>
      <trkpt lat="43.23523" lon="-0.76493">
        <ele>195.91</ele>
        <time>2024-05-30T19:34:31.142Z</time>
      </trkpt>
      <trkpt lat="43.2364" lon="-0.76614">
        <ele>199.64</ele>
        <time>2024-05-30T19:34:34.755Z</time>
      </trkpt>
      <trkpt lat="43.23642" lon="-0.76623">
        <ele>202.95</ele>
        <time>2024-05-30T19:34:38.369Z</time>
      </trkpt>
      <trkpt lat="43.23639" lon="-0.76653">
        <ele>206.44</ele>
        <time>2024-05-30T19:34:41.987Z</time>
      </trkpt>
      <trkpt lat="43.2365" lon="-0.7675">
        <ele>210.71</ele>
        <time>2024-05-30T19:34:45.619Z</time>
      </trkpt>
      <trkpt lat="43.2367" lon="-0.76792">
        <ele>214.6</ele>
        <time>2024-05-30T19:34:49.257Z</time>
      </trkpt>
      <trkpt lat="43.23715" lon="-0.76858">
        <ele>218.48</ele>
        <time>2024-05-30T19:34:52.908Z</time>
      </trkpt>
      <trkpt lat="43.23767" lon="-0.76921">
        <ele>222.03</ele>
        <time>2024-05-30T19:34:56.572Z</time>
      </trkpt>
      <trkpt lat="43.2384" lon="-0.77002">
        <ele>225.56</ele>
        <time>2024-05-30T19:35:00.253Z</time>
      </trkpt>
      <trkpt lat="43.23897" lon="-0.77059">
        <ele>228.36</ele>
        <time>2024-05-30T19:35:03.947Z</time>
      </trkpt>
      <trkpt lat="43.23989" lon="-0.77128">
        <ele>231.76</ele>
        <time>2024-05-30T19:35:07.661Z</time>
      </trkpt>
      <trkpt lat="43.24039" lon="-0.77154">
        <ele>234.26</ele>
        <time>2024-05-30T19:35:11.385Z</time>
      </trkpt>
      <trkpt lat="43.2406" lon="-0.77149">
        <ele>236.22</ele>
        <time>2024-05-30T19:35:15.113Z</time>
      </trkpt>
      <trkpt lat="43.24073" lon="-0.77137">
        <ele>237.73</ele>
        <time>2024-05-30T19:35:18.844Z</time>
      </trkpt>
      <trkpt lat="43.24096" lon="-0.77101">
        <ele>238.78</ele>
        <time>2024-05-30T19:35:22.581Z</time>
      </trkpt>
      <trkpt lat="43.24108" lon="-0.77094">
        <ele>239.44</ele>
        <time>2024-05-30T19:35:26.320Z</time>
      </trkpt>
      <trkpt lat="43.24123" lon="-0.77094">
        <ele>239.7</ele>
        <time>2024-05-30T19:35:30.062Z</time>
      </trkpt>
      <trkpt lat="43.24145" lon="-0.77107">
        <ele>239.51</ele>
        <time>2024-05-30T19:35:33.809Z</time>
      </trkpt>
      <trkpt lat="43.24163" lon="-0.77115">
        <ele>238.88</ele>
        <time>2024-05-30T19:35:37.559Z</time>
      </trkpt>
      <trkpt lat="43.24181" lon="-0.77114">
        <ele>237.87</ele>
        <time>2024-05-30T19:35:41.313Z</time>
      </trkpt>
      <trkpt lat="43.24205" lon="-0.77109">
        <ele>236.45</ele>
        <time>2024-05-30T19:35:45.071Z</time>
      </trkpt>
      <trkpt lat="43.24261" lon="-0.77084">
        <ele>234.63</ele>
        <time>2024-05-30T19:35:48.840Z</time>
      </trkpt>
      <trkpt lat="43.24371" lon="-0.77041">
        <ele>232.33</ele>
        <time>2024-05-30T19:35:52.630Z</time>
      </trkpt>
      <trkpt lat="43.24416" lon="-0.77013">
        <ele>230.06</ele>
        <time>2024-05-30T19:35:56.430Z</time>
      </trkpt>
      <trkpt lat="43.24438" lon="-0.77006">
        <ele>228.02</ele>
        <time>2024-05-30T19:36:00.234Z</time>
      </trkpt>
      <trkpt lat="43.24468" lon="-0.7702">
        <ele>225.89</ele>
        <time>2024-05-30T19:36:04.044Z</time>
      </trkpt>
      <trkpt lat="43.24508" lon="-0.77075">
        <ele>223.13</ele>
        <time>2024-05-30T19:36:07.864Z</time>
      </trkpt>
      <trkpt lat="43.24532" lon="-0.77098">
        <ele>220.43</ele>
        <time>2024-05-30T19:36:11.690Z</time>
      </trkpt>
      <trkpt lat="43.24548" lon="-0.77099">
        <ele>218.05</ele>
        <time>2024-05-30T19:36:15.519Z</time>
      </trkpt>
      <trkpt lat="43.24598" lon="-0.77046">
        <ele>215.77</ele>
        <time>2024-05-30T19:36:19.359Z</time>
      </trkpt>
      <trkpt lat="43.24661" lon="-0.76965">
        <ele>213.22</ele>
        <time>2024-05-30T19:36:23.215Z</time>
      </trkpt>
      <trkpt lat="43.24676" lon="-0.76955">
        <ele>211.23</ele>
        <time>2024-05-30T19:36:27.075Z</time>
      </trkpt>
      <trkpt lat="43.24719" lon="-0.76955">
        <ele>209.47</ele>
        <time>2024-05-30T19:36:30.943Z</time>
      </trkpt>
      <trkpt lat="43.24759" lon="-0.76962">
        <ele>208.1</ele>
        <time>2024-05-30T19:36:34.818Z</time>
      </trkpt>
      <trkpt lat="43.24793" lon="-0.76986">
        <ele>206.86</ele>
        <time>2024-05-30T19:36:38.700Z</time>
      </trkpt>
      <trkpt lat="43.24812" lon="-0.76993">
        <ele>205.53</ele>
        <time>2024-05-30T19:36:42.586Z</time>
      </trkpt>
      <trkpt lat="43.24845" lon="-0.76991">
        <ele>204.34</ele>
        <time>2024-05-30T19:36:46.478Z</time>
      </trkpt>
      <trkpt lat="43.24888" lon="-0.7698">
        <ele>203.14</ele>
        <time>2024-05-30T19:36:50.378Z</time>
      </trkpt>
      <trkpt lat="43.24899" lon="-0.76974">
        <ele>201.79</ele>
        <time>2024-05-30T19:36:54.280Z</time>
      </trkpt>
      <trkpt lat="43.24903" lon="-0.76959">
        <ele>200.44</ele>
        <time>2024-05-30T19:36:58.185Z</time>
      </trkpt>
      <trkpt lat="43.24909" lon="-0.76909">
        <ele>199.08</ele>
        <time>2024-05-30T19:37:02.096Z</time>
      </trkpt>
      <trkpt lat="43.24934" lon="-0.7684">
        <ele>197.32</ele>
        <time>2024-05-30T19:37:06.018Z</time>
      </trkpt>
      <trkpt lat="43.24929" lon="-0.76794">
        <ele>195.66</ele>
        <time>2024-05-30T19:37:09.946Z</time>
      </trkpt>
      <trkpt lat="43.24944" lon="-0.76745">
        <ele>193.85</ele>
        <time>2024-05-30T19:37:13.881Z</time>
      </trkpt>
      <trkpt lat="43.24953" lon="-0.76692">
        <ele>191.86</ele>
        <time>2024-05-30T19:37:17.824Z</time>
      </trkpt>
      <trkpt lat="43.24954" lon="-0.7663">
        <ele>189.67</ele>
        <time>2024-05-30T19:37:21.775Z</time>
      </trkpt>
      <trkpt lat="43.24944" lon="-0.76591">
        <ele>187.6</ele>
        <time>2024-05-30T19:37:25.732Z</time>
      </trkpt>
      <trkpt lat="43.24939" lon="-0.76544">
        <ele>185.5</ele>
        <time>2024-05-30T19:37:29.695Z</time>
      </trkpt>
      <trkpt lat="43.24926" lon="-0.76516">
        <ele>183.16</ele>
        <time>2024-05-30T19:37:33.663Z</time>
      </trkpt>
      <trkpt lat="43.24917" lon="-0.76483">
        <ele>180.75</ele>
        <time>2024-05-30T19:37:37.636Z</time>
      </trkpt>
      <trkpt lat="43.24916" lon="-0.76457">
        <ele>178.41</ele>
        <time>2024-05-30T19:37:41.612Z</time>
      </trkpt>
      <trkpt lat="43.24926" lon="-0.76441">
        <ele>176.03</ele>
        <time>2024-05-30T19:37:45.591Z</time>
      </trkpt>
      <trkpt lat="43.2496" lon="-0.76446">
        <ele>173.62</ele>
        <time>2024-05-30T19:37:49.576Z</time>
      </trkpt>
      <trkpt lat="43.24968" lon="-0.76458">
        <ele>171.51</ele>
        <time>2024-05-30T19:37:53.564Z</time>
      </trkpt>
      <trkpt lat="43.24978" lon="-0.76509">
        <ele>169.7</ele>
        <time>2024-05-30T19:37:57.559Z</time>
      </trkpt>
      <trkpt lat="43.25005" lon="-0.76532">
        <ele>167.15</ele>
        <time>2024-05-30T19:38:01.560Z</time>
      </trkpt>
      <trkpt lat="43.25012" lon="-0.76501">
        <ele>164.96</ele>
        <time>2024-05-30T19:38:05.565Z</time>
      </trkpt>
      <trkpt lat="43.25043" lon="-0.7647">
        <ele>162.62</ele>
        <time>2024-05-30T19:38:09.577Z</time>
      </trkpt>
      <trkpt lat="43.25086" lon="-0.76436">
        <ele>160.48</ele>
        <time>2024-05-30T19:38:13.599Z</time>
      </trkpt>
      <trkpt lat="43.25101" lon="-0.76421">
        <ele>158.89</ele>
        <time>2024-05-30T19:38:17.624Z</time>
      </trkpt>
      <trkpt lat="43.25111" lon="-0.76414">
        <ele>157.62</ele>
        <time>2024-05-30T19:38:21.651Z</time>
      </trkpt>
      <trkpt lat="43.2513" lon="-0.76407">
        <ele>156.7</ele>
        <time>2024-05-30T19:38:25.682Z</time>
      </trkpt>
      <trkpt lat="43.25131" lon="-0.76415">
        <ele>155.74</ele>
        <time>2024-05-30T19:38:29.714Z</time>
      </trkpt>
      <trkpt lat="43.25138" lon="-0.76471">
        <ele>155.03</ele>
        <time>2024-05-30T19:38:33.754Z</time>
      </trkpt>
      <trkpt lat="43.2514" lon="-0.76517">
        <ele>154.4</ele>
        <time>2024-05-30T19:38:37.800Z</time>
      </trkpt>
      <trkpt lat="43.25134" lon="-0.76681">
        <ele>153.99</ele>
        <time>2024-05-30T19:38:41.868Z</time>
      </trkpt>
      <trkpt lat="43.25136" lon="-0.76712">
        <ele>153.89</ele>
        <time>2024-05-30T19:38:45.940Z</time>
      </trkpt>
      <trkpt lat="43.2516" lon="-0.76814">
        <ele>154.08</ele>
        <time>2024-05-30T19:38:50.027Z</time>
      </trkpt>
      <trkpt lat="43.25166" lon="-0.76807">
        <ele>154.33</ele>
        <time>2024-05-30T19:38:54.115Z</time>
      </trkpt>
      <trkpt lat="43.25171" lon="-0.76793">
        <ele>154.73</ele>
        <time>2024-05-30T19:38:58.206Z</time>
      </trkpt>
      <trkpt lat="43.25175" lon="-0.76776">
        <ele>155.31</ele>
        <time>2024-05-30T19:39:02.299Z</time>
      </trkpt>
      <trkpt lat="43.25196" lon="-0.76612">
        <ele>156.01</ele>
        <time>2024-05-30T19:39:06.415Z</time>
      </trkpt>
      <trkpt lat="43.252" lon="-0.76593">
        <ele>156.78</ele>
        <time>2024-05-30T19:39:10.533Z</time>
      </trkpt>
      <trkpt lat="43.25206" lon="-0.7658">
        <ele>157.73</ele>
        <time>2024-05-30T19:39:14.653Z</time>
      </trkpt>
      <trkpt lat="43.2521" lon="-0.76575">
        <ele>158.79</ele>
        <time>2024-05-30T19:39:18.774Z</time>
      </trkpt>
      <trkpt lat="43.25213" lon="-0.76571">
        <ele>159.94</ele>
        <time>2024-05-30T19:39:22.896Z</time>
      </trkpt>
      <trkpt lat="43.25227" lon="-0.76565">
        <ele>161.2</ele>
        <time>2024-05-30T19:39:27.021Z</time>
      </trkpt>
      <trkpt lat="43.25255" lon="-0.76561">
        <ele>162.59</ele>
        <time>2024-05-30T19:39:31.151Z</time>
      </trkpt>
      <trkpt lat="43.25318" lon="-0.76573">
        <ele>164.23</ele>
        <time>2024-05-30T19:39:35.293Z</time>
      </trkpt>
      <trkpt lat="43.25382" lon="-0.76582">
        <ele>165.89</ele>
        <time>2024-05-30T19:39:39.447Z</time>
      </trkpt>
      <trkpt lat="43.25394" lon="-0.76582">
        <ele>167.36</ele>
        <time>2024-05-30T19:39:43.603Z</time>
      </trkpt>
      <trkpt lat="43.25426" lon="-0.76574">
        <ele>168.88</ele>
        <time>2024-05-30T19:39:47.765Z</time>
      </trkpt>
      <trkpt lat="43.25458" lon="-0.76572">
        <ele>170.4</ele>
        <time>2024-05-30T19:39:51.933Z</time>
      </trkpt>
      <trkpt lat="43.25488" lon="-0.76559">
        <ele>171.9</ele>
        <time>2024-05-30T19:39:56.107Z</time>
      </trkpt>
      <trkpt lat="43.25558" lon="-0.76559">
        <ele>173.55</ele>
        <time>2024-05-30T19:40:00.294Z</time>
      </trkpt>
      <trkpt lat="43.25567" lon="-0.76555">
        <ele>174.97</ele>
        <time>2024-05-30T19:40:04.483Z</time>
      </trkpt>
      <trkpt lat="43.2557" lon="-0.7655">
        <ele>176.35</ele>
        <time>2024-05-30T19:40:08.673Z</time>
      </trkpt>
      <trkpt lat="43.25572" lon="-0.76542">
        <ele>177.7</ele>
        <time>2024-05-30T19:40:12.864Z</time>
      </trkpt>
      <trkpt lat="43.25571" lon="-0.76534">
        <ele>179.03</ele>
        <time>2024-05-30T19:40:17.056Z</time>
      </trkpt>
      <trkpt lat="43.25566" lon="-0.76528">
        <ele>180.34</ele>
        <time>2024-05-30T19:40:21.249Z</time>
      </trkpt>
      <trkpt lat="43.25537" lon="-0.76508">
        <ele>181.71</ele>
        <time>2024-05-30T19:40:25.448Z</time>
      </trkpt>
      <trkpt lat="43.25503" lon="-0.76482">
        <ele>183.12</ele>
        <time>2024-05-30T19:40:29.654Z</time>
      </trkpt>
      <trkpt lat="43.25494" lon="-0.76456">
        <ele>184.62</ele>
        <time>2024-05-30T19:40:33.864Z</time>
      </trkpt>
      <trkpt lat="43.25494" lon="-0.76444">
        <ele>186.04</ele>
        <time>2024-05-30T19:40:38.076Z</time>
      </trkpt>
      <trkpt lat="43.25499" lon="-0.76432">
        <ele>187.47</ele>
        <time>2024-05-30T19:40:42.290Z</time>
      </trkpt>
      <trkpt lat="43.25521" lon="-0.76414">
        <ele>188.85</ele>
        <time>2024-05-30T19:40:46.509Z</time>
      </trkpt>
      <trkpt lat="43.25547" lon="-0.76402">
        <ele>190.23</ele>
        <time>2024-05-30T19:40:50.733Z</time>
      </trkpt>
      <trkpt lat="43.25552" lon="-0.76402">
        <ele>191.78</ele>
        <time>2024-05-30T19:40:54.958Z</time>
      </trkpt>
      <trkpt lat="43.2562" lon="-0.76407">
        <ele>193.47</ele>
        <time>2024-05-30T19:40:59.195Z</time>
      </trkpt>
      <trkpt lat="43.25649" lon="-0.76405">
        <ele>195.22</ele>
        <time>2024-05-30T19:41:03.438Z</time>
      </trkpt>
      <trkpt lat="43.25698" lon="-0.76381">
        <ele>197.09</ele>
        <time>2024-05-30T19:41:07.690Z</time>
      </trkpt>
      <trkpt lat="43.25717" lon="-0.76374">
        <ele>198.99</ele>
        <time>2024-05-30T19:41:11.946Z</time>
      </trkpt>
      <trkpt lat="43.25839" lon="-0.76367">
        <ele>201.73</ele>
        <time>2024-05-30T19:41:16.225Z</time>
      </trkpt>
      <trkpt lat="43.25844" lon="-0.7637">
        <ele>203.74</ele>
        <time>2024-05-30T19:41:20.505Z</time>
      </trkpt>
      <trkpt lat="43.25847" lon="-0.76376">
        <ele>205.79</ele>
        <time>2024-05-30T19:41:24.786Z</time>
      </trkpt>
      <trkpt lat="43.25863" lon="-0.76445">
        <ele>208.13</ele>
        <time>2024-05-30T19:41:29.077Z</time>
      </trkpt>
      <trkpt lat="43.25871" lon="-0.76465">
        <ele>210.28</ele>
        <time>2024-05-30T19:41:33.371Z</time>
      </trkpt>
      <trkpt lat="43.25881" lon="-0.7648">
        <ele>212.44</ele>
        <time>2024-05-30T19:41:37.668Z</time>
      </trkpt>
      <trkpt lat="43.25896" lon="-0.76496">
        <ele>214.55</ele>
        <time>2024-05-30T19:41:41.968Z</time>
      </trkpt>
      <trkpt lat="43.25909" lon="-0.76504">
        <ele>216.51</ele>
        <time>2024-05-30T19:41:46.271Z</time>
      </trkpt>
      <trkpt lat="43.25921" lon="-0.76508">
        <ele>218.45</ele>
        <time>2024-05-30T19:41:50.576Z</time>
      </trkpt>
      <trkpt lat="43.25933" lon="-0.76506">
        <ele>220.35</ele>
        <time>2024-05-30T19:41:54.883Z</time>
      </trkpt>
      <trkpt lat="43.25947" lon="-0.76501">
        <ele>222.21</ele>
        <time>2024-05-30T19:41:59.193Z</time>
      </trkpt>
      <trkpt lat="43.25996" lon="-0.76475">
        <ele>224.38</ele>
        <time>2024-05-30T19:42:03.513Z</time>
      </trkpt>
      <trkpt lat="43.26021" lon="-0.7647">
        <ele>226.09</ele>
        <time>2024-05-30T19:42:07.837Z</time>
      </trkpt>
      <trkpt lat="43.26062" lon="-0.76472">
        <ele>227.66</ele>
        <time>2024-05-30T19:42:12.169Z</time>
      </trkpt>
      <trkpt lat="43.26113" lon="-0.76468">
        <ele>228.6</ele>
        <time>2024-05-30T19:42:16.511Z</time>
      </trkpt>
      <trkpt lat="43.26111" lon="-0.76476">
        <ele>229.78</ele>
        <time>2024-05-30T19:42:20.854Z</time>
      </trkpt>
      <trkpt lat="43.261" lon="-0.76511">
        <ele>230.81</ele>
        <time>2024-05-30T19:42:25.202Z</time>
      </trkpt>
      <trkpt lat="43.26099" lon="-0.76544">
        <ele>231.51</ele>
        <time>2024-05-30T19:42:29.554Z</time>
      </trkpt>
      <trkpt lat="43.26108" lon="-0.76588">
        <ele>232.23</ele>
        <time>2024-05-30T19:42:33.913Z</time>
      </trkpt>
      <trkpt lat="43.2618" lon="-0.76822">
        <ele>233.2</ele>
        <time>2024-05-30T19:42:38.306Z</time>
      </trkpt>
      <trkpt lat="43.26185" lon="-0.76863">
        <ele>234.12</ele>
        <time>2024-05-30T19:42:42.705Z</time>
      </trkpt>
      <trkpt lat="43.26176" lon="-0.76923">
        <ele>234.75</ele>
        <time>2024-05-30T19:42:47.112Z</time>
      </trkpt>
      <trkpt lat="43.26181" lon="-0.76992">
        <ele>235.29</ele>
        <time>2024-05-30T19:42:51.529Z</time>
      </trkpt>
      <trkpt lat="43.26195" lon="-0.77074">
        <ele>235.54</ele>
        <time>2024-05-30T19:42:55.957Z</time>
      </trkpt>
      <trkpt lat="43.26217" lon="-0.77124">
        <ele>235.68</ele>
        <time>2024-05-30T19:43:00.393Z</time>
      </trkpt>
      <trkpt lat="43.26354" lon="-0.77294">
        <ele>235.62</ele>
        <time>2024-05-30T19:43:04.863Z</time>
      </trkpt>
      <trkpt lat="43.26399" lon="-0.77391">
        <ele>235.47</ele>
        <time>2024-05-30T19:43:09.349Z</time>
      </trkpt>
      <trkpt lat="43.26455" lon="-0.77552">
        <ele>235.47</ele>
        <time>2024-05-30T19:43:13.859Z</time>
      </trkpt>
      <trkpt lat="43.2649" lon="-0.77728">
        <ele>235.13</ele>
        <time>2024-05-30T19:43:18.394Z</time>
      </trkpt>
      <trkpt lat="43.26532" lon="-0.7782">
        <ele>235.3</ele>
        <time>2024-05-30T19:43:22.944Z</time>
      </trkpt>
      <trkpt lat="43.26579" lon="-0.77904">
        <ele>235.65</ele>
        <time>2024-05-30T19:43:27.508Z</time>
      </trkpt>
      <trkpt lat="43.26633" lon="-0.78106">
        <ele>235.59</ele>
        <time>2024-05-30T19:43:32.101Z</time>
      </trkpt>
      <trkpt lat="43.26664" lon="-0.78385">
        <ele>235.7</ele>
        <time>2024-05-30T19:43:36.733Z</time>
      </trkpt>
      <trkpt lat="43.26726" lon="-0.78772">
        <ele>235.63</ele>
        <time>2024-05-30T19:43:41.419Z</time>
      </trkpt>
      <trkpt lat="43.26737" lon="-0.78836">
        <ele>235.85</ele>
        <time>2024-05-30T19:43:46.113Z</time>
      </trkpt>
      <trkpt lat="43.26754" lon="-0.78902">
        <ele>236.28</ele>
        <time>2024-05-30T19:43:50.817Z</time>
      </trkpt>
      <trkpt lat="43.26778" lon="-0.78983">
        <ele>236.57</ele>
        <time>2024-05-30T19:43:55.533Z</time>
      </trkpt>
      <trkpt lat="43.2681" lon="-0.79065">
        <ele>236.66</ele>
        <time>2024-05-30T19:44:00.262Z</time>
      </trkpt>
      <trkpt lat="43.26852" lon="-0.7914">
        <ele>237.33</ele>
        <time>2024-05-30T19:44:05.003Z</time>
      </trkpt>
      <trkpt lat="43.26937" lon="-0.79243">
        <ele>237.95</ele>
        <time>2024-05-30T19:44:09.765Z</time>
      </trkpt>
      <trkpt lat="43.27032" lon="-0.79305">
        <ele>238.84</ele>
        <time>2024-05-30T19:44:14.547Z</time>
      </trkpt>
      <trkpt lat="43.27046" lon="-0.79318">
        <ele>239.74</ele>
        <time>2024-05-30T19:44:19.332Z</time>
      </trkpt>
      <trkpt lat="43.27064" lon="-0.79339">
        <ele>240.72</ele>
        <time>2024-05-30T19:44:24.122Z</time>
      </trkpt>
      <trkpt lat="43.27088" lon="-0.79378">
        <ele>241.78</ele>
        <time>2024-05-30T19:44:28.919Z</time>
      </trkpt>
      <trkpt lat="43.27149" lon="-0.79489">
        <ele>243.23</ele>
        <time>2024-05-30T19:44:33.734Z</time>
      </trkpt>
      <trkpt lat="43.27158" lon="-0.79494">
        <ele>244.2</ele>
        <time>2024-05-30T19:44:38.551Z</time>
      </trkpt>
      <trkpt lat="43.2718" lon="-0.79496">
        <ele>245.18</ele>
        <time>2024-05-30T19:44:43.372Z</time>
      </trkpt>
      <trkpt lat="43.27222" lon="-0.79471">
        <ele>246.03</ele>
        <time>2024-05-30T19:44:48.202Z</time>
      </trkpt>
      <trkpt lat="43.2723" lon="-0.79468">
        <ele>246.93</ele>
        <time>2024-05-30T19:44:53.033Z</time>
      </trkpt>
      <trkpt lat="43.27237" lon="-0.79468">
        <ele>247.82</ele>
        <time>2024-05-30T19:44:57.866Z</time>
      </trkpt>
      <trkpt lat="43.27243" lon="-0.79473">
        <ele>248.68</ele>
        <time>2024-05-30T19:45:02.700Z</time>
      </trkpt>
      <trkpt lat="43.27251" lon="-0.79491">
        <ele>249.44</ele>
        <time>2024-05-30T19:45:07.537Z</time>
      </trkpt>
      <trkpt lat="43.27268" lon="-0.79641">
        <ele>250.3</ele>
        <time>2024-05-30T19:45:12.394Z</time>
      </trkpt>
      <trkpt lat="43.27266" lon="-0.79728">
        <ele>251.18</ele>
        <time>2024-05-30T19:45:17.263Z</time>
      </trkpt>
      <trkpt lat="43.27274" lon="-0.79777">
        <ele>251.65</ele>
        <time>2024-05-30T19:45:22.139Z</time>
      </trkpt>
      <trkpt lat="43.27346" lon="-0.79935">
        <ele>252.27</ele>
        <time>2024-05-30T19:45:27.040Z</time>
      </trkpt>
      <trkpt lat="43.27357" lon="-0.79979">
        <ele>252.7</ele>
        <time>2024-05-30T19:45:31.948Z</time>
      </trkpt>
      <trkpt lat="43.27359" lon="-0.80008">
        <ele>252.91</ele>
        <time>2024-05-30T19:45:36.860Z</time>
      </trkpt>
      <trkpt lat="43.27358" lon="-0.80029">
        <ele>253.04</ele>
        <time>2024-05-30T19:45:41.775Z</time>
      </trkpt>
      <trkpt lat="43.2734" lon="-0.80155">
        <ele>252.47</ele>
        <time>2024-05-30T19:45:46.707Z</time>
      </trkpt>
      <trkpt lat="43.27324" lon="-0.80285">
        <ele>252.47</ele>
        <time>2024-05-30T19:45:51.657Z</time>
      </trkpt>
      <trkpt lat="43.27281" lon="-0.80427">
        <ele>252.76</ele>
        <time>2024-05-30T19:45:56.628Z</time>
      </trkpt>
      <trkpt lat="43.27276" lon="-0.80449">
        <ele>252.84</ele>
        <time>2024-05-30T19:46:01.602Z</time>
      </trkpt>
      <trkpt lat="43.27275" lon="-0.8048">
        <ele>252.8</ele>
        <time>2024-05-30T19:46:06.580Z</time>
      </trkpt>
      <trkpt lat="43.27287" lon="-0.80691">
        <ele>252.73</ele>
        <time>2024-05-30T19:46:11.587Z</time>
      </trkpt>
      <trkpt lat="43.27292" lon="-0.80789">
        <ele>252.76</ele>
        <time>2024-05-30T19:46:16.607Z</time>
      </trkpt>
      <trkpt lat="43.27296" lon="-0.80824">
        <ele>252.44</ele>
        <time>2024-05-30T19:46:21.632Z</time>
      </trkpt>
      <trkpt lat="43.2733" lon="-0.80977">
        <ele>252.02</ele>
        <time>2024-05-30T19:46:26.679Z</time>
      </trkpt>
      <trkpt lat="43.27341" lon="-0.80995">
        <ele>251.43</ele>
        <time>2024-05-30T19:46:31.729Z</time>
      </trkpt>
      <trkpt lat="43.27346" lon="-0.80998">
        <ele>250.88</ele>
        <time>2024-05-30T19:46:36.780Z</time>
      </trkpt>
      <trkpt lat="43.27341" lon="-0.81021">
        <ele>250.32</ele>
        <time>2024-05-30T19:46:41.834Z</time>
      </trkpt>
      <trkpt lat="43.2734" lon="-0.81051">
        <ele>249.78</ele>
        <time>2024-05-30T19:46:46.892Z</time>
      </trkpt>
      <trkpt lat="43.27345" lon="-0.81103">
        <ele>249.03</ele>
        <time>2024-05-30T19:46:51.958Z</time>
      </trkpt>
      <trkpt lat="43.27345" lon="-0.81124">
        <ele>248.26</ele>
        <time>2024-05-30T19:46:57.026Z</time>
      </trkpt>
      <trkpt lat="43.27342" lon="-0.81141">
        <ele>247.5</ele>
        <time>2024-05-30T19:47:02.097Z</time>
      </trkpt>
      <trkpt lat="43.27337" lon="-0.81156">
        <ele>246.77</ele>
        <time>2024-05-30T19:47:07.170Z</time>
      </trkpt>
      <trkpt lat="43.27329" lon="-0.81169">
        <ele>246.08</ele>
        <time>2024-05-30T19:47:12.245Z</time>
      </trkpt>
      <trkpt lat="43.27318" lon="-0.81181">
        <ele>245.42</ele>
        <time>2024-05-30T19:47:17.323Z</time>
      </trkpt>
      <trkpt lat="43.27305" lon="-0.81189">
        <ele>244.82</ele>
        <time>2024-05-30T19:47:22.404Z</time>
      </trkpt>
      <trkpt lat="43.2724" lon="-0.81219">
        <ele>243.96</ele>
        <time>2024-05-30T19:47:27.497Z</time>
      </trkpt>
      <trkpt lat="43.27223" lon="-0.81228">
        <ele>243.45</ele>
        <time>2024-05-30T19:47:32.594Z</time>
      </trkpt>
      <trkpt lat="43.27104" lon="-0.81328">
        <ele>243.12</ele>
        <time>2024-05-30T19:47:37.717Z</time>
      </trkpt>
      <trkpt lat="43.27084" lon="-0.81347">
        <ele>242.84</ele>
        <time>2024-05-30T19:47:42.844Z</time>
      </trkpt>
      <trkpt lat="43.27041" lon="-0.81409">
        <ele>242.6</ele>
        <time>2024-05-30T19:47:47.983Z</time>
      </trkpt>
      <trkpt lat="43.27024" lon="-0.8143">
        <ele>242.62</ele>
        <time>2024-05-30T19:47:53.126Z</time>
      </trkpt>
      <trkpt lat="43.27001" lon="-0.81446">
        <ele>242.74</ele>
        <time>2024-05-30T19:47:58.274Z</time>
      </trkpt>
      <trkpt lat="43.26907" lon="-0.815">
        <ele>243.02</ele>
        <time>2024-05-30T19:48:03.441Z</time>
      </trkpt>
      <trkpt lat="43.26884" lon="-0.81516">
        <ele>243.43</ele>
        <time>2024-05-30T19:48:08.613Z</time>
      </trkpt>
      <trkpt lat="43.26865" lon="-0.81535">
        <ele>243.88</ele>
        <time>2024-05-30T19:48:13.789Z</time>
      </trkpt>
      <trkpt lat="43.26806" lon="-0.81606">
        <ele>244.64</ele>
        <time>2024-05-30T19:48:18.980Z</time>
      </trkpt>
      <trkpt lat="43.2679" lon="-0.81629">
        <ele>245.21</ele>
        <time>2024-05-30T19:48:24.175Z</time>
      </trkpt>
      <trkpt lat="43.26783" lon="-0.81653">
        <ele>245.77</ele>
        <time>2024-05-30T19:48:29.374Z</time>
      </trkpt>
      <trkpt lat="43.26782" lon="-0.81667">
        <ele>246.31</ele>
        <time>2024-05-30T19:48:34.574Z</time>
      </trkpt>
      <trkpt lat="43.26786" lon="-0.81683">
        <ele>246.75</ele>
        <time>2024-05-30T19:48:39.777Z</time>
      </trkpt>
      <trkpt lat="43.2682" lon="-0.81729">
        <ele>247.12</ele>
        <time>2024-05-30T19:48:44.989Z</time>
      </trkpt>
      <trkpt lat="43.26828" lon="-0.81747">
        <ele>247.49</ele>
        <time>2024-05-30T19:48:50.204Z</time>
      </trkpt>
      <trkpt lat="43.26832" lon="-0.81764">
        <ele>247.84</ele>
        <time>2024-05-30T19:48:55.421Z</time>
      </trkpt>
      <trkpt lat="43.26832" lon="-0.81784">
        <ele>248.13</ele>
        <time>2024-05-30T19:49:00.641Z</time>
      </trkpt>
      <trkpt lat="43.26829" lon="-0.818">
        <ele>248.28</ele>
        <time>2024-05-30T19:49:05.863Z</time>
      </trkpt>
      <trkpt lat="43.26822" lon="-0.81815">
        <ele>248.35</ele>
        <time>2024-05-30T19:49:11.087Z</time>
      </trkpt>
      <trkpt lat="43.26809" lon="-0.81834">
        <ele>248.27</ele>
        <time>2024-05-30T19:49:16.315Z</time>
      </trkpt>
      <trkpt lat="43.26716" lon="-0.81937">
        <ele>248.03</ele>
        <time>2024-05-30T19:49:21.565Z</time>
      </trkpt>
      <trkpt lat="43.26687" lon="-0.81978">
        <ele>247.81</ele>
        <time>2024-05-30T19:49:26.823Z</time>
      </trkpt>
      <trkpt lat="43.26671" lon="-0.82017">
        <ele>247.43</ele>
        <time>2024-05-30T19:49:32.087Z</time>
      </trkpt>
      <trkpt lat="43.2659" lon="-0.82354">
        <ele>246.77</ele>
        <time>2024-05-30T19:49:37.399Z</time>
      </trkpt>
      <trkpt lat="43.26576" lon="-0.82417">
        <ele>246.27</ele>
        <time>2024-05-30T19:49:42.720Z</time>
      </trkpt>
      <trkpt lat="43.26573" lon="-0.82443">
        <ele>245.89</ele>
        <time>2024-05-30T19:49:48.045Z</time>
      </trkpt>
      <trkpt lat="43.26572" lon="-0.82469">
        <ele>245.52</ele>
        <time>2024-05-30T19:49:53.373Z</time>
      </trkpt>
      <trkpt lat="43.26576" lon="-0.82536">
        <ele>245.1</ele>
        <time>2024-05-30T19:49:58.710Z</time>
      </trkpt>
      <trkpt lat="43.26594" lon="-0.82774">
        <ele>244.75</ele>
        <time>2024-05-30T19:50:04.080Z</time>
      </trkpt>
      <trkpt lat="43.26571" lon="-0.82972">
        <ele>243.99</ele>
        <time>2024-05-30T19:50:09.477Z</time>
      </trkpt>
      <trkpt lat="43.26568" lon="-0.83015">
        <ele>243.65</ele>
        <time>2024-05-30T19:50:14.880Z</time>
      </trkpt>
      <trkpt lat="43.26574" lon="-0.83111">
        <ele>243.49</ele>
        <time>2024-05-30T19:50:20.296Z</time>
      </trkpt>
      <trkpt lat="43.26601" lon="-0.83272">
        <ele>243.08</ele>
        <time>2024-05-30T19:50:25.735Z</time>
      </trkpt>
      <trkpt lat="43.26598" lon="-0.83465">
        <ele>243.15</ele>
        <time>2024-05-30T19:50:31.200Z</time>
      </trkpt>
      <trkpt lat="43.26599" lon="-0.83473">
        <ele>243.13</ele>
        <time>2024-05-30T19:50:36.666Z</time>
      </trkpt>
      <trkpt lat="43.2661" lon="-0.83525">
        <ele>243.31</ele>
        <time>2024-05-30T19:50:42.139Z</time>
      </trkpt>
      <trkpt lat="43.26695" lon="-0.83812">
        <ele>242.93</ele>
        <time>2024-05-30T19:50:47.654Z</time>
      </trkpt>
      <trkpt lat="43.26706" lon="-0.839">
        <ele>242.96</ele>
        <time>2024-05-30T19:50:53.182Z</time>
      </trkpt>
      <trkpt lat="43.26725" lon="-0.84116">
        <ele>243.44</ele>
        <time>2024-05-30T19:50:58.739Z</time>
      </trkpt>
      <trkpt lat="43.26724" lon="-0.8414">
        <ele>243.98</ele>
        <time>2024-05-30T19:51:04.299Z</time>
      </trkpt>
      <trkpt lat="43.2672" lon="-0.84172">
        <ele>244.68</ele>
        <time>2024-05-30T19:51:09.864Z</time>
      </trkpt>
      <trkpt lat="43.26591" lon="-0.8469">
        <ele>246.06</ele>
        <time>2024-05-30T19:51:15.503Z</time>
      </trkpt>
      <trkpt lat="43.26599" lon="-0.84696">
        <ele>247.01</ele>
        <time>2024-05-30T19:51:21.144Z</time>
      </trkpt>
      <trkpt lat="43.26602" lon="-0.84705">
        <ele>248.09</ele>
        <time>2024-05-30T19:51:26.786Z</time>
      </trkpt>
      <trkpt lat="43.26624" lon="-0.84817">
        <ele>249.47</ele>
        <time>2024-05-30T19:51:32.444Z</time>
      </trkpt>
      <trkpt lat="43.26624" lon="-0.84832">
        <ele>250.88</ele>
        <time>2024-05-30T19:51:38.104Z</time>
      </trkpt>
      <trkpt lat="43.2662" lon="-0.8485">
        <ele>252.42</ele>
        <time>2024-05-30T19:51:43.767Z</time>
      </trkpt>
      <trkpt lat="43.26619" lon="-0.84942">
        <ele>254.32</ele>
        <time>2024-05-30T19:51:49.442Z</time>
      </trkpt>
      <trkpt lat="43.26621" lon="-0.84959">
        <ele>256.02</ele>
        <time>2024-05-30T19:51:55.119Z</time>
      </trkpt>
      <trkpt lat="43.26628" lon="-0.84977">
        <ele>257.84</ele>
        <time>2024-05-30T19:52:00.799Z</time>
      </trkpt>
      <trkpt lat="43.26643" lon="-0.84997">
        <ele>259.74</ele>
        <time>2024-05-30T19:52:06.483Z</time>
      </trkpt>
      <trkpt lat="43.2665" lon="-0.85001">
        <ele>261.7</ele>
        <time>2024-05-30T19:52:12.169Z</time>
      </trkpt>
      <trkpt lat="43.26658" lon="-0.85">
        <ele>263.71</ele>
        <time>2024-05-30T19:52:17.856Z</time>
      </trkpt>
      <trkpt lat="43.26679" lon="-0.84993">
        <ele>265.71</ele>
        <time>2024-05-30T19:52:23.547Z</time>
      </trkpt>
      <trkpt lat="43.26694" lon="-0.84994">
        <ele>267.72</ele>
        <time>2024-05-30T19:52:29.241Z</time>
      </trkpt>
      <trkpt lat="43.26725" lon="-0.85017">
        <ele>269.79</ele>
        <time>2024-05-30T19:52:34.941Z</time>
      </trkpt>
      <trkpt lat="43.26735" lon="-0.85027">
        <ele>271.82</ele>
        <time>2024-05-30T19:52:40.644Z</time>
      </trkpt>
      <trkpt lat="43.26738" lon="-0.85033">
        <ele>273.77</ele>
        <time>2024-05-30T19:52:46.348Z</time>
      </trkpt>
      <trkpt lat="43.26742" lon="-0.85045">
        <ele>275.63</ele>
        <time>2024-05-30T19:52:52.053Z</time>
      </trkpt>
      <trkpt lat="43.26759" lon="-0.85155">
        <ele>277.94</ele>
        <time>2024-05-30T19:52:57.774Z</time>
      </trkpt>
      <trkpt lat="43.26758" lon="-0.85177">
        <ele>279.59</ele>
        <time>2024-05-30T19:53:03.498Z</time>
      </trkpt>
      <trkpt lat="43.26742" lon="-0.85229">
        <ele>280.73</ele>
        <time>2024-05-30T19:53:09.229Z</time>
      </trkpt>
      <trkpt lat="43.26738" lon="-0.85406">
        <ele>281.58</ele>
        <time>2024-05-30T19:53:14.984Z</time>
      </trkpt>
      <trkpt lat="43.26746" lon="-0.855">
        <ele>282.49</ele>
        <time>2024-05-30T19:53:20.752Z</time>
      </trkpt>
      <trkpt lat="43.26768" lon="-0.85642">
        <ele>283.03</ele>
        <time>2024-05-30T19:53:26.540Z</time>
      </trkpt>
      <trkpt lat="43.2678" lon="-0.85753">
        <ele>283.71</ele>
        <time>2024-05-30T19:53:32.343Z</time>
      </trkpt>
      <trkpt lat="43.26792" lon="-0.85849">
        <ele>284.15</ele>
        <time>2024-05-30T19:53:38.160Z</time>
      </trkpt>
      <trkpt lat="43.26808" lon="-0.85914">
        <ele>284.33</ele>
        <time>2024-05-30T19:53:43.986Z</time>
      </trkpt>
      <trkpt lat="43.26823" lon="-0.85948">
        <ele>283.79</ele>
        <time>2024-05-30T19:53:49.817Z</time>
      </trkpt>
      <trkpt lat="43.26837" lon="-0.85962">
        <ele>282.6</ele>
        <time>2024-05-30T19:53:55.652Z</time>
      </trkpt>
      <trkpt lat="43.26851" lon="-0.85968">
        <ele>280.89</ele>
        <time>2024-05-30T19:54:01.489Z</time>
      </trkpt>
      <trkpt lat="43.26866" lon="-0.85965">
        <ele>278.82</ele>
        <time>2024-05-30T19:54:07.329Z</time>
      </trkpt>
      <trkpt lat="43.26883" lon="-0.85965">
        <ele>276.42</ele>
        <time>2024-05-30T19:54:13.172Z</time>
      </trkpt>
      <trkpt lat="43.26937" lon="-0.85987">
        <ele>273.69</ele>
        <time>2024-05-30T19:54:19.026Z</time>
      </trkpt>
      <trkpt lat="43.26983" lon="-0.8601">
        <ele>270.28</ele>
        <time>2024-05-30T19:54:24.889Z</time>
      </trkpt>
      <trkpt lat="43.27002" lon="-0.86024">
        <ele>266.45</ele>
        <time>2024-05-30T19:54:30.756Z</time>
      </trkpt>
      <trkpt lat="43.27062" lon="-0.86091">
        <ele>261.85</ele>
        <time>2024-05-30T19:54:36.637Z</time>
      </trkpt>
      <trkpt lat="43.27147" lon="-0.86168">
        <ele>257.43</ele>
        <time>2024-05-30T19:54:42.537Z</time>
      </trkpt>
      <trkpt lat="43.27301" lon="-0.86269">
        <ele>251.96</ele>
        <time>2024-05-30T19:54:48.469Z</time>
      </trkpt>
      <trkpt lat="43.27341" lon="-0.86283">
        <ele>247.34</ele>
        <time>2024-05-30T19:54:54.409Z</time>
      </trkpt>
      <trkpt lat="43.27371" lon="-0.86288">
        <ele>242.72</ele>
        <time>2024-05-30T19:55:00.354Z</time>
      </trkpt>
      <trkpt lat="43.27492" lon="-0.86263">
        <ele>237.47</ele>
        <time>2024-05-30T19:55:06.322Z</time>
      </trkpt>
      <trkpt lat="43.27587" lon="-0.86271">
        <ele>232.6</ele>
        <time>2024-05-30T19:55:12.308Z</time>
      </trkpt>
      <trkpt lat="43.276" lon="-0.8627">
        <ele>227.95</ele>
        <time>2024-05-30T19:55:18.296Z</time>
      </trkpt>
      <trkpt lat="43.27616" lon="-0.86262">
        <ele>223.38</ele>
        <time>2024-05-30T19:55:24.287Z</time>
      </trkpt>
      <trkpt lat="43.2764" lon="-0.86238">
        <ele>218.83</ele>
        <time>2024-05-30T19:55:30.284Z</time>
      </trkpt>
      <trkpt lat="43.2767" lon="-0.86214">
        <ele>214.4</ele>
        <time>2024-05-30T19:55:36.287Z</time>
      </trkpt>
      <trkpt lat="43.27689" lon="-0.86203">
        <ele>210.26</ele>
        <time>2024-05-30T19:55:42.294Z</time>
      </trkpt>
      <trkpt lat="43.27722" lon="-0.86192">
        <ele>206.17</ele>
        <time>2024-05-30T19:55:48.308Z</time>
      </trkpt>
      <trkpt lat="43.27784" lon="-0.86182">
        <ele>202.02</ele>
        <time>2024-05-30T19:55:54.333Z</time>
      </trkpt>
      <trkpt lat="43.27804" lon="-0.86172">
        <ele>198.37</ele>
        <time>2024-05-30T19:56:00.362Z</time>
      </trkpt>
      <trkpt lat="43.27817" lon="-0.86171">
        <ele>194.91</ele>
        <time>2024-05-30T19:56:06.393Z</time>
      </trkpt>
      <trkpt lat="43.27831" lon="-0.86175">
        <ele>191.59</ele>
        <time>2024-05-30T19:56:12.427Z</time>
      </trkpt>
      <trkpt lat="43.27844" lon="-0.86189">
        <ele>188.43</ele>
        <time>2024-05-30T19:56:18.464Z</time>
      </trkpt>
      <trkpt lat="43.28001" lon="-0.86441">
        <ele>184.56</ele>
        <time>2024-05-30T19:56:24.546Z</time>
      </trkpt>
      <trkpt lat="43.28014" lon="-0.86472">
        <ele>181.59</ele>
        <time>2024-05-30T19:56:30.633Z</time>
      </trkpt>
      <trkpt lat="43.28024" lon="-0.86528">
        <ele>178.77</ele>
        <time>2024-05-30T19:56:36.728Z</time>
      </trkpt>
      <trkpt lat="43.28021" lon="-0.86563">
        <ele>176.12</ele>
        <time>2024-05-30T19:56:42.828Z</time>
      </trkpt>
      <trkpt lat="43.28013" lon="-0.86595">
        <ele>173.66</ele>
        <time>2024-05-30T19:56:48.932Z</time>
      </trkpt>
      <trkpt lat="43.28004" lon="-0.86622">
        <ele>171.44</ele>
        <time>2024-05-30T19:56:55.040Z</time>
      </trkpt>
      <trkpt lat="43.27992" lon="-0.86647">
        <ele>169.47</ele>
        <time>2024-05-30T19:57:01.152Z</time>
      </trkpt>
      <trkpt lat="43.27937" lon="-0.86748">
        <ele>167.04</ele>
        <time>2024-05-30T19:57:07.282Z</time>
      </trkpt>
      <trkpt lat="43.27925" lon="-0.86755">
        <ele>165.28</ele>
        <time>2024-05-30T19:57:13.414Z</time>
      </trkpt>
      <trkpt lat="43.27915" lon="-0.86755">
        <ele>163.72</ele>
        <time>2024-05-30T19:57:19.548Z</time>
      </trkpt>
      <trkpt lat="43.27905" lon="-0.86736">
        <ele>162.37</ele>
        <time>2024-05-30T19:57:25.685Z</time>
      </trkpt>
      <trkpt lat="43.27895" lon="-0.86643">
        <ele>161.31</ele>
        <time>2024-05-30T19:57:31.835Z</time>
      </trkpt>
      <trkpt lat="43.27887" lon="-0.86618">
        <ele>160.12</ele>
        <time>2024-05-30T19:57:37.989Z</time>
      </trkpt>
      <trkpt lat="43.27875" lon="-0.86598">
        <ele>159.03</ele>
        <time>2024-05-30T19:57:44.146Z</time>
      </trkpt>
      <trkpt lat="43.27859" lon="-0.8658">
        <ele>157.93</ele>
        <time>2024-05-30T19:57:50.307Z</time>
      </trkpt>
      <trkpt lat="43.27849" lon="-0.86553">
        <ele>157.03</ele>
        <time>2024-05-30T19:57:56.472Z</time>
      </trkpt>
      <trkpt lat="43.27833" lon="-0.86494">
        <ele>156.16</ele>
        <time>2024-05-30T19:58:02.646Z</time>
      </trkpt>
      <trkpt lat="43.27828" lon="-0.86484">
        <ele>155.27</ele>
        <time>2024-05-30T19:58:08.821Z</time>
      </trkpt>
      <trkpt lat="43.27822" lon="-0.86481">
        <ele>154.4</ele>
        <time>2024-05-30T19:58:14.997Z</time>
      </trkpt>
      <trkpt lat="43.27816" lon="-0.86483">
        <ele>153.48</ele>
        <time>2024-05-30T19:58:21.175Z</time>
      </trkpt>
      <trkpt lat="43.27806" lon="-0.86497">
        <ele>152.55</ele>
        <time>2024-05-30T19:58:27.355Z</time>
      </trkpt>
      <trkpt lat="43.27801" lon="-0.86523">
        <ele>151.47</ele>
        <time>2024-05-30T19:58:33.539Z</time>
      </trkpt>
      <trkpt lat="43.278" lon="-0.86586">
        <ele>150.05</ele>
        <time>2024-05-30T19:58:39.731Z</time>
      </trkpt>
      <trkpt lat="43.27805" lon="-0.86617">
        <ele>148.71</ele>
        <time>2024-05-30T19:58:45.928Z</time>
      </trkpt>
      <trkpt lat="43.27829" lon="-0.86731">
        <ele>146.99</ele>
        <time>2024-05-30T19:58:52.141Z</time>
      </trkpt>
      <trkpt lat="43.27833" lon="-0.86759">
        <ele>145.46</ele>
        <time>2024-05-30T19:58:58.358Z</time>
      </trkpt>
      <trkpt lat="43.27835" lon="-0.86869">
        <ele>143.31</ele>
        <time>2024-05-30T19:59:04.590Z</time>
      </trkpt>
      <trkpt lat="43.27832" lon="-0.8697">
        <ele>141.38</ele>
        <time>2024-05-30T19:59:10.835Z</time>
      </trkpt>
      <trkpt lat="43.27827" lon="-0.87005">
        <ele>139.61</ele>
        <time>2024-05-30T19:59:17.085Z</time>
      </trkpt>
      <trkpt lat="43.27811" lon="-0.8706">
        <ele>137.89</ele>
        <time>2024-05-30T19:59:23.343Z</time>
      </trkpt>
      <trkpt lat="43.27797" lon="-0.87098">
        <ele>136.01</ele>
        <time>2024-05-30T19:59:29.607Z</time>
      </trkpt>
      <trkpt lat="43.278" lon="-0.87122">
        <ele>133.89</ele>
        <time>2024-05-30T19:59:35.874Z</time>
      </trkpt>
      <trkpt lat="43.27802" lon="-0.87129">
        <ele>131.92</ele>
        <time>2024-05-30T19:59:42.142Z</time>
      </trkpt>
      <trkpt lat="43.27805" lon="-0.87138">
        <ele>129.92</ele>
        <time>2024-05-30T19:59:48.412Z</time>
      </trkpt>
      <trkpt lat="43.27813" lon="-0.87153">
        <ele>127.86</ele>
        <time>2024-05-30T19:59:54.684Z</time>
      </trkpt>
      <trkpt lat="43.27834" lon="-0.87176">
        <ele>125.86</ele>
        <time>2024-05-30T20:00:00.961Z</time>
      </trkpt>
      <trkpt lat="43.2785" lon="-0.87186">
        <ele>124.04</ele>
        <time>2024-05-30T20:00:07.242Z</time>
      </trkpt>
      <trkpt lat="43.27893" lon="-0.87199">
        <ele>122.3</ele>
        <time>2024-05-30T20:00:13.531Z</time>
      </trkpt>
      <trkpt lat="43.27918" lon="-0.87211">
        <ele>120.35</ele>
        <time>2024-05-30T20:00:19.825Z</time>
      </trkpt>
      <trkpt lat="43.28175" lon="-0.87371">
        <ele>117.49</ele>
        <time>2024-05-30T20:00:26.171Z</time>
      </trkpt>
      <trkpt lat="43.2824" lon="-0.87404">
        <ele>116.04</ele>
        <time>2024-05-30T20:00:32.530Z</time>
      </trkpt>
      <trkpt lat="43.28301" lon="-0.87436">
        <ele>114.4</ele>
        <time>2024-05-30T20:00:38.901Z</time>
      </trkpt>
      <trkpt lat="43.28305" lon="-0.8744">
        <ele>113.14</ele>
        <time>2024-05-30T20:00:45.273Z</time>
      </trkpt>
      <trkpt lat="43.2832" lon="-0.87454">
        <ele>112.12</ele>
        <time>2024-05-30T20:00:51.649Z</time>
      </trkpt>
      <trkpt lat="43.28304" lon="-0.87479">
        <ele>111.19</ele>
        <time>2024-05-30T20:00:58.029Z</time>
      </trkpt>
      <trkpt lat="43.28294" lon="-0.87498">
        <ele>110.47</ele>
        <time>2024-05-30T20:01:04.412Z</time>
      </trkpt>
      <trkpt lat="43.28286" lon="-0.87517">
        <ele>109.88</ele>
        <time>2024-05-30T20:01:10.798Z</time>
      </trkpt>
      <trkpt lat="43.28255" lon="-0.87605">
        <ele>109.27</ele>
        <time>2024-05-30T20:01:17.198Z</time>
      </trkpt>
      <trkpt lat="43.2824" lon="-0.87638">
        <ele>108.9</ele>
        <time>2024-05-30T20:01:23.603Z</time>
      </trkpt>
      <trkpt lat="43.28228" lon="-0.87657">
        <ele>108.67</ele>
        <time>2024-05-30T20:01:30.011Z</time>
      </trkpt>
      <trkpt lat="43.28206" lon="-0.87681">
        <ele>108.59</ele>
        <time>2024-05-30T20:01:36.424Z</time>
      </trkpt>
      <trkpt lat="43.28188" lon="-0.87696">
        <ele>108.64</ele>
        <time>2024-05-30T20:01:42.841Z</time>
      </trkpt>
      <trkpt lat="43.28172" lon="-0.87705">
        <ele>108.71</ele>
        <time>2024-05-30T20:01:49.262Z</time>
      </trkpt>
      <trkpt lat="43.2815" lon="-0.87712">
        <ele>108.88</ele>
        <time>2024-05-30T20:01:55.687Z</time>
      </trkpt>
      <trkpt lat="43.28129" lon="-0.87716">
        <ele>109.15</ele>
        <time>2024-05-30T20:02:02.116Z</time>
      </trkpt>
      <trkpt lat="43.28109" lon="-0.87716">
        <ele>109.51</ele>
        <time>2024-05-30T20:02:08.548Z</time>
      </trkpt>
      <trkpt lat="43.28038" lon="-0.87714">
        <ele>109.91</ele>
        <time>2024-05-30T20:02:14.994Z</time>
      </trkpt>
      <trkpt lat="43.28017" lon="-0.87708">
        <ele>110.3</ele>
        <time>2024-05-30T20:02:21.444Z</time>
      </trkpt>
      <trkpt lat="43.2778" lon="-0.87609">
        <ele>110.83</ele>
        <time>2024-05-30T20:02:27.940Z</time>
      </trkpt>
      <trkpt lat="43.27704" lon="-0.87588">
        <ele>111.33</ele>
        <time>2024-05-30T20:02:34.450Z</time>
      </trkpt>
      <trkpt lat="43.27291" lon="-0.8749">
        <ele>112.08</ele>
        <time>2024-05-30T20:02:41.038Z</time>
      </trkpt>
      <trkpt lat="43.27266" lon="-0.8749">
        <ele>112.72</ele>
        <time>2024-05-30T20:02:47.631Z</time>
      </trkpt>
      <trkpt lat="43.27232" lon="-0.875">
        <ele>113.34</ele>
        <time>2024-05-30T20:02:54.230Z</time>
      </trkpt>
      <trkpt lat="43.27186" lon="-0.87515">
        <ele>113.93</ele>
        <time>2024-05-30T20:03:00.838Z</time>
      </trkpt>
      <trkpt lat="43.27129" lon="-0.87537">
        <ele>114.51</ele>
        <time>2024-05-30T20:03:07.457Z</time>
      </trkpt>
      <trkpt lat="43.27101" lon="-0.87551">
        <ele>115.2</ele>
        <time>2024-05-30T20:03:14.082Z</time>
      </trkpt>
      <trkpt lat="43.2708" lon="-0.87569">
        <ele>115.84</ele>
        <time>2024-05-30T20:03:20.711Z</time>
      </trkpt>
      <trkpt lat="43.27076" lon="-0.87574">
        <ele>116.47</ele>
        <time>2024-05-30T20:03:27.341Z</time>
      </trkpt>
      <trkpt lat="43.27068" lon="-0.87585">
        <ele>117.1</ele>
        <time>2024-05-30T20:03:33.973Z</time>
      </trkpt>
      <trkpt lat="43.27056" lon="-0.87605">
        <ele>117.71</ele>
        <time>2024-05-30T20:03:40.609Z</time>
      </trkpt>
      <trkpt lat="43.26929" lon="-0.87849">
        <ele>118.48</ele>
        <time>2024-05-30T20:03:47.286Z</time>
      </trkpt>
      <trkpt lat="43.26919" lon="-0.87865">
        <ele>119.02</ele>
        <time>2024-05-30T20:03:53.965Z</time>
      </trkpt>
      <trkpt lat="43.26902" lon="-0.87886">
        <ele>119.58</ele>
        <time>2024-05-30T20:04:00.649Z</time>
      </trkpt>
      <trkpt lat="43.26879" lon="-0.87906">
        <ele>120.16</ele>
        <time>2024-05-30T20:04:07.338Z</time>
      </trkpt>
      <trkpt lat="43.26792" lon="-0.87964">
        <ele>120.88</ele>
        <time>2024-05-30T20:04:14.045Z</time>
      </trkpt>
      <trkpt lat="43.26785" lon="-0.87972">
        <ele>121.33</ele>
        <time>2024-05-30T20:04:20.753Z</time>
      </trkpt>
      <trkpt lat="43.26766" lon="-0.87984">
        <ele>121.75</ele>
        <time>2024-05-30T20:04:27.465Z</time>
      </trkpt>
      <trkpt lat="43.2675" lon="-0.87989">
        <ele>122.14</ele>
        <time>2024-05-30T20:04:34.180Z</time>
      </trkpt>
      <trkpt lat="43.26735" lon="-0.87988">
        <ele>122.46</ele>
        <time>2024-05-30T20:04:40.898Z</time>
      </trkpt>
      <trkpt lat="43.26708" lon="-0.87982">
        <ele>122.69</ele>
        <time>2024-05-30T20:04:47.621Z</time>
      </trkpt>
      <trkpt lat="43.26656" lon="-0.87975">
        <ele>122.88</ele>
        <time>2024-05-30T20:04:54.354Z</time>
      </trkpt>
      <trkpt lat="43.26642" lon="-0.87975">
        <ele>123.05</ele>
        <time>2024-05-30T20:05:01.090Z</time>
      </trkpt>
      <trkpt lat="43.26623" lon="-0.87979">
        <ele>123.21</ele>
        <time>2024-05-30T20:05:07.829Z</time>
      </trkpt>
      <trkpt lat="43.266" lon="-0.87989">
        <ele>123.36</ele>
        <time>2024-05-30T20:05:14.573Z</time>
      </trkpt>
      <trkpt lat="43.2648" lon="-0.88062">
        <ele>123.59</ele>
        <time>2024-05-30T20:05:21.341Z</time>
      </trkpt>
      <trkpt lat="43.26436" lon="-0.88083">
        <ele>123.69</ele>
        <time>2024-05-30T20:05:28.118Z</time>
      </trkpt>
      <trkpt lat="43.26408" lon="-0.88089">
        <ele>123.82</ele>
        <time>2024-05-30T20:05:34.900Z</time>
      </trkpt>
      <trkpt lat="43.26373" lon="-0.88094">
        <ele>123.9</ele>
        <time>2024-05-30T20:05:41.689Z</time>
      </trkpt>
      <trkpt lat="43.26291" lon="-0.88103">
        <ele>123.95</ele>
        <time>2024-05-30T20:05:48.493Z</time>
      </trkpt>
      <trkpt lat="43.26252" lon="-0.88098">
        <ele>123.92</ele>
        <time>2024-05-30T20:05:55.304Z</time>
      </trkpt>
      <trkpt lat="43.26067" lon="-0.88053">
        <ele>123.84</ele>
        <time>2024-05-30T20:06:02.150Z</time>
      </trkpt>
      <trkpt lat="43.26043" lon="-0.88044">
        <ele>123.75</ele>
        <time>2024-05-30T20:06:09.001Z</time>
      </trkpt>
      <trkpt lat="43.2601" lon="-0.88028">
        <ele>123.71</ele>
        <time>2024-05-30T20:06:15.858Z</time>
      </trkpt>
      <trkpt lat="43.25952" lon="-0.87996">
        <ele>123.9</ele>
        <time>2024-05-30T20:06:22.727Z</time>
      </trkpt>
      <trkpt lat="43.25933" lon="-0.87981">
        <ele>123.85</ele>
        <time>2024-05-30T20:06:29.600Z</time>
      </trkpt>
      <trkpt lat="43.25873" lon="-0.87918">
        <ele>123.81</ele>
        <time>2024-05-30T20:06:36.487Z</time>
      </trkpt>
      <trkpt lat="43.25856" lon="-0.87911">
        <ele>123.82</ele>
        <time>2024-05-30T20:06:43.377Z</time>
      </trkpt>
      <trkpt lat="43.25836" lon="-0.87907">
        <ele>123.91</ele>
        <time>2024-05-30T20:06:50.271Z</time>
      </trkpt>
      <trkpt lat="43.25801" lon="-0.87911">
        <ele>123.98</ele>
        <time>2024-05-30T20:06:57.172Z</time>
      </trkpt>
      <trkpt lat="43.25716" lon="-0.87957">
        <ele>123.88</ele>
        <time>2024-05-30T20:07:04.090Z</time>
      </trkpt>
      <trkpt lat="43.25692" lon="-0.87965">
        <ele>123.94</ele>
        <time>2024-05-30T20:07:11.012Z</time>
      </trkpt>
      <trkpt lat="43.25658" lon="-0.87965">
        <ele>124</ele>
        <time>2024-05-30T20:07:17.941Z</time>
      </trkpt>
      <trkpt lat="43.25618" lon="-0.87957">
        <ele>124.26</ele>
        <time>2024-05-30T20:07:24.877Z</time>
      </trkpt>
      <trkpt lat="43.25546" lon="-0.87947">
        <ele>124.47</ele>
        <time>2024-05-30T20:07:31.827Z</time>
      </trkpt>
      <trkpt lat="43.25485" lon="-0.87943">
        <ele>124.64</ele>
        <time>2024-05-30T20:07:38.788Z</time>
      </trkpt>
      <trkpt lat="43.25184" lon="-0.87916">
        <ele>124.89</ele>
        <time>2024-05-30T20:07:45.805Z</time>
      </trkpt>
      <trkpt lat="43.25049" lon="-0.87878">
        <ele>125.04</ele>
        <time>2024-05-30T20:07:52.848Z</time>
      </trkpt>
      <trkpt lat="43.25014" lon="-0.87864">
        <ele>125.25</ele>
        <time>2024-05-30T20:07:59.897Z</time>
      </trkpt>
      <trkpt lat="43.24934" lon="-0.87818">
        <ele>125.33</ele>
        <time>2024-05-30T20:08:06.963Z</time>
      </trkpt>
      <trkpt lat="43.2491" lon="-0.87807">
        <ele>125.55</ele>
        <time>2024-05-30T20:08:14.033Z</time>
      </trkpt>
      <trkpt lat="43.24887" lon="-0.87799">
        <ele>125.72</ele>
        <time>2024-05-30T20:08:21.108Z</time>
      </trkpt>
      <trkpt lat="43.24785" lon="-0.87784">
        <ele>126.02</ele>
        <time>2024-05-30T20:08:28.202Z</time>
      </trkpt>
      <trkpt lat="43.24746" lon="-0.87784">
        <ele>126.2</ele>
        <time>2024-05-30T20:08:35.303Z</time>
      </trkpt>
      <trkpt lat="43.24706" lon="-0.87793">
        <ele>126.45</ele>
        <time>2024-05-30T20:08:42.412Z</time>
      </trkpt>
      <trkpt lat="43.24539" lon="-0.87871">
        <ele>126.78</ele>
        <time>2024-05-30T20:08:49.553Z</time>
      </trkpt>
      <trkpt lat="43.24506" lon="-0.87879">
        <ele>126.98</ele>
        <time>2024-05-30T20:08:56.701Z</time>
      </trkpt>
      <trkpt lat="43.24433" lon="-0.87881">
        <ele>126.99</ele>
        <time>2024-05-30T20:09:03.862Z</time>
      </trkpt>
      <trkpt lat="43.24433" lon="-0.87915">
        <ele>127.18</ele>
        <time>2024-05-30T20:09:11.028Z</time>
      </trkpt>
      <trkpt lat="43.24431" lon="-0.87925">
        <ele>127.36</ele>
        <time>2024-05-30T20:09:18.195Z</time>
      </trkpt>
      <trkpt lat="43.24424" lon="-0.87931">
        <ele>127.57</ele>
        <time>2024-05-30T20:09:25.364Z</time>
      </trkpt>
      <trkpt lat="43.24379" lon="-0.87955">
        <ele>127.91</ele>
        <time>2024-05-30T20:09:32.542Z</time>
      </trkpt>
      <trkpt lat="43.24342" lon="-0.87988">
        <ele>128.12</ele>
        <time>2024-05-30T20:09:39.728Z</time>
      </trkpt>
      <trkpt lat="43.24263" lon="-0.88071">
        <ele>128.64</ele>
        <time>2024-05-30T20:09:46.933Z</time>
      </trkpt>
      <trkpt lat="43.24237" lon="-0.88095">
        <ele>128.86</ele>
        <time>2024-05-30T20:09:54.143Z</time>
      </trkpt>
      <trkpt lat="43.24225" lon="-0.88101">
        <ele>129.06</ele>
        <time>2024-05-30T20:10:01.356Z</time>
      </trkpt>
      <trkpt lat="43.2419" lon="-0.8811">
        <ele>129.23</ele>
        <time>2024-05-30T20:10:08.575Z</time>
      </trkpt>
      <trkpt lat="43.24181" lon="-0.88105">
        <ele>129.53</ele>
        <time>2024-05-30T20:10:15.796Z</time>
      </trkpt>
      <trkpt lat="43.24183" lon="-0.88138">
        <ele>130.04</ele>
        <time>2024-05-30T20:10:23.022Z</time>
      </trkpt>
      <trkpt lat="43.24181" lon="-0.88146">
        <ele>130.53</ele>
        <time>2024-05-30T20:10:30.249Z</time>
      </trkpt>
      <trkpt lat="43.24179" lon="-0.8815">
        <ele>131.09</ele>
        <time>2024-05-30T20:10:37.477Z</time>
      </trkpt>
      <trkpt lat="43.24172" lon="-0.88154">
        <ele>131.73</ele>
        <time>2024-05-30T20:10:44.706Z</time>
      </trkpt>
      <trkpt lat="43.24133" lon="-0.88164">
        <ele>132.52</ele>
        <time>2024-05-30T20:10:51.942Z</time>
      </trkpt>
      <trkpt lat="43.24015" lon="-0.88224">
        <ele>133.39</ele>
        <time>2024-05-30T20:10:59.202Z</time>
      </trkpt>
      <trkpt lat="43.24005" lon="-0.88231">
        <ele>134.36</ele>
        <time>2024-05-30T20:11:06.464Z</time>
      </trkpt>
      <trkpt lat="43.23991" lon="-0.88244">
        <ele>135.48</ele>
        <time>2024-05-30T20:11:13.729Z</time>
      </trkpt>
      <trkpt lat="43.23978" lon="-0.8827">
        <ele>136.76</ele>
        <time>2024-05-30T20:11:20.998Z</time>
      </trkpt>
      <trkpt lat="43.23963" lon="-0.88282">
        <ele>138.2</ele>
        <time>2024-05-30T20:11:28.270Z</time>
      </trkpt>
      <trkpt lat="43.23955" lon="-0.88286">
        <ele>139.76</ele>
        <time>2024-05-30T20:11:35.544Z</time>
      </trkpt>
      <trkpt lat="43.23945" lon="-0.88288">
        <ele>141.5</ele>
        <time>2024-05-30T20:11:42.820Z</time>
      </trkpt>
      <trkpt lat="43.23901" lon="-0.88275">
        <ele>143.56</ele>
        <time>2024-05-30T20:11:50.104Z</time>
      </trkpt>
      <trkpt lat="43.23889" lon="-0.88273">
        <ele>145.59</ele>
        <time>2024-05-30T20:11:57.391Z</time>
      </trkpt>
      <trkpt lat="43.23877" lon="-0.88273">
        <ele>147.78</ele>
        <time>2024-05-30T20:12:04.680Z</time>
      </trkpt>
      <trkpt lat="43.2383" lon="-0.88283">
        <ele>150.18</ele>
        <time>2024-05-30T20:12:11.978Z</time>
      </trkpt>
      <trkpt lat="43.23809" lon="-0.88286">
        <ele>152.91</ele>
        <time>2024-05-30T20:12:19.280Z</time>
      </trkpt>
      <trkpt lat="43.23791" lon="-0.88284">
        <ele>155.76</ele>
        <time>2024-05-30T20:12:26.585Z</time>
      </trkpt>
      <trkpt lat="43.23768" lon="-0.88278">
        <ele>158.8</ele>
        <time>2024-05-30T20:12:33.894Z</time>
      </trkpt>
      <trkpt lat="43.23731" lon="-0.88282">
        <ele>161.91</ele>
        <time>2024-05-30T20:12:41.210Z</time>
      </trkpt>
      <trkpt lat="43.23725" lon="-0.88284">
        <ele>164.86</ele>
        <time>2024-05-30T20:12:48.527Z</time>
      </trkpt>
      <trkpt lat="43.23661" lon="-0.88308">
        <ele>168.1</ele>
        <time>2024-05-30T20:12:55.857Z</time>
      </trkpt>
      <trkpt lat="43.2365" lon="-0.88315">
        <ele>171.2</ele>
        <time>2024-05-30T20:13:03.189Z</time>
      </trkpt>
      <trkpt lat="43.23644" lon="-0.88323">
        <ele>174.31</ele>
        <time>2024-05-30T20:13:10.523Z</time>
      </trkpt>
      <trkpt lat="43.23633" lon="-0.88343">
        <ele>177.5</ele>
        <time>2024-05-30T20:13:17.860Z</time>
      </trkpt>
      <trkpt lat="43.23631" lon="-0.88357">
        <ele>180.63</ele>
        <time>2024-05-30T20:13:25.199Z</time>
      </trkpt>
      <trkpt lat="43.2363" lon="-0.88412">
        <ele>183.98</ele>
        <time>2024-05-30T20:13:32.545Z</time>
      </trkpt>
      <trkpt lat="43.23625" lon="-0.88482">
        <ele>187.27</ele>
        <time>2024-05-30T20:13:39.901Z</time>
      </trkpt>
      <trkpt lat="43.23619" lon="-0.88535">
        <ele>190.31</ele>
        <time>2024-05-30T20:13:47.264Z</time>
      </trkpt>
      <trkpt lat="43.23615" lon="-0.88592">
        <ele>193.19</ele>
        <time>2024-05-30T20:13:54.635Z</time>
      </trkpt>
      <trkpt lat="43.23603" lon="-0.88648">
        <ele>195.8</ele>
        <time>2024-05-30T20:14:02.014Z</time>
      </trkpt>
      <trkpt lat="43.23602" lon="-0.88661">
        <ele>198.18</ele>
        <time>2024-05-30T20:14:09.395Z</time>
      </trkpt>
      <trkpt lat="43.23601" lon="-0.88683">
        <ele>200.38</ele>
        <time>2024-05-30T20:14:16.779Z</time>
      </trkpt>
      <trkpt lat="43.23605" lon="-0.88751">
        <ele>202.5</ele>
        <time>2024-05-30T20:14:24.172Z</time>
      </trkpt>
      <trkpt lat="43.23605" lon="-0.88767">
        <ele>204.33</ele>
        <time>2024-05-30T20:14:31.567Z</time>
      </trkpt>
      <trkpt lat="43.23598" lon="-0.88828">
        <ele>206.04</ele>
        <time>2024-05-30T20:14:38.971Z</time>
      </trkpt>
      <trkpt lat="43.23596" lon="-0.88863">
        <ele>207.34</ele>
        <time>2024-05-30T20:14:46.379Z</time>
      </trkpt>
      <trkpt lat="43.23599" lon="-0.88895">
        <ele>208.43</ele>
        <time>2024-05-30T20:14:53.792Z</time>
      </trkpt>
      <trkpt lat="43.23607" lon="-0.88948">
        <ele>209.29</ele>
        <time>2024-05-30T20:15:01.212Z</time>
      </trkpt>
      <trkpt lat="43.23603" lon="-0.88999">
        <ele>210</ele>
        <time>2024-05-30T20:15:08.639Z</time>
      </trkpt>
      <trkpt lat="43.23596" lon="-0.89024">
        <ele>210.26</ele>
        <time>2024-05-30T20:15:16.070Z</time>
      </trkpt>
      <trkpt lat="43.23583" lon="-0.89062">
        <ele>210.22</ele>
        <time>2024-05-30T20:15:23.506Z</time>
      </trkpt>
      <trkpt lat="43.23557" lon="-0.8912">
        <ele>210.07</ele>
        <time>2024-05-30T20:15:30.952Z</time>
      </trkpt>
      <trkpt lat="43.23516" lon="-0.89227">
        <ele>209.59</ele>
        <time>2024-05-30T20:15:38.414Z</time>
      </trkpt>
      <trkpt lat="43.23505" lon="-0.89244">
        <ele>208.76</ele>
        <time>2024-05-30T20:15:45.879Z</time>
      </trkpt>
      <trkpt lat="43.23502" lon="-0.89238">
        <ele>207.53</ele>
        <time>2024-05-30T20:15:53.345Z</time>
      </trkpt>
      <trkpt lat="43.23495" lon="-0.89228">
        <ele>206.05</ele>
        <time>2024-05-30T20:16:00.813Z</time>
      </trkpt>
      <trkpt lat="43.234" lon="-0.89154">
        <ele>203.34</ele>
        <time>2024-05-30T20:16:08.301Z</time>
      </trkpt>
      <trkpt lat="43.23321" lon="-0.89084">
        <ele>201.14</ele>
        <time>2024-05-30T20:16:15.807Z</time>
      </trkpt>
      <trkpt lat="43.233" lon="-0.89073">
        <ele>199.09</ele>
        <time>2024-05-30T20:16:23.317Z</time>
      </trkpt>
      <trkpt lat="43.23225" lon="-0.89054">
        <ele>197.12</ele>
        <time>2024-05-30T20:16:30.841Z</time>
      </trkpt>
      <trkpt lat="43.23195" lon="-0.89055">
        <ele>194.95</ele>
        <time>2024-05-30T20:16:38.371Z</time>
      </trkpt>
      <trkpt lat="43.22975" lon="-0.89081">
        <ele>191.61</ele>
        <time>2024-05-30T20:16:45.942Z</time>
      </trkpt>
      <trkpt lat="43.22957" lon="-0.89086">
        <ele>189.2</ele>
        <time>2024-05-30T20:16:53.516Z</time>
      </trkpt>
      <trkpt lat="43.2294" lon="-0.89097">
        <ele>186.8</ele>
        <time>2024-05-30T20:17:01.094Z</time>
      </trkpt>
      <trkpt lat="43.2293" lon="-0.89111">
        <ele>184.49</ele>
        <time>2024-05-30T20:17:08.675Z</time>
      </trkpt>
      <trkpt lat="43.22918" lon="-0.89133">
        <ele>182.24</ele>
        <time>2024-05-30T20:17:16.259Z</time>
      </trkpt>
      <trkpt lat="43.22896" lon="-0.89184">
        <ele>180.1</ele>
        <time>2024-05-30T20:17:23.851Z</time>
      </trkpt>
      <trkpt lat="43.22888" lon="-0.89194">
        <ele>178.3</ele>
        <time>2024-05-30T20:17:31.445Z</time>
      </trkpt>
      <trkpt lat="43.22883" lon="-0.89197">
        <ele>176.63</ele>
        <time>2024-05-30T20:17:39.040Z</time>
      </trkpt>
      <trkpt lat="43.22872" lon="-0.89197">
        <ele>175.14</ele>
        <time>2024-05-30T20:17:46.637Z</time>
      </trkpt>
      <trkpt lat="43.22854" lon="-0.89188">
        <ele>173.82</ele>
        <time>2024-05-30T20:17:54.238Z</time>
      </trkpt>
      <trkpt lat="43.22828" lon="-0.89183">
        <ele>172.69</ele>
        <time>2024-05-30T20:18:01.844Z</time>
      </trkpt>
      <trkpt lat="43.22813" lon="-0.89183">
        <ele>171.72</ele>
        <time>2024-05-30T20:18:09.453Z</time>
      </trkpt>
      <trkpt lat="43.22785" lon="-0.89191">
        <ele>170.95</ele>
        <time>2024-05-30T20:18:17.067Z</time>
      </trkpt>
      <trkpt lat="43.22749" lon="-0.89207">
        <ele>170.41</ele>
        <time>2024-05-30T20:18:24.688Z</time>
      </trkpt>
      <trkpt lat="43.22706" lon="-0.89243">
        <ele>169.74</ele>
        <time>2024-05-30T20:18:32.318Z</time>
      </trkpt>
      <trkpt lat="43.22639" lon="-0.89304">
        <ele>169.01</ele>
        <time>2024-05-30T20:18:39.963Z</time>
      </trkpt>
      <trkpt lat="43.2263" lon="-0.89316">
        <ele>168.69</ele>
        <time>2024-05-30T20:18:47.611Z</time>
      </trkpt>
      <trkpt lat="43.22621" lon="-0.89337">
        <ele>168.48</ele>
        <time>2024-05-30T20:18:55.262Z</time>
      </trkpt>
      <trkpt lat="43.22613" lon="-0.89385">
        <ele>168.41</ele>
        <time>2024-05-30T20:19:02.920Z</time>
      </trkpt>
      <trkpt lat="43.22608" lon="-0.89392">
        <ele>168.48</ele>
        <time>2024-05-30T20:19:10.579Z</time>
      </trkpt>
      <trkpt lat="43.22602" lon="-0.89393">
        <ele>168.64</ele>
        <time>2024-05-30T20:19:18.239Z</time>
      </trkpt>
      <trkpt lat="43.22595" lon="-0.8939">
        <ele>168.93</ele>
        <time>2024-05-30T20:19:25.900Z</time>
      </trkpt>
      <trkpt lat="43.22592" lon="-0.89384">
        <ele>169.26</ele>
        <time>2024-05-30T20:19:33.562Z</time>
      </trkpt>
      <trkpt lat="43.22585" lon="-0.89388">
        <ele>169.65</ele>
        <time>2024-05-30T20:19:41.226Z</time>
      </trkpt>
      <trkpt lat="43.22579" lon="-0.89386">
        <ele>170.06</ele>
        <time>2024-05-30T20:19:48.891Z</time>
      </trkpt>
      <trkpt lat="43.22557" lon="-0.89342">
        <ele>170.65</ele>
        <time>2024-05-30T20:19:56.563Z</time>
      </trkpt>
      <trkpt lat="43.22547" lon="-0.89328">
        <ele>171.05</ele>
        <time>2024-05-30T20:20:04.238Z</time>
      </trkpt>
      <trkpt lat="43.22533" lon="-0.89315">
        <ele>171.39</ele>
        <time>2024-05-30T20:20:11.916Z</time>
      </trkpt>
      <trkpt lat="43.22521" lon="-0.89312">
        <ele>171.71</ele>
        <time>2024-05-30T20:20:19.596Z</time>
      </trkpt>
      <trkpt lat="43.22513" lon="-0.89314">
        <ele>171.92</ele>
        <time>2024-05-30T20:20:27.278Z</time>
      </trkpt>
      <trkpt lat="43.22507" lon="-0.89325">
        <ele>172.2</ele>
        <time>2024-05-30T20:20:34.962Z</time>
      </trkpt>
      <trkpt lat="43.22504" lon="-0.89334">
        <ele>172.37</ele>
        <time>2024-05-30T20:20:42.647Z</time>
      </trkpt>
      <trkpt lat="43.22503" lon="-0.89355">
        <ele>172.45</ele>
        <time>2024-05-30T20:20:50.335Z</time>
      </trkpt>
      <trkpt lat="43.22508" lon="-0.8938">
        <ele>172.36</ele>
        <time>2024-05-30T20:20:58.026Z</time>
      </trkpt>
      <trkpt lat="43.22498" lon="-0.89386">
        <ele>172.09</ele>
        <time>2024-05-30T20:21:05.720Z</time>
      </trkpt>
      <trkpt lat="43.22473" lon="-0.89406">
        <ele>171.67</ele>
        <time>2024-05-30T20:21:13.419Z</time>
      </trkpt>
      <trkpt lat="43.22465" lon="-0.89411">
        <ele>171.12</ele>
        <time>2024-05-30T20:21:21.120Z</time>
      </trkpt>
      <trkpt lat="43.22448" lon="-0.89416">
        <ele>170.38</ele>
        <time>2024-05-30T20:21:28.824Z</time>
      </trkpt>
      <trkpt lat="43.22442" lon="-0.89415">
        <ele>169.54</ele>
        <time>2024-05-30T20:21:36.529Z</time>
      </trkpt>
      <trkpt lat="43.2242" lon="-0.89404">
        <ele>168.47</ele>
        <time>2024-05-30T20:21:44.238Z</time>
      </trkpt>
      <trkpt lat="43.22389" lon="-0.8939">
        <ele>167.34</ele>
        <time>2024-05-30T20:21:51.953Z</time>
      </trkpt>
      <trkpt lat="43.22377" lon="-0.89388">
        <ele>166.2</ele>
        <time>2024-05-30T20:21:59.671Z</time>
      </trkpt>
      <trkpt lat="43.22322" lon="-0.89388">
        <ele>164.84</ele>
        <time>2024-05-30T20:22:07.399Z</time>
      </trkpt>
      <trkpt lat="43.22278" lon="-0.89396">
        <ele>163.09</ele>
        <time>2024-05-30T20:22:15.135Z</time>
      </trkpt>
      <trkpt lat="43.22268" lon="-0.89399">
        <ele>161.68</ele>
        <time>2024-05-30T20:22:22.873Z</time>
      </trkpt>
      <trkpt lat="43.22255" lon="-0.89408">
        <ele>160.28</ele>
        <time>2024-05-30T20:22:30.614Z</time>
      </trkpt>
      <trkpt lat="43.22244" lon="-0.89423">
        <ele>158.92</ele>
        <time>2024-05-30T20:22:38.358Z</time>
      </trkpt>
      <trkpt lat="43.2224" lon="-0.89426">
        <ele>157.59</ele>
        <time>2024-05-30T20:22:46.102Z</time>
      </trkpt>
      <trkpt lat="43.22235" lon="-0.8942">
        <ele>156.23</ele>
        <time>2024-05-30T20:22:53.848Z</time>
      </trkpt>
      <trkpt lat="43.22228" lon="-0.89432">
        <ele>154.95</ele>
        <time>2024-05-30T20:23:01.596Z</time>
      </trkpt>
      <trkpt lat="43.2221" lon="-0.89455">
        <ele>153.65</ele>
        <time>2024-05-30T20:23:09.348Z</time>
      </trkpt>
      <trkpt lat="43.22199" lon="-0.89461">
        <ele>152.44</ele>
        <time>2024-05-30T20:23:17.103Z</time>
      </trkpt>
      <trkpt lat="43.22183" lon="-0.89463">
        <ele>151.27</ele>
        <time>2024-05-30T20:23:24.861Z</time>
      </trkpt>
      <trkpt lat="43.22167" lon="-0.89456">
        <ele>150.24</ele>
        <time>2024-05-30T20:23:32.622Z</time>
      </trkpt>
      <trkpt lat="43.22157" lon="-0.89447">
        <ele>149.29</ele>
        <time>2024-05-30T20:23:40.385Z</time>
      </trkpt>
      <trkpt lat="43.22148" lon="-0.89435">
        <ele>148.45</ele>
        <time>2024-05-30T20:23:48.150Z</time>
      </trkpt>
      <trkpt lat="43.22139" lon="-0.89419">
        <ele>147.71</ele>
        <time>2024-05-30T20:23:55.918Z</time>
      </trkpt>
      <trkpt lat="43.22141" lon="-0.89415">
        <ele>146.97</ele>
        <time>2024-05-30T20:24:03.687Z</time>
      </trkpt>
      <trkpt lat="43.22138" lon="-0.89409">
        <ele>146.31</ele>
        <time>2024-05-30T20:24:11.457Z</time>
      </trkpt>
      <trkpt lat="43.22133" lon="-0.89411">
        <ele>145.75</ele>
        <time>2024-05-30T20:24:19.228Z</time>
      </trkpt>
      <trkpt lat="43.22105" lon="-0.89382">
        <ele>145.26</ele>
        <time>2024-05-30T20:24:27.005Z</time>
      </trkpt>
      <trkpt lat="43.22075" lon="-0.89361">
        <ele>144.71</ele>
        <time>2024-05-30T20:24:34.788Z</time>
      </trkpt>
      <trkpt lat="43.22036" lon="-0.89346">
        <ele>144.35</ele>
        <time>2024-05-30T20:24:42.579Z</time>
      </trkpt>
      <trkpt lat="43.2201" lon="-0.89341">
        <ele>144.03</ele>
        <time>2024-05-30T20:24:50.375Z</time>
      </trkpt>
      <trkpt lat="43.21979" lon="-0.89338">
        <ele>143.74</ele>
        <time>2024-05-30T20:24:58.177Z</time>
      </trkpt>
      <trkpt lat="43.21934" lon="-0.89341">
        <ele>143.57</ele>
        <time>2024-05-30T20:25:05.987Z</time>
      </trkpt>
      <trkpt lat="43.21903" lon="-0.89348">
        <ele>143.56</ele>
        <time>2024-05-30T20:25:13.803Z</time>
      </trkpt>
      <trkpt lat="43.21868" lon="-0.89362">
        <ele>143.6</ele>
        <time>2024-05-30T20:25:21.626Z</time>
      </trkpt>
      <trkpt lat="43.21778" lon="-0.89411">
        <ele>143.78</ele>
        <time>2024-05-30T20:25:29.467Z</time>
      </trkpt>
      <trkpt lat="43.21744" lon="-0.8943">
        <ele>143.92</ele>
        <time>2024-05-30T20:25:37.314Z</time>
      </trkpt>
      <trkpt lat="43.21739" lon="-0.89442">
        <ele>144.24</ele>
        <time>2024-05-30T20:25:45.163Z</time>
      </trkpt>
      <trkpt lat="43.21731" lon="-0.8945">
        <ele>144.65</ele>
        <time>2024-05-30T20:25:53.014Z</time>
      </trkpt>
      <trkpt lat="43.21722" lon="-0.89452">
        <ele>145.12</ele>
        <time>2024-05-30T20:26:00.867Z</time>
      </trkpt>
      <trkpt lat="43.21712" lon="-0.89449">
        <ele>145.68</ele>
        <time>2024-05-30T20:26:08.722Z</time>
      </trkpt>
      <trkpt lat="43.21701" lon="-0.89453">
        <ele>146.33</ele>
        <time>2024-05-30T20:26:16.579Z</time>
      </trkpt>
      <trkpt lat="43.21678" lon="-0.89466">
        <ele>147.06</ele>
        <time>2024-05-30T20:26:24.441Z</time>
      </trkpt>
      <trkpt lat="43.21673" lon="-0.89471">
        <ele>147.85</ele>
        <time>2024-05-30T20:26:32.304Z</time>
      </trkpt>
      <trkpt lat="43.21498" lon="-0.89653">
        <ele>149.05</ele>
        <time>2024-05-30T20:26:40.208Z</time>
      </trkpt>
      <trkpt lat="43.21484" lon="-0.89675">
        <ele>150</ele>
        <time>2024-05-30T20:26:48.116Z</time>
      </trkpt>
      <trkpt lat="43.21338" lon="-0.90043">
        <ele>151.11</ele>
        <time>2024-05-30T20:26:56.080Z</time>
      </trkpt>
      <trkpt lat="43.21327" lon="-0.90066">
        <ele>151.95</ele>
        <time>2024-05-30T20:27:04.048Z</time>
      </trkpt>
      <trkpt lat="43.21288" lon="-0.90127">
        <ele>152.85</ele>
        <time>2024-05-30T20:27:12.027Z</time>
      </trkpt>
      <trkpt lat="43.21233" lon="-0.90208">
        <ele>154.04</ele>
        <time>2024-05-30T20:27:20.021Z</time>
      </trkpt>
      <trkpt lat="43.20986" lon="-0.90435">
        <ele>155.37</ele>
        <time>2024-05-30T20:27:28.071Z</time>
      </trkpt>
      <trkpt lat="43.20907" lon="-0.9051">
        <ele>156.06</ele>
        <time>2024-05-30T20:27:36.139Z</time>
      </trkpt>
      <trkpt lat="43.20895" lon="-0.90525">
        <ele>156.96</ele>
        <time>2024-05-30T20:27:44.210Z</time>
      </trkpt>
      <trkpt lat="43.2087" lon="-0.90568">
        <ele>157.84</ele>
        <time>2024-05-30T20:27:52.288Z</time>
      </trkpt>
      <trkpt lat="43.20861" lon="-0.90575">
        <ele>158.63</ele>
        <time>2024-05-30T20:28:00.368Z</time>
      </trkpt>
      <trkpt lat="43.2081" lon="-0.90588">
        <ele>159.25</ele>
        <time>2024-05-30T20:28:08.458Z</time>
      </trkpt>
      <trkpt lat="43.20611" lon="-0.90627">
        <ele>160.09</ele>
        <time>2024-05-30T20:28:16.585Z</time>
      </trkpt>
      <trkpt lat="43.20595" lon="-0.90633">
        <ele>160.75</ele>
        <time>2024-05-30T20:28:24.715Z</time>
      </trkpt>
      <trkpt lat="43.20579" lon="-0.90645">
        <ele>161.44</ele>
        <time>2024-05-30T20:28:32.849Z</time>
      </trkpt>
      <trkpt lat="43.20564" lon="-0.90661">
        <ele>162.18</ele>
        <time>2024-05-30T20:28:40.986Z</time>
      </trkpt>
      <trkpt lat="43.20552" lon="-0.90677">
        <ele>162.88</ele>
        <time>2024-05-30T20:28:49.126Z</time>
      </trkpt>
      <trkpt lat="43.20386" lon="-0.9091">
        <ele>163.75</ele>
        <time>2024-05-30T20:28:57.310Z</time>
      </trkpt>
      <trkpt lat="43.20205" lon="-0.91171">
        <ele>164.12</ele>
        <time>2024-05-30T20:29:05.543Z</time>
      </trkpt>
      <trkpt lat="43.20182" lon="-0.91222">
        <ele>164.69</ele>
        <time>2024-05-30T20:29:13.785Z</time>
      </trkpt>
      <trkpt lat="43.20129" lon="-0.91349">
        <ele>164.94</ele>
        <time>2024-05-30T20:29:22.046Z</time>
      </trkpt>
      <trkpt lat="43.20119" lon="-0.91367">
        <ele>165.33</ele>
        <time>2024-05-30T20:29:30.310Z</time>
      </trkpt>
      <trkpt lat="43.20111" lon="-0.91376">
        <ele>165.58</ele>
        <time>2024-05-30T20:29:38.576Z</time>
      </trkpt>
      <trkpt lat="43.20082" lon="-0.91402">
        <ele>165.94</ele>
        <time>2024-05-30T20:29:46.849Z</time>
      </trkpt>
      <trkpt lat="43.19896" lon="-0.91553">
        <ele>165.86</ele>
        <time>2024-05-30T20:29:55.162Z</time>
      </trkpt>
      <trkpt lat="43.19843" lon="-0.91598">
        <ele>165.7</ele>
        <time>2024-05-30T20:30:03.487Z</time>
      </trkpt>
      <trkpt lat="43.19826" lon="-0.91616">
        <ele>165.42</ele>
        <time>2024-05-30T20:30:11.816Z</time>
      </trkpt>
      <trkpt lat="43.19824" lon="-0.91612">
        <ele>165.09</ele>
        <time>2024-05-30T20:30:20.145Z</time>
      </trkpt>
      <trkpt lat="43.19817" lon="-0.9161">
        <ele>164.69</ele>
        <time>2024-05-30T20:30:28.476Z</time>
      </trkpt>
      <trkpt lat="43.19732" lon="-0.91636">
        <ele>163.98</ele>
        <time>2024-05-30T20:30:36.823Z</time>
      </trkpt>
      <trkpt lat="43.19628" lon="-0.9166">
        <ele>163.35</ele>
        <time>2024-05-30T20:30:45.190Z</time>
      </trkpt>
      <trkpt lat="43.19611" lon="-0.9166">
        <ele>162.92</ele>
        <time>2024-05-30T20:30:53.560Z</time>
      </trkpt>
      <trkpt lat="43.19581" lon="-0.9165">
        <ele>162.53</ele>
        <time>2024-05-30T20:31:01.935Z</time>
      </trkpt>
      <trkpt lat="43.19564" lon="-0.91642">
        <ele>162.19</ele>
        <time>2024-05-30T20:31:10.314Z</time>
      </trkpt>
      <trkpt lat="43.19499" lon="-0.91592">
        <ele>162.04</ele>
        <time>2024-05-30T20:31:18.707Z</time>
      </trkpt>
      <trkpt lat="43.19474" lon="-0.91581">
        <ele>161.7</ele>
        <time>2024-05-30T20:31:27.105Z</time>
      </trkpt>
      <trkpt lat="43.19455" lon="-0.91577">
        <ele>161.37</ele>
        <time>2024-05-30T20:31:35.506Z</time>
      </trkpt>
      <trkpt lat="43.19435" lon="-0.91576">
        <ele>161.02</ele>
        <time>2024-05-30T20:31:43.911Z</time>
      </trkpt>
      <trkpt lat="43.1942" lon="-0.9158">
        <ele>160.72</ele>
        <time>2024-05-30T20:31:52.319Z</time>
      </trkpt>
      <trkpt lat="43.19387" lon="-0.91593">
        <ele>160.44</ele>
        <time>2024-05-30T20:32:00.733Z</time>
      </trkpt>
      <trkpt lat="43.19358" lon="-0.91596">
        <ele>160.16</ele>
        <time>2024-05-30T20:32:09.152Z</time>
      </trkpt>
      <trkpt lat="43.19343" lon="-0.91594">
        <ele>159.82</ele>
        <time>2024-05-30T20:32:17.574Z</time>
      </trkpt>
      <trkpt lat="43.19313" lon="-0.91586">
        <ele>159.43</ele>
        <time>2024-05-30T20:32:26.002Z</time>
      </trkpt>
      <trkpt lat="43.19298" lon="-0.91583">
        <ele>159.19</ele>
        <time>2024-05-30T20:32:34.433Z</time>
      </trkpt>
      <trkpt lat="43.19274" lon="-0.91585">
        <ele>159.01</ele>
        <time>2024-05-30T20:32:42.868Z</time>
      </trkpt>
      <trkpt lat="43.19253" lon="-0.91591">
        <ele>158.95</ele>
        <time>2024-05-30T20:32:51.307Z</time>
      </trkpt>
      <trkpt lat="43.19149" lon="-0.91632">
        <ele>158.93</ele>
        <time>2024-05-30T20:32:59.766Z</time>
      </trkpt>
      <trkpt lat="43.19137" lon="-0.91634">
        <ele>158.83</ele>
        <time>2024-05-30T20:33:08.228Z</time>
      </trkpt>
      <trkpt lat="43.19111" lon="-0.91634">
        <ele>158.74</ele>
        <time>2024-05-30T20:33:16.694Z</time>
      </trkpt>
      <trkpt lat="43.19082" lon="-0.91637">
        <ele>158.8</ele>
        <time>2024-05-30T20:33:25.166Z</time>
      </trkpt>
      <trkpt lat="43.19066" lon="-0.91644">
        <ele>158.92</ele>
        <time>2024-05-30T20:33:33.641Z</time>
      </trkpt>
      <trkpt lat="43.18988" lon="-0.91693">
        <ele>159.04</ele>
        <time>2024-05-30T20:33:42.132Z</time>
      </trkpt>
      <trkpt lat="43.18979" lon="-0.91696">
        <ele>159.26</ele>
        <time>2024-05-30T20:33:50.625Z</time>
      </trkpt>
      <trkpt lat="43.18905" lon="-0.91711">
        <ele>159.54</ele>
        <time>2024-05-30T20:33:59.132Z</time>
      </trkpt>
      <trkpt lat="43.18834" lon="-0.91731">
        <ele>159.94</ele>
        <time>2024-05-30T20:34:07.652Z</time>
      </trkpt>
      <trkpt lat="43.18807" lon="-0.91735">
        <ele>160.31</ele>
        <time>2024-05-30T20:34:16.177Z</time>
      </trkpt>
      <trkpt lat="43.18783" lon="-0.91735">
        <ele>160.78</ele>
        <time>2024-05-30T20:34:24.707Z</time>
      </trkpt>
      <trkpt lat="43.18759" lon="-0.91728">
        <ele>161.4</ele>
        <time>2024-05-30T20:34:33.241Z</time>
      </trkpt>
      <trkpt lat="43.18652" lon="-0.91666">
        <ele>162.17</ele>
        <time>2024-05-30T20:34:41.797Z</time>
      </trkpt>
      <trkpt lat="43.18632" lon="-0.91659">
        <ele>162.9</ele>
        <time>2024-05-30T20:34:50.357Z</time>
      </trkpt>
      <trkpt lat="43.18609" lon="-0.91654">
        <ele>163.62</ele>
        <time>2024-05-30T20:34:58.921Z</time>
      </trkpt>
      <trkpt lat="43.1834" lon="-0.91617">
        <ele>164.58</ele>
        <time>2024-05-30T20:35:07.535Z</time>
      </trkpt>
      <trkpt lat="43.18242" lon="-0.91622">
        <ele>165.7</ele>
        <time>2024-05-30T20:35:16.168Z</time>
      </trkpt>
      <trkpt lat="43.18171" lon="-0.9162">
        <ele>166.52</ele>
        <time>2024-05-30T20:35:24.814Z</time>
      </trkpt>
      <trkpt lat="43.18127" lon="-0.91616">
        <ele>167.59</ele>
        <time>2024-05-30T20:35:33.468Z</time>
      </trkpt>
      <trkpt lat="43.18092" lon="-0.91622">
        <ele>168.65</ele>
        <time>2024-05-30T20:35:42.128Z</time>
      </trkpt>
      <trkpt lat="43.18061" lon="-0.91622">
        <ele>169.66</ele>
        <time>2024-05-30T20:35:50.794Z</time>
      </trkpt>
      <trkpt lat="43.18015" lon="-0.91629">
        <ele>170.65</ele>
        <time>2024-05-30T20:35:59.469Z</time>
      </trkpt>
      <trkpt lat="43.17959" lon="-0.91634">
        <ele>171.73</ele>
        <time>2024-05-30T20:36:08.154Z</time>
      </trkpt>
      <trkpt lat="43.17858" lon="-0.91662">
        <ele>172.76</ele>
        <time>2024-05-30T20:36:16.858Z</time>
      </trkpt>
      <trkpt lat="43.17754" lon="-0.91683">
        <ele>173.87</ele>
        <time>2024-05-30T20:36:25.582Z</time>
      </trkpt>
      <trkpt lat="43.17734" lon="-0.91685">
        <ele>175.03</ele>
        <time>2024-05-30T20:36:34.310Z</time>
      </trkpt>
      <trkpt lat="43.1771" lon="-0.91685">
        <ele>176.2</ele>
        <time>2024-05-30T20:36:43.042Z</time>
      </trkpt>
      <trkpt lat="43.17613" lon="-0.91675">
        <ele>177.72</ele>
        <time>2024-05-30T20:36:51.792Z</time>
      </trkpt>
      <trkpt lat="43.17553" lon="-0.91653">
        <ele>179.1</ele>
        <time>2024-05-30T20:37:00.554Z</time>
      </trkpt>
      <trkpt lat="43.17539" lon="-0.9165">
        <ele>180.21</ele>
        <time>2024-05-30T20:37:09.319Z</time>
      </trkpt>
      <trkpt lat="43.17507" lon="-0.91648">
        <ele>181.29</ele>
        <time>2024-05-30T20:37:18.089Z</time>
      </trkpt>
      <trkpt lat="43.17493" lon="-0.91649">
        <ele>182.41</ele>
        <time>2024-05-30T20:37:26.862Z</time>
      </trkpt>
      <trkpt lat="43.17471" lon="-0.91659">
        <ele>183.55</ele>
        <time>2024-05-30T20:37:35.639Z</time>
      </trkpt>
      <trkpt lat="43.17402" lon="-0.91711">
        <ele>184.54</ele>
        <time>2024-05-30T20:37:44.431Z</time>
      </trkpt>
      <trkpt lat="43.17383" lon="-0.91722">
        <ele>185.57</ele>
        <time>2024-05-30T20:37:53.227Z</time>
      </trkpt>
      <trkpt lat="43.17363" lon="-0.91727">
        <ele>186.62</ele>
        <time>2024-05-30T20:38:02.027Z</time>
      </trkpt>
      <trkpt lat="43.17335" lon="-0.91722">
        <ele>187.73</ele>
        <time>2024-05-30T20:38:10.832Z</time>
      </trkpt>
      <trkpt lat="43.17262" lon="-0.91692">
        <ele>188.9</ele>
        <time>2024-05-30T20:38:19.651Z</time>
      </trkpt>
      <trkpt lat="43.17243" lon="-0.91686">
        <ele>189.96</ele>
        <time>2024-05-30T20:38:28.474Z</time>
      </trkpt>
      <trkpt lat="43.17212" lon="-0.91682">
        <ele>191.1</ele>
        <time>2024-05-30T20:38:37.303Z</time>
      </trkpt>
      <trkpt lat="43.17205" lon="-0.91683">
        <ele>192.17</ele>
        <time>2024-05-30T20:38:46.133Z</time>
      </trkpt>
      <trkpt lat="43.17182" lon="-0.91687">
        <ele>193.24</ele>
        <time>2024-05-30T20:38:54.967Z</time>
      </trkpt>
      <trkpt lat="43.17164" lon="-0.91694">
        <ele>194.28</ele>
        <time>2024-05-30T20:39:03.805Z</time>
      </trkpt>
      <trkpt lat="43.17144" lon="-0.91704">
        <ele>195.3</ele>
        <time>2024-05-30T20:39:12.647Z</time>
      </trkpt>
      <trkpt lat="43.17074" lon="-0.9175">
        <ele>196.54</ele>
        <time>2024-05-30T20:39:21.503Z</time>
      </trkpt>
      <trkpt lat="43.17066" lon="-0.91753">
        <ele>197.69</ele>
        <time>2024-05-30T20:39:30.361Z</time>
      </trkpt>
      <trkpt lat="43.17055" lon="-0.91754">
        <ele>198.84</ele>
        <time>2024-05-30T20:39:39.221Z</time>
      </trkpt>
      <trkpt lat="43.17036" lon="-0.91749">
        <ele>199.93</ele>
        <time>2024-05-30T20:39:48.084Z</time>
      </trkpt>
      <trkpt lat="43.17018" lon="-0.91737">
        <ele>200.86</ele>
        <time>2024-05-30T20:39:56.951Z</time>
      </trkpt>
      <trkpt lat="43.17003" lon="-0.91724">
        <ele>201.66</ele>
        <time>2024-05-30T20:40:05.821Z</time>
      </trkpt>
      <trkpt lat="43.16969" lon="-0.91693">
        <ele>202.53</ele>
        <time>2024-05-30T20:40:14.699Z</time>
      </trkpt>
      <trkpt lat="43.16931" lon="-0.91653">
        <ele>203.04</ele>
        <time>2024-05-30T20:40:23.586Z</time>
      </trkpt>
      <trkpt lat="43.16888" lon="-0.916">
        <ele>203.6</ele>
        <time>2024-05-30T20:40:32.484Z</time>
      </trkpt>
      <trkpt lat="43.16872" lon="-0.91571">
        <ele>203.93</ele>
        <time>2024-05-30T20:40:41.387Z</time>
      </trkpt>
      <trkpt lat="43.16866" lon="-0.91564">
        <ele>204.07</ele>
        <time>2024-05-30T20:40:50.291Z</time>
      </trkpt>
      <trkpt lat="43.16862" lon="-0.91559">
        <ele>204.06</ele>
        <time>2024-05-30T20:40:59.196Z</time>
      </trkpt>
      <trkpt lat="43.16852" lon="-0.91554">
        <ele>203.91</ele>
        <time>2024-05-30T20:41:08.103Z</time>
      </trkpt>
      <trkpt lat="43.16854" lon="-0.91548">
        <ele>203.56</ele>
        <time>2024-05-30T20:41:17.011Z</time>
      </trkpt>
      <trkpt lat="43.16866" lon="-0.91502">
        <ele>202.93</ele>
        <time>2024-05-30T20:41:25.926Z</time>
      </trkpt>
      <trkpt lat="43.16873" lon="-0.91486">
        <ele>202.19</ele>
        <time>2024-05-30T20:41:34.843Z</time>
      </trkpt>
      <trkpt lat="43.16877" lon="-0.91469">
        <ele>201.33</ele>
        <time>2024-05-30T20:41:43.762Z</time>
      </trkpt>
      <trkpt lat="43.16877" lon="-0.91457">
        <ele>200.39</ele>
        <time>2024-05-30T20:41:52.683Z</time>
      </trkpt>
      <trkpt lat="43.16874" lon="-0.91443">
        <ele>199.36</ele>
        <time>2024-05-30T20:42:01.606Z</time>
      </trkpt>
      <trkpt lat="43.16859" lon="-0.91411">
        <ele>198.3</ele>
        <time>2024-05-30T20:42:10.534Z</time>
      </trkpt>
      <trkpt lat="43.16857" lon="-0.91405">
        <ele>197.1</ele>
        <time>2024-05-30T20:42:19.463Z</time>
      </trkpt>
      <trkpt lat="43.16858" lon="-0.91398">
        <ele>195.79</ele>
        <time>2024-05-30T20:42:28.393Z</time>
      </trkpt>
      <trkpt lat="43.16844" lon="-0.91379">
        <ele>194.49</ele>
        <time>2024-05-30T20:42:37.327Z</time>
      </trkpt>
      <trkpt lat="43.16827" lon="-0.91349">
        <ele>193.1</ele>
        <time>2024-05-30T20:42:46.266Z</time>
      </trkpt>
      <trkpt lat="43.16801" lon="-0.91289">
        <ele>191.45</ele>
        <time>2024-05-30T20:42:55.214Z</time>
      </trkpt>
      <trkpt lat="43.16776" lon="-0.91138">
        <ele>189.33</ele>
        <time>2024-05-30T20:43:04.184Z</time>
      </trkpt>
      <trkpt lat="43.16764" lon="-0.91097">
        <ele>187.82</ele>
        <time>2024-05-30T20:43:13.160Z</time>
      </trkpt>
      <trkpt lat="43.16752" lon="-0.91074">
        <ele>186.5</ele>
        <time>2024-05-30T20:43:22.139Z</time>
      </trkpt>
      <trkpt lat="43.16614" lon="-0.90938">
        <ele>185.36</ele>
        <time>2024-05-30T20:43:31.150Z</time>
      </trkpt>
      <trkpt lat="43.16606" lon="-0.90927">
        <ele>184.2</ele>
        <time>2024-05-30T20:43:40.163Z</time>
      </trkpt>
      <trkpt lat="43.16603" lon="-0.90921">
        <ele>183.13</ele>
        <time>2024-05-30T20:43:49.177Z</time>
      </trkpt>
      <trkpt lat="43.166" lon="-0.90909">
        <ele>182.15</ele>
        <time>2024-05-30T20:43:58.193Z</time>
      </trkpt>
      <trkpt lat="43.16601" lon="-0.90896">
        <ele>181.27</ele>
        <time>2024-05-30T20:44:07.211Z</time>
      </trkpt>
      <trkpt lat="43.16659" lon="-0.90615">
        <ele>180.59</ele>
        <time>2024-05-30T20:44:16.268Z</time>
      </trkpt>
      <trkpt lat="43.16659" lon="-0.90596">
        <ele>179.9</ele>
        <time>2024-05-30T20:44:25.328Z</time>
      </trkpt>
      <trkpt lat="43.16653" lon="-0.90581">
        <ele>179.35</ele>
        <time>2024-05-30T20:44:34.390Z</time>
      </trkpt>
      <trkpt lat="43.16641" lon="-0.9057">
        <ele>178.9</ele>
        <time>2024-05-30T20:44:43.455Z</time>
      </trkpt>
      <trkpt lat="43.16544" lon="-0.90515">
        <ele>178.76</ele>
        <time>2024-05-30T20:44:52.540Z</time>
      </trkpt>
      <trkpt lat="43.16397" lon="-0.90457">
        <ele>178.28</ele>
        <time>2024-05-30T20:45:01.653Z</time>
      </trkpt>
      <trkpt lat="43.16372" lon="-0.90444">
        <ele>178.16</ele>
        <time>2024-05-30T20:45:10.771Z</time>
      </trkpt>
      <trkpt lat="43.16323" lon="-0.9041">
        <ele>178.11</ele>
        <time>2024-05-30T20:45:19.899Z</time>
      </trkpt>
      <trkpt lat="43.16303" lon="-0.90393">
        <ele>178.03</ele>
        <time>2024-05-30T20:45:29.032Z</time>
      </trkpt>
      <trkpt lat="43.16184" lon="-0.90344">
        <ele>177.96</ele>
        <time>2024-05-30T20:45:38.188Z</time>
      </trkpt>
      <trkpt lat="43.16161" lon="-0.90341">
        <ele>177.94</ele>
        <time>2024-05-30T20:45:47.348Z</time>
      </trkpt>
      <trkpt lat="43.16159" lon="-0.90335">
        <ele>177.97</ele>
        <time>2024-05-30T20:45:56.509Z</time>
      </trkpt>
      <trkpt lat="43.16156" lon="-0.90323">
        <ele>178.03</ele>
        <time>2024-05-30T20:46:05.672Z</time>
      </trkpt>
      <trkpt lat="43.16158" lon="-0.90279">
        <ele>178.04</ele>
        <time>2024-05-30T20:46:14.841Z</time>
      </trkpt>
      <trkpt lat="43.16171" lon="-0.90216">
        <ele>178.03</ele>
        <time>2024-05-30T20:46:24.019Z</time>
      </trkpt>
      <trkpt lat="43.16194" lon="-0.90123">
        <ele>178.23</ele>
        <time>2024-05-30T20:46:33.210Z</time>
      </trkpt>
      <trkpt lat="43.16203" lon="-0.90063">
        <ele>178.48</ele>
        <time>2024-05-30T20:46:42.409Z</time>
      </trkpt>
      <trkpt lat="43.16213" lon="-0.90025">
        <ele>178.7</ele>
        <time>2024-05-30T20:46:51.614Z</time>
      </trkpt>
      <trkpt lat="43.16208" lon="-0.90007">
        <ele>178.92</ele>
        <time>2024-05-30T20:47:00.821Z</time>
      </trkpt>
      <trkpt lat="43.16201" lon="-0.89989">
        <ele>179.2</ele>
        <time>2024-05-30T20:47:10.031Z</time>
      </trkpt>
      <trkpt lat="43.16177" lon="-0.89955">
        <ele>179.35</ele>
        <time>2024-05-30T20:47:19.248Z</time>
      </trkpt>
      <trkpt lat="43.16122" lon="-0.8985">
        <ele>179.73</ele>
        <time>2024-05-30T20:47:28.482Z</time>
      </trkpt>
      <trkpt lat="43.1611" lon="-0.89825">
        <ele>180.2</ele>
        <time>2024-05-30T20:47:37.720Z</time>
      </trkpt>
      <trkpt lat="43.16069" lon="-0.89834">
        <ele>180.81</ele>
        <time>2024-05-30T20:47:46.966Z</time>
      </trkpt>
      <trkpt lat="43.16034" lon="-0.89836">
        <ele>181.2</ele>
        <time>2024-05-30T20:47:56.218Z</time>
      </trkpt>
      <trkpt lat="43.16017" lon="-0.89833">
        <ele>181.61</ele>
        <time>2024-05-30T20:48:05.474Z</time>
      </trkpt>
      <trkpt lat="43.15968" lon="-0.89815">
        <ele>181.95</ele>
        <time>2024-05-30T20:48:14.739Z</time>
      </trkpt>
      <trkpt lat="43.15917" lon="-0.89792">
        <ele>182.48</ele>
        <time>2024-05-30T20:48:24.014Z</time>
      </trkpt>
      <trkpt lat="43.15874" lon="-0.89767">
        <ele>183.12</ele>
        <time>2024-05-30T20:48:33.298Z</time>
      </trkpt>
      <trkpt lat="43.15836" lon="-0.89739">
        <ele>184.09</ele>
        <time>2024-05-30T20:48:42.590Z</time>
      </trkpt>
      <trkpt lat="43.15806" lon="-0.89727">
        <ele>184.92</ele>
        <time>2024-05-30T20:48:51.888Z</time>
      </trkpt>
      <trkpt lat="43.15626" lon="-0.89627">
        <ele>185.55</ele>
        <time>2024-05-30T20:49:01.222Z</time>
      </trkpt>
      <trkpt lat="43.15593" lon="-0.89599">
        <ele>186.17</ele>
        <time>2024-05-30T20:49:10.563Z</time>
      </trkpt>
      <trkpt lat="43.15584" lon="-0.89587">
        <ele>186.82</ele>
        <time>2024-05-30T20:49:19.906Z</time>
      </trkpt>
      <trkpt lat="43.15556" lon="-0.89533">
        <ele>187.54</ele>
        <time>2024-05-30T20:49:29.258Z</time>
      </trkpt>
      <trkpt lat="43.15543" lon="-0.89512">
        <ele>188.28</ele>
        <time>2024-05-30T20:49:38.614Z</time>
      </trkpt>
      <trkpt lat="43.15481" lon="-0.89445">
        <ele>189.06</ele>
        <time>2024-05-30T20:49:47.985Z</time>
      </trkpt>
      <trkpt lat="43.15432" lon="-0.89404">
        <ele>189.75</ele>
        <time>2024-05-30T20:49:57.367Z</time>
      </trkpt>
      <trkpt lat="43.15417" lon="-0.89387">
        <ele>190.37</ele>
        <time>2024-05-30T20:50:06.752Z</time>
      </trkpt>
      <trkpt lat="43.15385" lon="-0.89337">
        <ele>190.92</ele>
        <time>2024-05-30T20:50:16.146Z</time>
      </trkpt>
      <trkpt lat="43.15369" lon="-0.8931">
        <ele>191.69</ele>
        <time>2024-05-30T20:50:25.545Z</time>
      </trkpt>
      <trkpt lat="43.15332" lon="-0.8923">
        <ele>192.56</ele>
        <time>2024-05-30T20:50:34.957Z</time>
      </trkpt>
      <trkpt lat="43.1532" lon="-0.89207">
        <ele>193.35</ele>
        <time>2024-05-30T20:50:44.373Z</time>
      </trkpt>
      <trkpt lat="43.15298" lon="-0.89138">
        <ele>194.24</ele>
        <time>2024-05-30T20:50:53.799Z</time>
      </trkpt>
      <trkpt lat="43.15298" lon="-0.8913">
        <ele>194.93</ele>
        <time>2024-05-30T20:51:03.226Z</time>
      </trkpt>
      <trkpt lat="43.15294" lon="-0.89129">
        <ele>195.62</ele>
        <time>2024-05-30T20:51:12.654Z</time>
      </trkpt>
      <trkpt lat="43.15283" lon="-0.8911">
        <ele>196.3</ele>
        <time>2024-05-30T20:51:22.085Z</time>
      </trkpt>
      <trkpt lat="43.15259" lon="-0.89086">
        <ele>197</ele>
        <time>2024-05-30T20:51:31.522Z</time>
      </trkpt>
      <trkpt lat="43.15253" lon="-0.89076">
        <ele>197.67</ele>
        <time>2024-05-30T20:51:40.960Z</time>
      </trkpt>
      <trkpt lat="43.15253" lon="-0.89071">
        <ele>198.36</ele>
        <time>2024-05-30T20:51:50.399Z</time>
      </trkpt>
      <trkpt lat="43.15229" lon="-0.89056">
        <ele>198.97</ele>
        <time>2024-05-30T20:51:59.843Z</time>
      </trkpt>
      <trkpt lat="43.15219" lon="-0.89051">
        <ele>199.62</ele>
        <time>2024-05-30T20:52:09.289Z</time>
      </trkpt>
      <trkpt lat="43.1503" lon="-0.89018">
        <ele>200.3</ele>
        <time>2024-05-30T20:52:18.770Z</time>
      </trkpt>
      <trkpt lat="43.14815" lon="-0.88957">
        <ele>201.05</ele>
        <time>2024-05-30T20:52:28.292Z</time>
      </trkpt>
      <trkpt lat="43.14798" lon="-0.88954">
        <ele>201.72</ele>
        <time>2024-05-30T20:52:37.817Z</time>
      </trkpt>
      <trkpt lat="43.14768" lon="-0.88953">
        <ele>202.47</ele>
        <time>2024-05-30T20:52:47.348Z</time>
      </trkpt>
      <trkpt lat="43.14707" lon="-0.88962">
        <ele>203.5</ele>
        <time>2024-05-30T20:52:56.890Z</time>
      </trkpt>
      <trkpt lat="43.14672" lon="-0.88963">
        <ele>204.32</ele>
        <time>2024-05-30T20:53:06.439Z</time>
      </trkpt>
      <trkpt lat="43.14645" lon="-0.88956">
        <ele>205.01</ele>
        <time>2024-05-30T20:53:15.993Z</time>
      </trkpt>
      <trkpt lat="43.14633" lon="-0.8895">
        <ele>205.61</ele>
        <time>2024-05-30T20:53:25.549Z</time>
      </trkpt>
      <trkpt lat="43.14617" lon="-0.88936">
        <ele>206.16</ele>
        <time>2024-05-30T20:53:35.109Z</time>
      </trkpt>
      <trkpt lat="43.14599" lon="-0.88916">
        <ele>206.78</ele>
        <time>2024-05-30T20:53:44.673Z</time>
      </trkpt>
      <trkpt lat="43.14591" lon="-0.88904">
        <ele>207.33</ele>
        <time>2024-05-30T20:53:54.239Z</time>
      </trkpt>
      <trkpt lat="43.14583" lon="-0.88887">
        <ele>207.76</ele>
        <time>2024-05-30T20:54:03.808Z</time>
      </trkpt>
      <trkpt lat="43.14562" lon="-0.8883">
        <ele>208.12</ele>
        <time>2024-05-30T20:54:13.386Z</time>
      </trkpt>
      <trkpt lat="43.14495" lon="-0.88619">
        <ele>207.87</ele>
        <time>2024-05-30T20:54:22.995Z</time>
      </trkpt>
      <trkpt lat="43.14481" lon="-0.88584">
        <ele>208.02</ele>
        <time>2024-05-30T20:54:32.610Z</time>
      </trkpt>
      <trkpt lat="43.14172" lon="-0.87905">
        <ele>208.34</ele>
        <time>2024-05-30T20:54:42.334Z</time>
      </trkpt>
      <trkpt lat="43.14153" lon="-0.87866">
        <ele>208.46</ele>
        <time>2024-05-30T20:54:52.064Z</time>
      </trkpt>
      <trkpt lat="43.14133" lon="-0.87834">
        <ele>208.66</ele>
        <time>2024-05-30T20:55:01.800Z</time>
      </trkpt>
      <trkpt lat="43.14112" lon="-0.8781">
        <ele>208.79</ele>
        <time>2024-05-30T20:55:11.541Z</time>
      </trkpt>
      <trkpt lat="43.14084" lon="-0.87785">
        <ele>208.86</ele>
        <time>2024-05-30T20:55:21.288Z</time>
      </trkpt>
      <trkpt lat="43.14067" lon="-0.87774">
        <ele>208.91</ele>
        <time>2024-05-30T20:55:31.038Z</time>
      </trkpt>
      <trkpt lat="43.13949" lon="-0.8771">
        <ele>209.12</ele>
        <time>2024-05-30T20:55:40.812Z</time>
      </trkpt>
      <trkpt lat="43.13914" lon="-0.87693">
        <ele>209.24</ele>
        <time>2024-05-30T20:55:50.593Z</time>
      </trkpt>
      <trkpt lat="43.13884" lon="-0.87675">
        <ele>209.48</ele>
        <time>2024-05-30T20:56:00.380Z</time>
      </trkpt>
      <trkpt lat="43.13744" lon="-0.87602">
        <ele>209.7</ele>
        <time>2024-05-30T20:56:10.195Z</time>
      </trkpt>
      <trkpt lat="43.13734" lon="-0.87593">
        <ele>209.92</ele>
        <time>2024-05-30T20:56:20.012Z</time>
      </trkpt>
      <trkpt lat="43.13725" lon="-0.87588">
        <ele>210.15</ele>
        <time>2024-05-30T20:56:29.831Z</time>
      </trkpt>
      <trkpt lat="43.13709" lon="-0.87584">
        <ele>210.4</ele>
        <time>2024-05-30T20:56:39.653Z</time>
      </trkpt>
      <trkpt lat="43.13669" lon="-0.87564">
        <ele>210.78</ele>
        <time>2024-05-30T20:56:49.483Z</time>
      </trkpt>
      <trkpt lat="43.13649" lon="-0.87557">
        <ele>211.18</ele>
        <time>2024-05-30T20:56:59.317Z</time>
      </trkpt>
      <trkpt lat="43.13535" lon="-0.8754">
        <ele>211.68</ele>
        <time>2024-05-30T20:57:09.172Z</time>
      </trkpt>
      <trkpt lat="43.13514" lon="-0.87542">
        <ele>212.16</ele>
        <time>2024-05-30T20:57:19.031Z</time>
      </trkpt>
      <trkpt lat="43.13504" lon="-0.87547">
        <ele>212.64</ele>
        <time>2024-05-30T20:57:28.892Z</time>
      </trkpt>
      <trkpt lat="43.13496" lon="-0.87554">
        <ele>213.15</ele>
        <time>2024-05-30T20:57:38.755Z</time>
      </trkpt>
      <trkpt lat="43.13431" lon="-0.87632">
        <ele>213.64</ele>
        <time>2024-05-30T20:57:48.634Z</time>
      </trkpt>
      <trkpt lat="43.13415" lon="-0.87645">
        <ele>214.15</ele>
        <time>2024-05-30T20:57:58.516Z</time>
      </trkpt>
      <trkpt lat="43.13396" lon="-0.87653">
        <ele>214.76</ele>
        <time>2024-05-30T20:58:08.402Z</time>
      </trkpt>
      <trkpt lat="43.13272" lon="-0.87671">
        <ele>215.55</ele>
        <time>2024-05-30T20:58:18.311Z</time>
      </trkpt>
      <trkpt lat="43.13129" lon="-0.87684">
        <ele>216.49</ele>
        <time>2024-05-30T20:58:28.247Z</time>
      </trkpt>
      <trkpt lat="43.13113" lon="-0.87676">
        <ele>217.12</ele>
        <time>2024-05-30T20:58:38.186Z</time>
      </trkpt>
      <trkpt lat="43.13081" lon="-0.87648">
        <ele>217.8</ele>
        <time>2024-05-30T20:58:48.132Z</time>
      </trkpt>
      <trkpt lat="43.13064" lon="-0.87639">
        <ele>218.45</ele>
        <time>2024-05-30T20:58:58.082Z</time>
      </trkpt>
      <trkpt lat="43.13048" lon="-0.87635">
        <ele>219.08</ele>
        <time>2024-05-30T20:59:08.035Z</time>
      </trkpt>
      <trkpt lat="43.12853" lon="-0.87608">
        <ele>219.95</ele>
        <time>2024-05-30T20:59:18.024Z</time>
      </trkpt>
      <trkpt lat="43.12672" lon="-0.8759">
        <ele>220.69</ele>
        <time>2024-05-30T20:59:28.047Z</time>
      </trkpt>
      <trkpt lat="43.1253" lon="-0.87573">
        <ele>221.13</ele>
        <time>2024-05-30T20:59:38.096Z</time>
      </trkpt>
      <trkpt lat="43.12472" lon="-0.87563">
        <ele>221.78</ele>
        <time>2024-05-30T20:59:48.156Z</time>
      </trkpt>
      <trkpt lat="43.12408" lon="-0.87548">
        <ele>222.55</ele>
        <time>2024-05-30T20:59:58.228Z</time>
      </trkpt>
      <trkpt lat="43.12393" lon="-0.87542">
        <ele>223.04</ele>
        <time>2024-05-30T21:00:08.303Z</time>
      </trkpt>
      <trkpt lat="43.12373" lon="-0.87526">
        <ele>223.52</ele>
        <time>2024-05-30T21:00:18.382Z</time>
      </trkpt>
      <trkpt lat="43.1235" lon="-0.875">
        <ele>224.03</ele>
        <time>2024-05-30T21:00:28.467Z</time>
      </trkpt>
      <trkpt lat="43.12341" lon="-0.87484">
        <ele>224.41</ele>
        <time>2024-05-30T21:00:38.555Z</time>
      </trkpt>
      <trkpt lat="43.1232" lon="-0.87423">
        <ele>225.06</ele>
        <time>2024-05-30T21:00:48.652Z</time>
      </trkpt>
      <trkpt lat="43.12223" lon="-0.87061">
        <ele>225.09</ele>
        <time>2024-05-30T21:00:58.802Z</time>
      </trkpt>
      <trkpt lat="43.1221" lon="-0.8702">
        <ele>225.34</ele>
        <time>2024-05-30T21:01:08.958Z</time>
      </trkpt>
      <trkpt lat="43.12181" lon="-0.86954">
        <ele>225.22</ele>
        <time>2024-05-30T21:01:19.124Z</time>
      </trkpt>
      <trkpt lat="43.12143" lon="-0.86879">
        <ele>225.37</ele>
        <time>2024-05-30T21:01:29.303Z</time>
      </trkpt>
      <trkpt lat="43.12102" lon="-0.86793">
        <ele>225.23</ele>
        <time>2024-05-30T21:01:39.495Z</time>
      </trkpt>
      <trkpt lat="43.12087" lon="-0.86767">
        <ele>225.16</ele>
        <time>2024-05-30T21:01:49.692Z</time>
      </trkpt>
      <trkpt lat="43.12026" lon="-0.86697">
        <ele>225.06</ele>
        <time>2024-05-30T21:01:59.904Z</time>
      </trkpt>
      <trkpt lat="43.11986" lon="-0.86648">
        <ele>225.35</ele>
        <time>2024-05-30T21:02:10.126Z</time>
      </trkpt>
      <trkpt lat="43.11969" lon="-0.86616">
        <ele>225.65</ele>
        <time>2024-05-30T21:02:20.353Z</time>
      </trkpt>
      <trkpt lat="43.11955" lon="-0.86594">
        <ele>225.81</ele>
        <time>2024-05-30T21:02:30.584Z</time>
      </trkpt>
      <trkpt lat="43.11941" lon="-0.86576">
        <ele>225.99</ele>
        <time>2024-05-30T21:02:40.819Z</time>
      </trkpt>
      <trkpt lat="43.11893" lon="-0.86527">
        <ele>226.05</ele>
        <time>2024-05-30T21:02:51.065Z</time>
      </trkpt>
      <trkpt lat="43.11856" lon="-0.86499">
        <ele>225.94</ele>
        <time>2024-05-30T21:03:01.319Z</time>
      </trkpt>
      <trkpt lat="43.11821" lon="-0.86476">
        <ele>225.64</ele>
        <time>2024-05-30T21:03:11.580Z</time>
      </trkpt>
      <trkpt lat="43.11714" lon="-0.86399">
        <ele>225.47</ele>
        <time>2024-05-30T21:03:21.863Z</time>
      </trkpt>
      <trkpt lat="43.11667" lon="-0.86369">
        <ele>225.51</ele>
        <time>2024-05-30T21:03:32.156Z</time>
      </trkpt>
      <trkpt lat="43.11657" lon="-0.86335">
        <ele>225.74</ele>
        <time>2024-05-30T21:03:42.454Z</time>
      </trkpt>
      <trkpt lat="43.11641" lon="-0.86318">
        <ele>225.85</ele>
        <time>2024-05-30T21:03:52.756Z</time>
      </trkpt>
      <trkpt lat="43.11626" lon="-0.86308">
        <ele>225.98</ele>
        <time>2024-05-30T21:04:03.061Z</time>
      </trkpt>
      <trkpt lat="43.11596" lon="-0.86293">
        <ele>226.16</ele>
        <time>2024-05-30T21:04:13.372Z</time>
      </trkpt>
      <trkpt lat="43.11568" lon="-0.86264">
        <ele>226.32</ele>
        <time>2024-05-30T21:04:23.690Z</time>
      </trkpt>
      <trkpt lat="43.11545" lon="-0.86304">
        <ele>226.13</ele>
        <time>2024-05-30T21:04:34.014Z</time>
      </trkpt>
      <trkpt lat="43.11506" lon="-0.86259">
        <ele>226.24</ele>
        <time>2024-05-30T21:04:44.348Z</time>
      </trkpt>
      <trkpt lat="43.11479" lon="-0.86234">
        <ele>226.36</ele>
        <time>2024-05-30T21:04:54.688Z</time>
      </trkpt>
      <trkpt lat="43.11436" lon="-0.86205">
        <ele>226.63</ele>
        <time>2024-05-30T21:05:05.037Z</time>
      </trkpt>
      <trkpt lat="43.11365" lon="-0.86169">
        <ele>227.12</ele>
        <time>2024-05-30T21:05:15.400Z</time>
      </trkpt>
      <trkpt lat="43.11305" lon="-0.86132">
        <ele>227.41</ele>
        <time>2024-05-30T21:05:25.775Z</time>
      </trkpt>
      <trkpt lat="43.11295" lon="-0.8612">
        <ele>227.85</ele>
        <time>2024-05-30T21:05:36.153Z</time>
      </trkpt>
      <trkpt lat="43.11277" lon="-0.86093">
        <ele>228.5</ele>
        <time>2024-05-30T21:05:46.536Z</time>
      </trkpt>
      <trkpt lat="43.11272" lon="-0.86087">
        <ele>229.14</ele>
        <time>2024-05-30T21:05:56.920Z</time>
      </trkpt>
      <trkpt lat="43.11245" lon="-0.86073">
        <ele>229.72</ele>
        <time>2024-05-30T21:06:07.309Z</time>
      </trkpt>
      <trkpt lat="43.11234" lon="-0.86062">
        <ele>230.41</ele>
        <time>2024-05-30T21:06:17.701Z</time>
      </trkpt>
      <trkpt lat="43.11221" lon="-0.86053">
        <ele>231.15</ele>
        <time>2024-05-30T21:06:28.096Z</time>
      </trkpt>
      <trkpt lat="43.11195" lon="-0.86044">
        <ele>231.66</ele>
        <time>2024-05-30T21:06:38.496Z</time>
      </trkpt>
      <trkpt lat="43.11166" lon="-0.86029">
        <ele>232.42</ele>
        <time>2024-05-30T21:06:48.901Z</time>
      </trkpt>
      <trkpt lat="43.11108" lon="-0.86007">
        <ele>233.27</ele>
        <time>2024-05-30T21:06:59.318Z</time>
      </trkpt>
      <trkpt lat="43.11068" lon="-0.86009">
        <ele>233.94</ele>
        <time>2024-05-30T21:07:09.742Z</time>
      </trkpt>
      <trkpt lat="43.11015" lon="-0.86005">
        <ele>234.73</ele>
        <time>2024-05-30T21:07:20.176Z</time>
      </trkpt>
      <trkpt lat="43.11" lon="-0.86001">
        <ele>235.71</ele>
        <time>2024-05-30T21:07:30.613Z</time>
      </trkpt>
      <trkpt lat="43.10933" lon="-0.85968">
        <ele>236.39</ele>
        <time>2024-05-30T21:07:41.063Z</time>
      </trkpt>
      <trkpt lat="43.10906" lon="-0.85946">
        <ele>237.35</ele>
        <time>2024-05-30T21:07:51.519Z</time>
      </trkpt>
      <trkpt lat="43.10841" lon="-0.85885">
        <ele>238.4</ele>
        <time>2024-05-30T21:08:01.989Z</time>
      </trkpt>
      <trkpt lat="43.10826" lon="-0.85868">
        <ele>239.36</ele>
        <time>2024-05-30T21:08:12.463Z</time>
      </trkpt>
      <trkpt lat="43.10809" lon="-0.85845">
        <ele>240.41</ele>
        <time>2024-05-30T21:08:22.942Z</time>
      </trkpt>
      <trkpt lat="43.10787" lon="-0.85804">
        <ele>241.55</ele>
        <time>2024-05-30T21:08:33.427Z</time>
      </trkpt>
      <trkpt lat="43.1077" lon="-0.85778">
        <ele>242.33</ele>
        <time>2024-05-30T21:08:43.917Z</time>
      </trkpt>
      <trkpt lat="43.10746" lon="-0.85747">
        <ele>243.09</ele>
        <time>2024-05-30T21:08:54.413Z</time>
      </trkpt>
      <trkpt lat="43.10733" lon="-0.85737">
        <ele>243.74</ele>
        <time>2024-05-30T21:09:04.912Z</time>
      </trkpt>
      <trkpt lat="43.10704" lon="-0.85719">
        <ele>244.41</ele>
        <time>2024-05-30T21:09:15.417Z</time>
      </trkpt>
      <trkpt lat="43.1065" lon="-0.85701">
        <ele>244.53</ele>
        <time>2024-05-30T21:09:25.932Z</time>
      </trkpt>
      <trkpt lat="43.10631" lon="-0.85689">
        <ele>244.84</ele>
        <time>2024-05-30T21:09:36.451Z</time>
      </trkpt>
      <trkpt lat="43.10621" lon="-0.85679">
        <ele>245.1</ele>
        <time>2024-05-30T21:09:46.973Z</time>
      </trkpt>
      <trkpt lat="43.10614" lon="-0.85668">
        <ele>245.4</ele>
        <time>2024-05-30T21:09:57.497Z</time>
      </trkpt>
      <trkpt lat="43.10595" lon="-0.8563">
        <ele>245.67</ele>
        <time>2024-05-30T21:10:08.027Z</time>
      </trkpt>
      <trkpt lat="43.1056" lon="-0.8554">
        <ele>246.22</ele>
        <time>2024-05-30T21:10:18.571Z</time>
      </trkpt>
      <trkpt lat="43.10512" lon="-0.85457">
        <ele>246.36</ele>
        <time>2024-05-30T21:10:29.129Z</time>
      </trkpt>
      <trkpt lat="43.10455" lon="-0.85364">
        <ele>246.32</ele>
        <time>2024-05-30T21:10:39.704Z</time>
      </trkpt>
      <trkpt lat="43.10433" lon="-0.85333">
        <ele>246.21</ele>
        <time>2024-05-30T21:10:50.285Z</time>
      </trkpt>
      <trkpt lat="43.10416" lon="-0.85311">
        <ele>246.03</ele>
        <time>2024-05-30T21:11:00.870Z</time>
      </trkpt>
      <trkpt lat="43.10359" lon="-0.85247">
        <ele>245.76</ele>
        <time>2024-05-30T21:11:11.469Z</time>
      </trkpt>
      <trkpt lat="43.10257" lon="-0.85137">
        <ele>246.03</ele>
        <time>2024-05-30T21:11:22.092Z</time>
      </trkpt>
      <trkpt lat="43.10236" lon="-0.85109">
        <ele>245.64</ele>
        <time>2024-05-30T21:11:32.720Z</time>
      </trkpt>
      <trkpt lat="43.10224" lon="-0.85089">
        <ele>245.34</ele>
        <time>2024-05-30T21:11:43.352Z</time>
      </trkpt>
      <trkpt lat="43.10205" lon="-0.85051">
        <ele>245.09</ele>
        <time>2024-05-30T21:11:53.990Z</time>
      </trkpt>
      <trkpt lat="43.10195" lon="-0.85022">
        <ele>244.97</ele>
        <time>2024-05-30T21:12:04.632Z</time>
      </trkpt>
      <trkpt lat="43.10188" lon="-0.84977">
        <ele>244.83</ele>
        <time>2024-05-30T21:12:15.281Z</time>
      </trkpt>
      <trkpt lat="43.10168" lon="-0.84834">
        <ele>244.74</ele>
        <time>2024-05-30T21:12:25.950Z</time>
      </trkpt>
      <trkpt lat="43.10138" lon="-0.84584">
        <ele>244.73</ele>
        <time>2024-05-30T21:12:36.653Z</time>
      </trkpt>
      <trkpt lat="43.10135" lon="-0.84521">
        <ele>245.01</ele>
        <time>2024-05-30T21:12:47.365Z</time>
      </trkpt>
      <trkpt lat="43.10138" lon="-0.84326">
        <ele>245.17</ele>
        <time>2024-05-30T21:12:58.103Z</time>
      </trkpt>
      <trkpt lat="43.10136" lon="-0.84289">
        <ele>245.41</ele>
        <time>2024-05-30T21:13:08.846Z</time>
      </trkpt>
      <trkpt lat="43.10113" lon="-0.84165">
        <ele>245.87</ele>
        <time>2024-05-30T21:13:19.607Z</time>
      </trkpt>
      <trkpt lat="43.10105" lon="-0.84095">
        <ele>246.6</ele>
        <time>2024-05-30T21:13:30.377Z</time>
      </trkpt>
      <trkpt lat="43.10106" lon="-0.84088">
        <ele>247.12</ele>
        <time>2024-05-30T21:13:41.148Z</time>
      </trkpt>
      <trkpt lat="43.10107" lon="-0.8406">
        <ele>247.78</ele>
        <time>2024-05-30T21:13:51.923Z</time>
      </trkpt>
      <trkpt lat="43.10113" lon="-0.84006">
        <ele>248.4</ele>
        <time>2024-05-30T21:14:02.706Z</time>
      </trkpt>
      <trkpt lat="43.10124" lon="-0.83951">
        <ele>249.16</ele>
        <time>2024-05-30T21:14:13.496Z</time>
      </trkpt>
      <trkpt lat="43.10128" lon="-0.83905">
        <ele>249.8</ele>
        <time>2024-05-30T21:14:24.293Z</time>
      </trkpt>
      <trkpt lat="43.10128" lon="-0.83864">
        <ele>250.34</ele>
        <time>2024-05-30T21:14:35.095Z</time>
      </trkpt>
      <trkpt lat="43.10079" lon="-0.83401">
        <ele>251.4</ele>
        <time>2024-05-30T21:14:45.961Z</time>
      </trkpt>
      <trkpt lat="43.10053" lon="-0.83186">
        <ele>252.09</ele>
        <time>2024-05-30T21:14:56.857Z</time>
      </trkpt>
      <trkpt lat="43.09995" lon="-0.82875">
        <ele>252.64</ele>
        <time>2024-05-30T21:15:07.797Z</time>
      </trkpt>
      <trkpt lat="43.09984" lon="-0.82801">
        <ele>253.72</ele>
        <time>2024-05-30T21:15:18.747Z</time>
      </trkpt>
      <trkpt lat="43.09988" lon="-0.82758">
        <ele>254.8</ele>
        <time>2024-05-30T21:15:29.703Z</time>
      </trkpt>
      <trkpt lat="43.09998" lon="-0.82724">
        <ele>255.89</ele>
        <time>2024-05-30T21:15:40.664Z</time>
      </trkpt>
      <trkpt lat="43.10021" lon="-0.82666">
        <ele>256.93</ele>
        <time>2024-05-30T21:15:51.634Z</time>
      </trkpt>
      <trkpt lat="43.10027" lon="-0.82638">
        <ele>257.9</ele>
        <time>2024-05-30T21:16:02.608Z</time>
      </trkpt>
      <trkpt lat="43.10028" lon="-0.82598">
        <ele>258.87</ele>
        <time>2024-05-30T21:16:13.587Z</time>
      </trkpt>
      <trkpt lat="43.10023" lon="-0.82569">
        <ele>259.79</ele>
        <time>2024-05-30T21:16:24.570Z</time>
      </trkpt>
      <trkpt lat="43.10015" lon="-0.82539">
        <ele>260.61</ele>
        <time>2024-05-30T21:16:35.558Z</time>
      </trkpt>
      <trkpt lat="43.09981" lon="-0.82466">
        <ele>261.6</ele>
        <time>2024-05-30T21:16:46.557Z</time>
      </trkpt>
      <trkpt lat="43.09857" lon="-0.82123">
        <ele>262.97</ele>
        <time>2024-05-30T21:16:57.609Z</time>
      </trkpt>
      <trkpt lat="43.09797" lon="-0.81951">
        <ele>263.87</ele>
        <time>2024-05-30T21:17:08.686Z</time>
      </trkpt>
      <trkpt lat="43.09796" lon="-0.81925">
        <ele>264.82</ele>
        <time>2024-05-30T21:17:19.767Z</time>
      </trkpt>
      <trkpt lat="43.09827" lon="-0.81765">
        <ele>265.72</ele>
        <time>2024-05-30T21:17:30.871Z</time>
      </trkpt>
      <trkpt lat="43.09839" lon="-0.81729">
        <ele>266.75</ele>
        <time>2024-05-30T21:17:41.980Z</time>
      </trkpt>
      <trkpt lat="43.09868" lon="-0.81678">
        <ele>267.85</ele>
        <time>2024-05-30T21:17:53.098Z</time>
      </trkpt>
      <trkpt lat="43.09934" lon="-0.81572">
        <ele>269.5</ele>
        <time>2024-05-30T21:18:04.235Z</time>
      </trkpt>
      <trkpt lat="43.09946" lon="-0.81558">
        <ele>270.86</ele>
        <time>2024-05-30T21:18:15.375Z</time>
      </trkpt>
      <trkpt lat="43.09959" lon="-0.81548">
        <ele>272.23</ele>
        <time>2024-05-30T21:18:26.517Z</time>
      </trkpt>
      <trkpt lat="43.10029" lon="-0.8152">
        <ele>273.96</ele>
        <time>2024-05-30T21:18:37.673Z</time>
      </trkpt>
      <trkpt lat="43.10053" lon="-0.81505">
        <ele>275.21</ele>
        <time>2024-05-30T21:18:48.834Z</time>
      </trkpt>
      <trkpt lat="43.10068" lon="-0.81491">
        <ele>276.4</ele>
        <time>2024-05-30T21:18:59.998Z</time>
      </trkpt>
      <trkpt lat="43.10083" lon="-0.81473">
        <ele>277.46</ele>
        <time>2024-05-30T21:19:11.166Z</time>
      </trkpt>
      <trkpt lat="43.10096" lon="-0.81449">
        <ele>278.49</ele>
        <time>2024-05-30T21:19:22.338Z</time>
      </trkpt>
      <trkpt lat="43.10108" lon="-0.81415">
        <ele>279.45</ele>
        <time>2024-05-30T21:19:33.515Z</time>
      </trkpt>
      <trkpt lat="43.10117" lon="-0.81378">
        <ele>280.51</ele>
        <time>2024-05-30T21:19:44.698Z</time>
      </trkpt>
      <trkpt lat="43.10131" lon="-0.81318">
        <ele>281.7</ele>
        <time>2024-05-30T21:19:55.889Z</time>
      </trkpt>
      <trkpt lat="43.1014" lon="-0.81269">
        <ele>283.12</ele>
        <time>2024-05-30T21:20:07.087Z</time>
      </trkpt>
      <trkpt lat="43.10144" lon="-0.81213">
        <ele>284.85</ele>
        <time>2024-05-30T21:20:18.293Z</time>
      </trkpt>
      <trkpt lat="43.10142" lon="-0.81166">
        <ele>286.89</ele>
        <time>2024-05-30T21:20:29.505Z</time>
      </trkpt>
      <trkpt lat="43.10138" lon="-0.81142">
        <ele>289.31</ele>
        <time>2024-05-30T21:20:40.720Z</time>
      </trkpt>
      <trkpt lat="43.10119" lon="-0.81072">
        <ele>292.42</ele>
        <time>2024-05-30T21:20:51.946Z</time>
      </trkpt>
      <trkpt lat="43.10111" lon="-0.81049">
        <ele>295.42</ele>
        <time>2024-05-30T21:21:03.175Z</time>
      </trkpt>
      <trkpt lat="43.1007" lon="-0.80971">
        <ele>299.08</ele>
        <time>2024-05-30T21:21:14.417Z</time>
      </trkpt>
      <trkpt lat="43.10057" lon="-0.80939">
        <ele>302.5</ele>
        <time>2024-05-30T21:21:25.664Z</time>
      </trkpt>
      <trkpt lat="43.10051" lon="-0.80909">
        <ele>305.93</ele>
        <time>2024-05-30T21:21:36.915Z</time>
      </trkpt>
      <trkpt lat="43.10051" lon="-0.80887">
        <ele>309.61</ele>
        <time>2024-05-30T21:21:48.169Z</time>
      </trkpt>
      <trkpt lat="43.10054" lon="-0.80859">
        <ele>313.48</ele>
        <time>2024-05-30T21:21:59.427Z</time>
      </trkpt>
      <trkpt lat="43.10065" lon="-0.80832">
        <ele>317.48</ele>
        <time>2024-05-30T21:22:10.690Z</time>
      </trkpt>
      <trkpt lat="43.10082" lon="-0.8081">
        <ele>321.52</ele>
        <time>2024-05-30T21:22:21.957Z</time>
      </trkpt>
      <trkpt lat="43.10239" lon="-0.80685">
        <ele>326.69</ele>
        <time>2024-05-30T21:22:33.258Z</time>
      </trkpt>
      <trkpt lat="43.10252" lon="-0.80672">
        <ele>330.65</ele>
        <time>2024-05-30T21:22:44.562Z</time>
      </trkpt>
      <trkpt lat="43.10265" lon="-0.80655">
        <ele>334.6</ele>
        <time>2024-05-30T21:22:55.869Z</time>
      </trkpt>
      <trkpt lat="43.10285" lon="-0.80617">
        <ele>338.63</ele>
        <time>2024-05-30T21:23:07.182Z</time>
      </trkpt>
      <trkpt lat="43.10308" lon="-0.8055">
        <ele>342.54</ele>
        <time>2024-05-30T21:23:18.505Z</time>
      </trkpt>
      <trkpt lat="43.10315" lon="-0.80523">
        <ele>346.08</ele>
        <time>2024-05-30T21:23:29.832Z</time>
      </trkpt>
      <trkpt lat="43.10319" lon="-0.80489">
        <ele>349.51</ele>
        <time>2024-05-30T21:23:41.164Z</time>
      </trkpt>
      <trkpt lat="43.10317" lon="-0.80463">
        <ele>352.56</ele>
        <time>2024-05-30T21:23:52.500Z</time>
      </trkpt>
      <trkpt lat="43.10308" lon="-0.80435">
        <ele>355.21</ele>
        <time>2024-05-30T21:24:03.840Z</time>
      </trkpt>
      <trkpt lat="43.10293" lon="-0.80404">
        <ele>357.46</ele>
        <time>2024-05-30T21:24:15.185Z</time>
      </trkpt>
      <trkpt lat="43.10286" lon="-0.80382">
        <ele>359.55</ele>
        <time>2024-05-30T21:24:26.533Z</time>
      </trkpt>
      <trkpt lat="43.10284" lon="-0.80349">
        <ele>361.4</ele>
        <time>2024-05-30T21:24:37.886Z</time>
      </trkpt>
      <trkpt lat="43.10295" lon="-0.8029">
        <ele>363.19</ele>
        <time>2024-05-30T21:24:49.247Z</time>
      </trkpt>
      <trkpt lat="43.10297" lon="-0.8026">
        <ele>364.46</ele>
        <time>2024-05-30T21:25:00.612Z</time>
      </trkpt>
      <trkpt lat="43.10288" lon="-0.80131">
        <ele>365.58</ele>
        <time>2024-05-30T21:25:11.995Z</time>
      </trkpt>
      <trkpt lat="43.10288" lon="-0.80074">
        <ele>366.01</ele>
        <time>2024-05-30T21:25:23.386Z</time>
      </trkpt>
      <trkpt lat="43.10293" lon="-0.80044">
        <ele>365.93</ele>
        <time>2024-05-30T21:25:34.781Z</time>
      </trkpt>
      <trkpt lat="43.10309" lon="-0.80004">
        <ele>365.39</ele>
        <time>2024-05-30T21:25:46.182Z</time>
      </trkpt>
      <trkpt lat="43.1034" lon="-0.79935">
        <ele>364.33</ele>
        <time>2024-05-30T21:25:57.594Z</time>
      </trkpt>
      <trkpt lat="43.10567" lon="-0.79357">
        <ele>362.1</ele>
        <time>2024-05-30T21:26:09.095Z</time>
      </trkpt>
      <trkpt lat="43.10585" lon="-0.79323">
        <ele>360.66</ele>
        <time>2024-05-30T21:26:20.602Z</time>
      </trkpt>
      <trkpt lat="43.10699" lon="-0.79187">
        <ele>359.22</ele>
        <time>2024-05-30T21:26:32.137Z</time>
      </trkpt>
      <trkpt lat="43.10759" lon="-0.79072">
        <ele>356.89</ele>
        <time>2024-05-30T21:26:43.691Z</time>
      </trkpt>
      <trkpt lat="43.1078" lon="-0.79037">
        <ele>354.99</ele>
        <time>2024-05-30T21:26:55.252Z</time>
      </trkpt>
      <trkpt lat="43.10829" lon="-0.78987">
        <ele>352.84</ele>
        <time>2024-05-30T21:27:06.824Z</time>
      </trkpt>
      <trkpt lat="43.10879" lon="-0.78941">
        <ele>350.62</ele>
        <time>2024-05-30T21:27:18.407Z</time>
      </trkpt>
      <trkpt lat="43.10936" lon="-0.78907">
        <ele>348.88</ele>
        <time>2024-05-30T21:27:30.002Z</time>
      </trkpt>
      <trkpt lat="43.10958" lon="-0.78889">
        <ele>347.15</ele>
        <time>2024-05-30T21:27:41.602Z</time>
      </trkpt>
      <trkpt lat="43.11021" lon="-0.78801">
        <ele>345.54</ele>
        <time>2024-05-30T21:27:53.218Z</time>
      </trkpt>
      <trkpt lat="43.11037" lon="-0.78762">
        <ele>343.36</ele>
        <time>2024-05-30T21:28:04.840Z</time>
      </trkpt>
      <trkpt lat="43.11071" lon="-0.78662">
        <ele>341.61</ele>
        <time>2024-05-30T21:28:16.477Z</time>
      </trkpt>
      <trkpt lat="43.11079" lon="-0.78625">
        <ele>339.91</ele>
        <time>2024-05-30T21:28:28.120Z</time>
      </trkpt>
      <trkpt lat="43.11091" lon="-0.78512">
        <ele>337.53</ele>
        <time>2024-05-30T21:28:39.778Z</time>
      </trkpt>
      <trkpt lat="43.11098" lon="-0.78491">
        <ele>336.05</ele>
        <time>2024-05-30T21:28:51.439Z</time>
      </trkpt>
      <trkpt lat="43.11127" lon="-0.78447">
        <ele>334.72</ele>
        <time>2024-05-30T21:29:03.108Z</time>
      </trkpt>
      <trkpt lat="43.11143" lon="-0.78416">
        <ele>333.35</ele>
        <time>2024-05-30T21:29:14.783Z</time>
      </trkpt>
      <trkpt lat="43.11151" lon="-0.78389">
        <ele>332.2</ele>
        <time>2024-05-30T21:29:26.462Z</time>
      </trkpt>
      <trkpt lat="43.11155" lon="-0.78299">
        <ele>331.98</ele>
        <time>2024-05-30T21:29:38.153Z</time>
      </trkpt>
      <trkpt lat="43.11158" lon="-0.78197">
        <ele>331.14</ele>
        <time>2024-05-30T21:29:49.858Z</time>
      </trkpt>
      <trkpt lat="43.11158" lon="-0.78189">
        <ele>329.97</ele>
        <time>2024-05-30T21:30:01.564Z</time>
      </trkpt>
      <trkpt lat="43.11154" lon="-0.78155">
        <ele>328.79</ele>
        <time>2024-05-30T21:30:13.275Z</time>
      </trkpt>
      <trkpt lat="43.11145" lon="-0.78117">
        <ele>327.66</ele>
        <time>2024-05-30T21:30:24.991Z</time>
      </trkpt>
      <trkpt lat="43.11101" lon="-0.77977">
        <ele>325.99</ele>
        <time>2024-05-30T21:30:36.728Z</time>
      </trkpt>
      <trkpt lat="43.11057" lon="-0.77848">
        <ele>324.67</ele>
        <time>2024-05-30T21:30:48.484Z</time>
      </trkpt>
      <trkpt lat="43.11048" lon="-0.77815">
        <ele>323.48</ele>
        <time>2024-05-30T21:31:00.245Z</time>
      </trkpt>
      <trkpt lat="43.11028" lon="-0.7722">
        <ele>320.13</ele>
        <time>2024-05-30T21:31:12.087Z</time>
      </trkpt>
      <trkpt lat="43.10988" lon="-0.77229">
        <ele>320.08</ele>
        <time>2024-05-30T21:31:23.937Z</time>
      </trkpt>
      <trkpt lat="43.10965" lon="-0.77247">
        <ele>320.05</ele>
        <time>2024-05-30T21:31:35.792Z</time>
      </trkpt>
      <trkpt lat="43.10945" lon="-0.7726">
        <ele>320.03</ele>
        <time>2024-05-30T21:31:47.651Z</time>
      </trkpt>
      <trkpt lat="43.10927" lon="-0.77263">
        <ele>320.13</ele>
        <time>2024-05-30T21:31:59.513Z</time>
      </trkpt>
      <trkpt lat="43.10905" lon="-0.77263">
        <ele>320.31</ele>
        <time>2024-05-30T21:32:11.379Z</time>
      </trkpt>
      <trkpt lat="43.10842" lon="-0.77252">
        <ele>320.9</ele>
        <time>2024-05-30T21:32:23.257Z</time>
      </trkpt>
      <trkpt lat="43.10702" lon="-0.7727">
        <ele>321.36</ele>
        <time>2024-05-30T21:32:35.161Z</time>
      </trkpt>
      <trkpt lat="43.10696" lon="-0.77273">
        <ele>320.31</ele>
        <time>2024-05-30T21:32:47.066Z</time>
      </trkpt>
      <trkpt lat="43.10682" lon="-0.77277">
        <ele>321.74</ele>
        <time>2024-05-30T21:32:58.974Z</time>
      </trkpt>
      <trkpt lat="43.10614" lon="-0.77311">
        <ele>322.26</ele>
        <time>2024-05-30T21:33:10.896Z</time>
      </trkpt>
      <trkpt lat="43.10579" lon="-0.77339">
        <ele>322.72</ele>
        <time>2024-05-30T21:33:22.825Z</time>
      </trkpt>
      <trkpt lat="43.10559" lon="-0.77352">
        <ele>323.23</ele>
        <time>2024-05-30T21:33:34.758Z</time>
      </trkpt>
      <trkpt lat="43.10545" lon="-0.77357">
        <ele>323.74</ele>
        <time>2024-05-30T21:33:46.694Z</time>
      </trkpt>
      <trkpt lat="43.10522" lon="-0.7736">
        <ele>324.27</ele>
        <time>2024-05-30T21:33:58.634Z</time>
      </trkpt>
      <trkpt lat="43.105" lon="-0.77354">
        <ele>324.74</ele>
        <time>2024-05-30T21:34:10.578Z</time>
      </trkpt>
      <trkpt lat="43.10448" lon="-0.77334">
        <ele>325.34</ele>
        <time>2024-05-30T21:34:22.532Z</time>
      </trkpt>
      <trkpt lat="43.10436" lon="-0.77335">
        <ele>326.86</ele>
        <time>2024-05-30T21:34:34.489Z</time>
      </trkpt>
      <trkpt lat="43.10404" lon="-0.77349">
        <ele>327.82</ele>
        <time>2024-05-30T21:34:46.452Z</time>
      </trkpt>
      <trkpt lat="43.10375" lon="-0.77356">
        <ele>328.63</ele>
        <time>2024-05-30T21:34:58.420Z</time>
      </trkpt>
      <trkpt lat="43.10313" lon="-0.77378">
        <ele>328.96</ele>
        <time>2024-05-30T21:35:10.400Z</time>
      </trkpt>
      <trkpt lat="43.10196" lon="-0.77406">
        <ele>329.88</ele>
        <time>2024-05-30T21:35:22.402Z</time>
      </trkpt>
      <trkpt lat="43.10184" lon="-0.77415">
        <ele>330.04</ele>
        <time>2024-05-30T21:35:34.407Z</time>
      </trkpt>
      <trkpt lat="43.10141" lon="-0.77471">
        <ele>330.04</ele>
        <time>2024-05-30T21:35:46.423Z</time>
      </trkpt>
      <trkpt lat="43.10131" lon="-0.77493">
        <ele>329.88</ele>
        <time>2024-05-30T21:35:58.443Z</time>
      </trkpt>
      <trkpt lat="43.10103" lon="-0.77574">
        <ele>330.89</ele>
        <time>2024-05-30T21:36:10.475Z</time>
      </trkpt>
      <trkpt lat="43.10097" lon="-0.77604">
        <ele>331.25</ele>
        <time>2024-05-30T21:36:22.511Z</time>
      </trkpt>
      <trkpt lat="43.10092" lon="-0.77669">
        <ele>331.64</ele>
        <time>2024-05-30T21:36:34.556Z</time>
      </trkpt>
      <trkpt lat="43.10084" lon="-0.77691">
        <ele>332.16</ele>
        <time>2024-05-30T21:36:46.604Z</time>
      </trkpt>
      <trkpt lat="43.10072" lon="-0.7771">
        <ele>332.78</ele>
        <time>2024-05-30T21:36:58.656Z</time>
      </trkpt>
      <trkpt lat="43.10061" lon="-0.77718">
        <ele>333.31</ele>
        <time>2024-05-30T21:37:10.710Z</time>
      </trkpt>
      <trkpt lat="43.10049" lon="-0.77722">
        <ele>333.86</ele>
        <time>2024-05-30T21:37:22.766Z</time>
      </trkpt>
      <trkpt lat="43.10012" lon="-0.77728">
        <ele>334.5</ele>
        <time>2024-05-30T21:37:34.829Z</time>
      </trkpt>
      <trkpt lat="43.09979" lon="-0.77746">
        <ele>335.06</ele>
        <time>2024-05-30T21:37:46.899Z</time>
      </trkpt>
      <trkpt lat="43.09929" lon="-0.77777">
        <ele>335.53</ele>
        <time>2024-05-30T21:37:58.979Z</time>
      </trkpt>
      <trkpt lat="43.09835" lon="-0.77849">
        <ele>335.85</ele>
        <time>2024-05-30T21:38:11.079Z</time>
      </trkpt>
      <trkpt lat="43.09821" lon="-0.77857">
        <ele>336.22</ele>
        <time>2024-05-30T21:38:23.182Z</time>
      </trkpt>
      <trkpt lat="43.09807" lon="-0.7786">
        <ele>336.72</ele>
        <time>2024-05-30T21:38:35.288Z</time>
      </trkpt>
      <trkpt lat="43.09746" lon="-0.77859">
        <ele>336.97</ele>
        <time>2024-05-30T21:38:47.405Z</time>
      </trkpt>
      <trkpt lat="43.09728" lon="-0.77867">
        <ele>337.12</ele>
        <time>2024-05-30T21:38:59.525Z</time>
      </trkpt>
      <trkpt lat="43.09715" lon="-0.77877">
        <ele>337.87</ele>
        <time>2024-05-30T21:39:11.648Z</time>
      </trkpt>
      <trkpt lat="43.09684" lon="-0.77904">
        <ele>338.32</ele>
        <time>2024-05-30T21:39:23.778Z</time>
      </trkpt>
    </trkseg>
  </trk>
</gpx>